Darstellungsparameter: Aktuell verwendete Einstellungen:
Skalierung der Graphiken ... ?
xyx+y,   Skalierungsfaktor:      Skalierung: Modus: x, Faktor: 1
Darstellungszeitraum ... ?
Vom - - bis: - -   Zeitraum: 15.02.2019 - 14.05.2019
Min/Max/Avg-Anzeige ... ?
Zeige MMA aktuell
Zeige MMA Monat
Zeige MMA alles
Zeige --A aktuell
Zeige --A Monat
Zeige --A alles
Keine MMA-Anzeige
MMA:
Keine MMA-Graphiken
MMA-Basis: 15.02.2019 - 14.05.2019
Quicknavigation für Darstellung... ?
Tage:      1T, 2T, 3T, 5T -1T -2T -3T -5T +1T +2T +3T +5T
Wochen: 1W, 2W, 3W -1W -2W -3W +1W +2W +3W
Monate: 1M, 3M, 6M -1M -3M -6M +1M +3M +6M
Jahre:    1J, 3J, 5J, 10J -1J -3J -5J -10J +1J +3J +5J +10J
Nutze für die Darstellung ... ?
Originaldaten oder Mittelwerte auf ...
Stundenbasis Tagesbasis Wochenbasis
Monatsbasis Jahresbasis      Datenbasis: Original-Daten
Darstellen als:
Statistik (Auto) Statistik J:M      Darstellung:
Zur Graphik,    zurück zur Übersicht aller Sensoren.
 
Tabellarische Datenbersicht: ?
 
Sensor: Nr:Datum:Temp:Abs-Feuchte:Windchill:Wind:
Aussen-T/F 1 15-02-2019 00:00:00 -0.3 C 4.41 g/m*3 -0.3 C 0 km/h
2 15-02-2019 00:05:00 -0.4 C 4.38 g/m*3 -0.4 C 0 km/h
3 15-02-2019 00:10:00 -0.4 C 4.43 g/m*3 -0.4 C 0 km/h
4 15-02-2019 00:15:00 -0.4 C 4.43 g/m*3 -0.4 C 0 km/h
5 15-02-2019 00:20:00 -0.4 C 4.43 g/m*3 -0.4 C 0 km/h
6 15-02-2019 00:25:00 -0.6 C 4.32 g/m*3 -0.6 C 0 km/h
7 15-02-2019 00:30:00 -0.6 C 4.37 g/m*3 -0.6 C 0 km/h
8 15-02-2019 00:35:00 -0.7 C 4.34 g/m*3 -0.7 C 0 km/h
9 15-02-2019 00:40:00 -0.7 C 4.34 g/m*3 -0.7 C 0 km/h
10 15-02-2019 00:45:00 -0.7 C 4.34 g/m*3 -0.7 C 0 km/h
11 15-02-2019 00:50:00 -0.7 C 4.34 g/m*3 -0.7 C 0 km/h
12 15-02-2019 00:55:00 -0.7 C 4.34 g/m*3 -0.7 C 0 km/h
13 15-02-2019 01:00:00 -0.7 C 4.34 g/m*3 -0.7 C 0 km/h
14 15-02-2019 01:05:00 -0.8 C 4.31 g/m*3 -0.8 C 0 km/h
15 15-02-2019 01:10:00 -0.8 C 4.31 g/m*3 -0.8 C 0 km/h
16 15-02-2019 01:15:00 -0.8 C 4.31 g/m*3 -0.8 C 0 km/h
17 15-02-2019 01:20:00 -0.9 C 4.28 g/m*3 -0.9 C 0 km/h
18 15-02-2019 01:25:00 -1 C 4.25 g/m*3 -1 C 0 km/h
19 15-02-2019 01:30:00 -1 C 4.25 g/m*3 -1 C 0 km/h
20 15-02-2019 01:35:00 -1 C 4.25 g/m*3 -1 C 0 km/h
21 15-02-2019 01:40:00 -1 C 4.25 g/m*3 -1 C 0 km/h
22 15-02-2019 01:45:00 -1 C 4.29 g/m*3 -1 C 0 km/h
23 15-02-2019 01:50:00 -1.1 C 4.26 g/m*3 -1.1 C 0 km/h
24 15-02-2019 01:55:00 -1.1 C 4.26 g/m*3 -1.1 C 0 km/h
25 15-02-2019 02:00:00 -1.1 C 4.26 g/m*3 -1.1 C 0 km/h
Sensor: Nr:Datum:Temp:Abs-Feuchte:Windchill:Wind:
Aussen-T/F 26 15-02-2019 02:05:00 -1 C 4.29 g/m*3 -1 C 0 km/h
27 15-02-2019 02:10:00 -1 C 4.29 g/m*3 -1 C 0 km/h
28 15-02-2019 02:15:00 -1.1 C 4.22 g/m*3 -1.1 C 0 km/h
29 15-02-2019 02:20:00 -1.1 C 4.22 g/m*3 -1.1 C 0 km/h
30 15-02-2019 02:25:00 -1.1 C 4.26 g/m*3 -1.1 C 0 km/h
31 15-02-2019 02:30:00 -1.1 C 4.26 g/m*3 -1.1 C 0 km/h
32 15-02-2019 02:35:00 -1.2 C 4.24 g/m*3 -1.2 C 0 km/h
33 15-02-2019 02:40:00 -1.2 C 4.24 g/m*3 -1.2 C 0 km/h
34 15-02-2019 02:45:00 -1.3 C 4.21 g/m*3 -1.3 C 0 km/h
35 15-02-2019 02:50:00 -1.3 C 4.21 g/m*3 -1.3 C 0 km/h
36 15-02-2019 02:55:00 -1.3 C 4.21 g/m*3 -1.3 C 0 km/h
37 15-02-2019 03:00:00 -1.3 C 4.21 g/m*3 -1.3 C 0 km/h
38 15-02-2019 03:05:00 -1.3 C 4.21 g/m*3 -1.3 C 0 km/h
39 15-02-2019 03:10:00 -1.4 C 4.18 g/m*3 -1.4 C 0 km/h
40 15-02-2019 03:15:00 -1.4 C 4.18 g/m*3 -1.4 C 0 km/h
41 15-02-2019 03:20:00 -1.4 C 4.18 g/m*3 -1.4 C 0 km/h
42 15-02-2019 03:25:00 -1.4 C 4.18 g/m*3 -1.4 C 0 km/h
43 15-02-2019 03:30:00 -1.5 C 4.15 g/m*3 -1.5 C 0 km/h
44 15-02-2019 03:35:00 -1.5 C 4.15 g/m*3 -1.5 C 0 km/h
45 15-02-2019 03:40:00 -1.5 C 4.15 g/m*3 -1.5 C 0 km/h
46 15-02-2019 03:45:00 -1.5 C 4.15 g/m*3 -1.5 C 0 km/h
47 15-02-2019 03:50:00 -1.4 C 4.18 g/m*3 -1.4 C 0 km/h
48 15-02-2019 03:55:00 -1.3 C 4.21 g/m*3 -1.3 C 0 km/h
49 15-02-2019 04:00:00 -1.2 C 4.24 g/m*3 -1.2 C 0 km/h
50 15-02-2019 04:05:00 -1.2 C 4.24 g/m*3 -1.2 C 0 km/h
Sensor: Nr:Datum:Temp:Abs-Feuchte:Windchill:Wind:
Aussen-T/F 51 15-02-2019 04:10:00 -1.2 C 4.24 g/m*3 -1.2 C 0 km/h
52 15-02-2019 04:15:00 -1.3 C 4.21 g/m*3 -1.3 C 0 km/h
53 15-02-2019 04:20:00 -1.4 C 4.18 g/m*3 -1.4 C 0 km/h
54 15-02-2019 04:25:00 -1.5 C 4.15 g/m*3 -1.5 C 0 km/h
55 15-02-2019 04:30:00 -1.6 C 4.12 g/m*3 -1.6 C 0 km/h
56 15-02-2019 04:35:00 -1.7 C 4.09 g/m*3 -1.7 C 0 km/h
57 15-02-2019 04:40:00 -1.8 C 4.06 g/m*3 -1.8 C 0 km/h
58 15-02-2019 04:45:00 -1.8 C 4.06 g/m*3 -1.8 C 0 km/h
59 15-02-2019 04:50:00 -1.7 C 4.09 g/m*3 -1.7 C 0 km/h
60 15-02-2019 04:55:00 -1.7 C 4.09 g/m*3 -1.7 C 0 km/h
61 15-02-2019 05:00:00 -1.8 C 4.06 g/m*3 -1.8 C 0 km/h
62 15-02-2019 05:05:00 -1.8 C 4.06 g/m*3 -1.8 C 0 km/h
63 15-02-2019 05:10:00 -1.9 C 4.03 g/m*3 -1.9 C 0 km/h
64 15-02-2019 05:15:00 -1.9 C 4.03 g/m*3 -1.9 C 0 km/h
65 15-02-2019 05:20:00 -1.8 C 4.06 g/m*3 -1.8 C 0 km/h
66 15-02-2019 05:25:00 -1.9 C 4.03 g/m*3 -1.9 C 0 km/h
67 15-02-2019 05:30:00 -1.9 C 4.03 g/m*3 -1.9 C 0 km/h
68 15-02-2019 05:35:00 -1.9 C 4.03 g/m*3 -1.9 C 0 km/h
69 15-02-2019 05:40:00 -1.9 C 4.03 g/m*3 -1.9 C 0 km/h
70 15-02-2019 05:45:00 -1.9 C 4.03 g/m*3 -1.9 C 0 km/h
71 15-02-2019 05:50:00 -1.9 C 4.03 g/m*3 -1.9 C 0 km/h
72 15-02-2019 05:55:00 -2 C 4 g/m*3 -2 C 0 km/h
73 15-02-2019 06:00:00 -2 C 4 g/m*3 -2 C 0 km/h
74 15-02-2019 06:05:00 -2.1 C 3.98 g/m*3 -2.1 C 0 km/h
75 15-02-2019 06:10:00 -2.1 C 3.98 g/m*3 -2.1 C 0 km/h
Sensor: Nr:Datum:Temp:Abs-Feuchte:Windchill:Wind:
Aussen-T/F 76 15-02-2019 06:15:00 -2.1 C 3.98 g/m*3 -2.1 C 0 km/h
77 15-02-2019 06:20:00 -2.2 C 3.95 g/m*3 -2.2 C 0 km/h
78 15-02-2019 06:25:00 -2.2 C 3.95 g/m*3 -2.2 C 0 km/h
79 15-02-2019 06:30:00 -2.1 C 3.98 g/m*3 -2.1 C 0 km/h
80 15-02-2019 06:35:00 -2.1 C 3.98 g/m*3 -2.1 C 0 km/h
81 15-02-2019 06:40:00 -2 C 4 g/m*3 -2 C 0 km/h
82 15-02-2019 06:45:00 -1.9 C 4.08 g/m*3 -1.9 C 0 km/h
83 15-02-2019 06:50:00 -2 C 4.05 g/m*3 -2 C 0 km/h
84 15-02-2019 06:55:00 -2.1 C 3.98 g/m*3 -2.1 C 0 km/h
85 15-02-2019 07:00:00 -2.2 C 3.95 g/m*3 -2.2 C 0 km/h
86 15-02-2019 07:05:00 -2.2 C 3.95 g/m*3 -2.2 C 0 km/h
87 15-02-2019 07:10:00 -2.3 C 3.92 g/m*3 -2.3 C 0 km/h
88 15-02-2019 07:15:00 -2.3 C 3.92 g/m*3 -2.3 C 0 km/h
89 15-02-2019 07:20:00 -2.4 C 3.89 g/m*3 -2.4 C 0 km/h
90 15-02-2019 07:25:00 -2.4 C 3.89 g/m*3 -2.4 C 0 km/h
91 15-02-2019 07:30:00 -2.5 C 3.87 g/m*3 -2.5 C 0 km/h
92 15-02-2019 07:35:00 -2.5 C 3.87 g/m*3 -2.5 C 0 km/h
93 15-02-2019 07:40:00 -2.5 C 3.87 g/m*3 -2.5 C 0 km/h
94 15-02-2019 07:45:00 -2.5 C 3.87 g/m*3 -2.5 C 0 km/h
95 15-02-2019 07:50:00 -2.5 C 3.87 g/m*3 -2.5 C 0 km/h
96 15-02-2019 07:55:00 -2.5 C 3.87 g/m*3 -2.5 C 0 km/h
97 15-02-2019 08:00:00 -2.4 C 3.93 g/m*3 -2.4 C 0 km/h
98 15-02-2019 08:05:00 -2.4 C 3.93 g/m*3 -2.4 C 0 km/h
99 15-02-2019 08:10:00 -2.3 C 3.96 g/m*3 -2.3 C 0 km/h
100 15-02-2019 08:15:00 -2.2 C 3.99 g/m*3 -2.2 C 0 km/h
Sensor: Nr:Datum:Temp:Abs-Feuchte:Windchill:Wind:
Aussen-T/F 101 15-02-2019 08:20:00 -2.2 C 3.99 g/m*3 -2.2 C 0 km/h
102 15-02-2019 08:25:00 -2.1 C 4.02 g/m*3 -2.1 C 0 km/h
103 15-02-2019 08:30:00 -2.1 C 4.02 g/m*3 -2.1 C 0 km/h
104 15-02-2019 08:35:00 -2.1 C 4.02 g/m*3 -2.1 C 0 km/h
105 15-02-2019 08:40:00 -2.1 C 4.02 g/m*3 -2.1 C 0 km/h
106 15-02-2019 08:45:00 -2.1 C 4.02 g/m*3 -2.1 C 0 km/h
107 15-02-2019 08:50:00 -2.2 C 3.99 g/m*3 -2.2 C 0 km/h
108 15-02-2019 08:55:00 -2.2 C 3.99 g/m*3 -2.2 C 0 km/h
109 15-02-2019 09:00:00 -2.1 C 4.02 g/m*3 -2.1 C 0 km/h
110 15-02-2019 09:05:00 -2.1 C 4.02 g/m*3 -2.1 C 0 km/h
111 15-02-2019 09:10:00 -2 C 4.05 g/m*3 -2 C 0 km/h
112 15-02-2019 09:15:00 -1.9 C 4.08 g/m*3 -1.9 C 0 km/h
113 15-02-2019 09:20:00 -1.8 C 4.1 g/m*3 -1.8 C 0 km/h
114 15-02-2019 09:25:00 -1.8 C 4.1 g/m*3 -1.8 C 0 km/h
115 15-02-2019 09:30:00 -1.7 C 4.13 g/m*3 -1.7 C 0 km/h
116 15-02-2019 09:35:00 -1.5 C 4.19 g/m*3 -1.5 C 0 km/h
117 15-02-2019 09:40:00 -1.5 C 4.19 g/m*3 -1.5 C 0 km/h
118 15-02-2019 09:45:00 -1.4 C 4.22 g/m*3 -1.4 C 0 km/h
119 15-02-2019 09:50:00 -1.3 C 4.25 g/m*3 -1.3 C 0 km/h
120 15-02-2019 09:55:00 -1.2 C 4.28 g/m*3 -1.2 C 0 km/h
121 15-02-2019 10:00:00 -1.2 C 4.28 g/m*3 -1.2 C 0 km/h
122 15-02-2019 10:05:00 -1.1 C 4.31 g/m*3 -1.1 C 0 km/h
123 15-02-2019 10:10:00 -1 C 4.34 g/m*3 -1 C 0 km/h
124 15-02-2019 10:15:00 -0.9 C 4.37 g/m*3 -0.9 C 0 km/h
125 15-02-2019 10:20:00 -0.9 C 4.37 g/m*3 -0.9 C 0 km/h
Sensor: Nr:Datum:Temp:Abs-Feuchte:Windchill:Wind:
Aussen-T/F 126 15-02-2019 10:25:00 -0.8 C 4.4 g/m*3 -0.8 C 0 km/h
127 15-02-2019 10:30:00 -0.7 C 4.43 g/m*3 -0.7 C 0 km/h
128 15-02-2019 10:35:00 -0.6 C 4.46 g/m*3 -0.6 C 0 km/h
129 15-02-2019 10:40:00 -0.5 C 4.49 g/m*3 -0.5 C 0 km/h
130 15-02-2019 10:45:00 -0.3 C 4.6 g/m*3 -0.3 C 0 km/h
131 15-02-2019 10:50:00 -0.3 C 4.6 g/m*3 -0.3 C 0 km/h
132 15-02-2019 10:55:00 -0.1 C 4.62 g/m*3 -0.1 C 0 km/h
133 15-02-2019 11:00:00 0.1 C 4.73 g/m*3 0.1 C 0 km/h
134 15-02-2019 11:05:00 0.3 C 4.8 g/m*3 0.3 C 0 km/h
135 15-02-2019 11:10:00 0.6 C 4.9 g/m*3 0.6 C 0 km/h
136 15-02-2019 11:15:00 0.8 C 4.97 g/m*3 0.8 C 0 km/h
137 15-02-2019 11:20:00 1 C 5.03 g/m*3 1 C 0 km/h
138 15-02-2019 11:25:00 1.2 C 5.1 g/m*3 1.2 C 0 km/h
139 15-02-2019 11:30:00 1.4 C 5.17 g/m*3 1.4 C 0 km/h
140 15-02-2019 11:35:00 1.7 C 5.28 g/m*3 1.7 C 0 km/h
141 15-02-2019 11:40:00 1.8 C 5.32 g/m*3 1.8 C 0 km/h
142 15-02-2019 11:45:00 2 C 5.39 g/m*3 2 C 0 km/h
143 15-02-2019 11:50:00 2.1 C 5.43 g/m*3 2.1 C 0 km/h
144 15-02-2019 11:55:00 2.2 C 5.46 g/m*3 2.2 C 0 km/h
145 15-02-2019 12:00:00 2.2 C 5.46 g/m*3 2.2 C 0 km/h
146 15-02-2019 12:05:00 2.3 C 5.5 g/m*3 2.3 C 0 km/h
147 15-02-2019 12:10:00 2.6 C 5.61 g/m*3 2.6 C 0 km/h
148 15-02-2019 12:15:00 2.7 C 5.65 g/m*3 2.7 C 0 km/h
149 15-02-2019 12:20:00 2.9 C 5.73 g/m*3 2.9 C 0 km/h
150 15-02-2019 12:25:00 3.2 C 5.85 g/m*3 3.2 C 0 km/h
Sensor: Nr:Datum:Temp:Abs-Feuchte:Windchill:Wind:
Aussen-T/F 151 15-02-2019 12:30:00 3.6 C 6 g/m*3 3.6 C 0 km/h
152 15-02-2019 12:35:00 3.8 C 6.09 g/m*3 3.8 C 0 km/h
153 15-02-2019 12:40:00 4.1 C 6.21 g/m*3 4.1 C 0 km/h
154 15-02-2019 12:45:00 4.3 C 6.23 g/m*3 4.3 C 0 km/h
155 15-02-2019 12:50:00 4.6 C 6.35 g/m*3 4.6 C 0 km/h
156 15-02-2019 12:55:00 4.7 C 6.33 g/m*3 4.7 C 0 km/h
157 15-02-2019 13:00:00 4.8 C 6.37 g/m*3 4.8 C 0 km/h
158 15-02-2019 13:05:00 4.9 C 6.35 g/m*3 4.9 C 0 km/h
159 15-02-2019 13:10:00 5.1 C 6.43 g/m*3 5.1 C 0 km/h
160 15-02-2019 13:15:00 5.3 C 6.52 g/m*3 5.3 C 0 km/h
161 15-02-2019 13:20:00 5.5 C 6.53 g/m*3 5.5 C 0 km/h
162 15-02-2019 13:25:00 5.7 C 6.62 g/m*3 5.7 C 0 km/h
163 15-02-2019 13:30:00 5.9 C 6.63 g/m*3 5.9 C 4.8 km/h
164 15-02-2019 13:35:00 6.2 C 6.69 g/m*3 6.2 C 4.8 km/h
165 15-02-2019 13:40:00 6.5 C 6.75 g/m*3 6.5 C 4.8 km/h
166 15-02-2019 13:45:00 6.8 C 6.81 g/m*3 6.8 C 4.8 km/h
167 15-02-2019 13:50:00 7.1 C 6.86 g/m*3 7.1 C 4.8 km/h
168 15-02-2019 13:55:00 7.4 C 6.84 g/m*3 7.4 C 4.8 km/h
169 15-02-2019 14:00:00 7.7 C 6.89 g/m*3 6.71 C 6.4 km/h
170 15-02-2019 14:05:00 7.8 C 6.86 g/m*3 7.8 C 4.8 km/h
171 15-02-2019 14:10:00 8.1 C 6.99 g/m*3 8.1 C 4.8 km/h
172 15-02-2019 14:15:00 8.2 C 6.95 g/m*3 8.2 C 4.8 km/h
173 15-02-2019 14:20:00 8.3 C 6.91 g/m*3 7.41 C 6.4 km/h
174 15-02-2019 14:25:00 8.3 C 6.91 g/m*3 8.3 C 4.8 km/h
175 15-02-2019 14:30:00 8.3 C 6.91 g/m*3 8.3 C 4.8 km/h
Sensor: Nr:Datum:Temp:Abs-Feuchte:Windchill:Wind:
Aussen-T/F 176 15-02-2019 14:35:00 8.3 C 6.91 g/m*3 8.3 C 4.8 km/h
177 15-02-2019 14:40:00 8.4 C 6.96 g/m*3 8.4 C 4.8 km/h
178 15-02-2019 14:45:00 8.4 C 6.96 g/m*3 8.4 C 4.8 km/h
179 15-02-2019 14:50:00 8.6 C 7.05 g/m*3 8.6 C 4.8 km/h
180 15-02-2019 14:55:00 8.7 C 7.09 g/m*3 7.87 C 6.4 km/h
181 15-02-2019 15:00:00 8.8 C 7.05 g/m*3 8.8 C 4.8 km/h
182 15-02-2019 15:05:00 8.9 C 7.01 g/m*3 8.9 C 4.8 km/h
183 15-02-2019 15:10:00 9.2 C 7.14 g/m*3 9.2 C 4.8 km/h
184 15-02-2019 15:15:00 9.3 C 7.1 g/m*3 9.3 C 4.8 km/h
185 15-02-2019 15:20:00 9.5 C 7.19 g/m*3 9.5 C 4.8 km/h
186 15-02-2019 15:25:00 9.6 C 7.15 g/m*3 9.6 C 4.8 km/h
187 15-02-2019 15:30:00 9.8 C 7.14 g/m*3 9.14 C 6.4 km/h
188 15-02-2019 15:35:00 9.8 C 7.14 g/m*3 9.14 C 6.4 km/h
189 15-02-2019 15:40:00 9.9 C 7.1 g/m*3 9.25 C 6.4 km/h
190 15-02-2019 15:45:00 9.9 C 7 g/m*3 9.25 C 6.4 km/h
191 15-02-2019 15:50:00 10.1 C 7.09 g/m*3 9.48 C 6.4 km/h
192 15-02-2019 15:55:00 10.2 C 6.85 g/m*3 10.2 C 4.8 km/h
193 15-02-2019 16:00:00 10.4 C 6.84 g/m*3 9.83 C 6.4 km/h
194 15-02-2019 16:05:00 10.8 C 6.33 g/m*3 10.8 C 3.2 km/h
195 15-02-2019 16:10:00 11.2 C 6.89 g/m*3 11.2 C 6.4 km/h
196 15-02-2019 16:15:00 11.3 C 6.94 g/m*3 11.3 C 6.4 km/h
197 15-02-2019 16:20:00 11.1 C 6.75 g/m*3 11.1 C 6.4 km/h
198 15-02-2019 16:25:00 10.9 C 6.76 g/m*3 10.41 C 6.4 km/h
199 15-02-2019 16:30:00 10.8 C 6.82 g/m*3 10.29 C 6.4 km/h
200 15-02-2019 16:35:00 10.6 C 6.83 g/m*3 10.06 C 6.4 km/h
Sensor: Nr:Datum:Temp:Abs-Feuchte:Windchill:Wind:
Aussen-T/F 201 15-02-2019 16:40:00 10.3 C 6.7 g/m*3 9.72 C 6.4 km/h
202 15-02-2019 16:45:00 10.2 C 6.66 g/m*3 9.6 C 6.4 km/h
203 15-02-2019 16:50:00 10.2 C 6.76 g/m*3 9.6 C 6.4 km/h
204 15-02-2019 16:55:00 10.1 C 6.71 g/m*3 9.48 C 6.4 km/h
205 15-02-2019 17:00:00 10 C 6.67 g/m*3 9.37 C 6.4 km/h
206 15-02-2019 17:05:00 9.9 C 6.63 g/m*3 9.25 C 6.4 km/h
207 15-02-2019 17:10:00 9.9 C 6.63 g/m*3 9.25 C 6.4 km/h
208 15-02-2019 17:15:00 9.8 C 6.59 g/m*3 9.14 C 6.4 km/h
209 15-02-2019 17:20:00 9.7 C 6.55 g/m*3 8.63 C 8.1 km/h
210 15-02-2019 17:25:00 9.6 C 6.5 g/m*3 8.52 C 8.1 km/h
211 15-02-2019 17:30:00 9.4 C 6.51 g/m*3 8.68 C 6.4 km/h
212 15-02-2019 17:35:00 9.3 C 6.38 g/m*3 8.56 C 6.4 km/h
213 15-02-2019 17:40:00 9 C 6.35 g/m*3 8.21 C 6.4 km/h
214 15-02-2019 17:45:00 8.8 C 6.35 g/m*3 7.98 C 6.4 km/h
215 15-02-2019 17:50:00 8.6 C 6.27 g/m*3 7.75 C 6.4 km/h
216 15-02-2019 17:55:00 8.3 C 6.15 g/m*3 7.41 C 6.4 km/h
217 15-02-2019 18:00:00 8.1 C 6.16 g/m*3 7.17 C 6.4 km/h
218 15-02-2019 18:05:00 7.8 C 6.04 g/m*3 6.83 C 6.4 km/h
219 15-02-2019 18:10:00 7.7 C 6.08 g/m*3 6.71 C 6.4 km/h
220 15-02-2019 18:15:00 7.6 C 6.04 g/m*3 6.6 C 6.4 km/h
221 15-02-2019 18:20:00 7.4 C 6.04 g/m*3 7.4 C 4.8 km/h
222 15-02-2019 18:25:00 7.3 C 6 g/m*3 6.25 C 6.4 km/h
223 15-02-2019 18:30:00 7.1 C 5.93 g/m*3 7.1 C 4.8 km/h
224 15-02-2019 18:35:00 7 C 5.97 g/m*3 5.9 C 6.4 km/h
225 15-02-2019 18:40:00 6.9 C 5.93 g/m*3 5.79 C 6.4 km/h
Sensor: Nr:Datum:Temp:Abs-Feuchte:Windchill:Wind:
Aussen-T/F 226 15-02-2019 18:45:00 6.9 C 5.93 g/m*3 6.9 C 4.8 km/h
227 15-02-2019 18:50:00 6.8 C 5.89 g/m*3 5.67 C 6.4 km/h
228 15-02-2019 18:55:00 6.7 C 5.93 g/m*3 6.7 C 4.8 km/h
229 15-02-2019 19:00:00 6.6 C 5.89 g/m*3 5.44 C 6.4 km/h
230 15-02-2019 19:05:00 6.6 C 5.89 g/m*3 6.6 C 4.8 km/h
231 15-02-2019 19:10:00 6.4 C 5.89 g/m*3 6.4 C 4.8 km/h
232 15-02-2019 19:15:00 6.3 C 5.85 g/m*3 5.1 C 6.4 km/h
233 15-02-2019 19:20:00 6.3 C 5.92 g/m*3 5.1 C 6.4 km/h
234 15-02-2019 19:25:00 6.3 C 5.92 g/m*3 5.1 C 6.4 km/h
235 15-02-2019 19:30:00 6.2 C 5.88 g/m*3 6.2 C 4.8 km/h
236 15-02-2019 19:35:00 6.2 C 5.96 g/m*3 6.2 C 4.8 km/h
237 15-02-2019 19:40:00 6.1 C 5.84 g/m*3 6.1 C 1.6 km/h
238 15-02-2019 19:45:00 5.9 C 5.77 g/m*3 5.9 C 1.6 km/h
239 15-02-2019 19:50:00 5.7 C 5.76 g/m*3 5.7 C 0 km/h
240 15-02-2019 19:55:00 5.4 C 5.65 g/m*3 5.4 C 3.2 km/h
241 15-02-2019 20:00:00 5.2 C 5.65 g/m*3 5.2 C 1.6 km/h
242 15-02-2019 20:05:00 5.1 C 5.75 g/m*3 5.1 C 0 km/h
243 15-02-2019 20:10:00 4.9 C 5.67 g/m*3 4.9 C 0 km/h
244 15-02-2019 20:15:00 4.8 C 5.63 g/m*3 4.8 C 0 km/h
245 15-02-2019 20:20:00 4.7 C 5.6 g/m*3 4.7 C 3.2 km/h
246 15-02-2019 20:25:00 4.6 C 5.56 g/m*3 4.6 C 0 km/h
247 15-02-2019 20:30:00 4.4 C 5.48 g/m*3 4.4 C 0 km/h
248 15-02-2019 20:35:00 4.2 C 5.48 g/m*3 4.2 C 0 km/h
249 15-02-2019 20:40:00 4.1 C 5.44 g/m*3 4.1 C 0 km/h
250 15-02-2019 20:45:00 3.9 C 5.43 g/m*3 3.9 C 0 km/h
Sensor: Nr:Datum:Temp:Abs-Feuchte:Windchill:Wind:
Aussen-T/F 251 15-02-2019 20:50:00 3.9 C 5.37 g/m*3 3.9 C 0 km/h
252 15-02-2019 20:55:00 3.8 C 5.46 g/m*3 3.8 C 1.6 km/h
253 15-02-2019 21:00:00 3.7 C 5.42 g/m*3 3.7 C 0 km/h
254 15-02-2019 21:05:00 3.6 C 5.45 g/m*3 3.6 C 0 km/h
255 15-02-2019 21:10:00 3.4 C 5.31 g/m*3 3.4 C 0 km/h
256 15-02-2019 21:15:00 3.3 C 5.34 g/m*3 3.3 C 0 km/h
257 15-02-2019 21:20:00 3.3 C 5.4 g/m*3 3.3 C 0 km/h
258 15-02-2019 21:25:00 3.3 C 5.4 g/m*3 3.3 C 0 km/h
259 15-02-2019 21:30:00 3.2 C 5.3 g/m*3 3.2 C 0 km/h
260 15-02-2019 21:35:00 3.1 C 5.27 g/m*3 3.1 C 0 km/h
261 15-02-2019 21:40:00 2.9 C 5.2 g/m*3 2.9 C 0 km/h
262 15-02-2019 21:45:00 2.8 C 5.22 g/m*3 2.8 C 0 km/h
263 15-02-2019 21:50:00 2.7 C 5.19 g/m*3 2.7 C 0 km/h
264 15-02-2019 21:55:00 2.6 C 5.15 g/m*3 2.6 C 0 km/h
265 15-02-2019 22:00:00 2.4 C 5.08 g/m*3 2.4 C 0 km/h
266 15-02-2019 22:05:00 2.4 C 5.14 g/m*3 2.4 C 0 km/h
267 15-02-2019 22:10:00 2.3 C 5.05 g/m*3 2.3 C 0 km/h
268 15-02-2019 22:15:00 2.1 C 5.04 g/m*3 2.1 C 0 km/h
269 15-02-2019 22:20:00 1.9 C 4.97 g/m*3 1.9 C 0 km/h
270 15-02-2019 22:25:00 1.8 C 4.93 g/m*3 1.8 C 0 km/h
271 15-02-2019 22:30:00 1.7 C 4.9 g/m*3 1.7 C 0 km/h
272 15-02-2019 22:35:00 1.7 C 4.95 g/m*3 1.7 C 0 km/h
273 15-02-2019 22:40:00 1.6 C 4.92 g/m*3 1.6 C 0 km/h
274 15-02-2019 22:45:00 1.5 C 4.89 g/m*3 1.5 C 0 km/h
275 15-02-2019 22:50:00 1.4 C 4.85 g/m*3 1.4 C 0 km/h
Sensor: Nr:Datum:Temp:Abs-Feuchte:Windchill:Wind:
Aussen-T/F 276 15-02-2019 22:55:00 1.4 C 4.91 g/m*3 1.4 C 0 km/h
277 15-02-2019 23:00:00 1.4 C 4.91 g/m*3 1.4 C 0 km/h
278 15-02-2019 23:05:00 1.4 C 4.91 g/m*3 1.4 C 0 km/h
279 15-02-2019 23:10:00 1.4 C 4.91 g/m*3 1.4 C 0 km/h
280 15-02-2019 23:15:00 1.4 C 4.91 g/m*3 1.4 C 0 km/h
281 15-02-2019 23:20:00 1.3 C 4.87 g/m*3 1.3 C 0 km/h
282 15-02-2019 23:25:00 1.3 C 4.87 g/m*3 1.3 C 0 km/h
283 15-02-2019 23:30:00 1.2 C 4.84 g/m*3 1.2 C 0 km/h
284 15-02-2019 23:35:00 1.2 C 4.84 g/m*3 1.2 C 0 km/h
285 15-02-2019 23:40:00 1.2 C 4.89 g/m*3 1.2 C 0 km/h
286 15-02-2019 23:45:00 1.2 C 4.84 g/m*3 1.2 C 0 km/h
287 15-02-2019 23:50:00 1 C 4.78 g/m*3 1 C 0 km/h
288 15-02-2019 23:55:00 0.8 C 4.71 g/m*3 0.8 C 0 km/h
289 16-02-2019 00:00:00 0.8 C 4.76 g/m*3 0.8 C 0 km/h
290 16-02-2019 00:05:00 0.8 C 4.76 g/m*3 0.8 C 0 km/h
291 16-02-2019 00:10:00 0.7 C 4.68 g/m*3 0.7 C 0 km/h
292 16-02-2019 00:15:00 0.6 C 4.7 g/m*3 0.6 C 0 km/h
293 16-02-2019 00:20:00 0.5 C 4.61 g/m*3 0.5 C 0 km/h
294 16-02-2019 00:25:00 0.4 C 4.63 g/m*3 0.4 C 0 km/h
295 16-02-2019 00:30:00 0.3 C 4.6 g/m*3 0.3 C 0 km/h
296 16-02-2019 00:35:00 0.3 C 4.6 g/m*3 0.3 C 0 km/h
297 16-02-2019 00:40:00 0.3 C 4.6 g/m*3 0.3 C 0 km/h
298 16-02-2019 00:45:00 0.2 C 4.57 g/m*3 0.2 C 0 km/h
299 16-02-2019 00:50:00 0.1 C 4.54 g/m*3 0.1 C 0 km/h
300 16-02-2019 00:55:00 0 C 4.51 g/m*3 0 C 0 km/h
Sensor: Nr:Datum:Temp:Abs-Feuchte:Windchill:Wind:
Aussen-T/F 301 16-02-2019 01:00:00 -0.1 C 4.47 g/m*3 -0.1 C 0 km/h
302 16-02-2019 01:05:00 0 C 4.55 g/m*3 0 C 0 km/h
303 16-02-2019 01:10:00 -0.1 C 4.52 g/m*3 -0.1 C 0 km/h
304 16-02-2019 01:15:00 -0.2 C 4.44 g/m*3 -0.2 C 0 km/h
305 16-02-2019 01:20:00 -0.2 C 4.49 g/m*3 -0.2 C 0 km/h
306 16-02-2019 01:25:00 -0.2 C 4.49 g/m*3 -0.2 C 0 km/h
307 16-02-2019 01:30:00 -0.1 C 4.52 g/m*3 -0.1 C 0 km/h
308 16-02-2019 01:35:00 -0.1 C 4.52 g/m*3 -0.1 C 0 km/h
309 16-02-2019 01:40:00 -0.1 C 4.52 g/m*3 -0.1 C 0 km/h
310 16-02-2019 01:45:00 -0.2 C 4.49 g/m*3 -0.2 C 0 km/h
311 16-02-2019 01:50:00 -0.2 C 4.49 g/m*3 -0.2 C 0 km/h
312 16-02-2019 01:55:00 -0.3 C 4.46 g/m*3 -0.3 C 0 km/h
313 16-02-2019 02:00:00 -0.3 C 4.46 g/m*3 -0.3 C 0 km/h
314 16-02-2019 02:05:00 -0.3 C 4.46 g/m*3 -0.3 C 0 km/h
315 16-02-2019 02:10:00 -0.3 C 4.51 g/m*3 -0.3 C 0 km/h
316 16-02-2019 02:15:00 -0.2 C 4.54 g/m*3 -0.2 C 0 km/h
317 16-02-2019 02:20:00 -0.3 C 4.46 g/m*3 -0.3 C 0 km/h
318 16-02-2019 02:25:00 -0.4 C 4.43 g/m*3 -0.4 C 0 km/h
319 16-02-2019 02:30:00 -0.5 C 4.4 g/m*3 -0.5 C 0 km/h
320 16-02-2019 02:35:00 -0.7 C 4.34 g/m*3 -0.7 C 0 km/h
321 16-02-2019 02:40:00 -0.7 C 4.34 g/m*3 -0.7 C 0 km/h
322 16-02-2019 02:45:00 -0.7 C 4.39 g/m*3 -0.7 C 3.2 km/h
323 16-02-2019 02:50:00 -0.7 C 4.39 g/m*3 -0.7 C 3.2 km/h
324 16-02-2019 02:55:00 -0.7 C 4.39 g/m*3 -0.7 C 0 km/h
325 16-02-2019 03:00:00 -0.8 C 4.31 g/m*3 -0.8 C 0 km/h
Sensor: Nr:Datum:Temp:Abs-Feuchte:Windchill:Wind:
Aussen-T/F 326 16-02-2019 03:05:00 -0.8 C 4.31 g/m*3 -0.8 C 0 km/h
327 16-02-2019 03:10:00 -0.9 C 4.28 g/m*3 -0.9 C 0 km/h
328 16-02-2019 03:15:00 -0.9 C 4.32 g/m*3 -0.9 C 0 km/h
329 16-02-2019 03:20:00 -0.9 C 4.32 g/m*3 -0.9 C 0 km/h
330 16-02-2019 03:25:00 -0.8 C 4.35 g/m*3 -0.8 C 1.6 km/h
331 16-02-2019 03:30:00 -0.6 C 4.42 g/m*3 -0.6 C 0 km/h
332 16-02-2019 03:35:00 -0.6 C 4.42 g/m*3 -0.6 C 0 km/h
333 16-02-2019 03:40:00 -0.7 C 4.39 g/m*3 -0.7 C 0 km/h
334 16-02-2019 03:45:00 -0.7 C 4.39 g/m*3 -0.7 C 0 km/h
335 16-02-2019 03:50:00 -0.7 C 4.39 g/m*3 -0.7 C 0 km/h
336 16-02-2019 03:55:00 -0.7 C 4.39 g/m*3 -0.7 C 0 km/h
337 16-02-2019 04:00:00 -0.8 C 4.35 g/m*3 -0.8 C 0 km/h
338 16-02-2019 04:05:00 -0.6 C 4.42 g/m*3 -0.6 C 0 km/h
339 16-02-2019 04:10:00 -0.6 C 4.42 g/m*3 -0.6 C 0 km/h
340 16-02-2019 04:15:00 -0.7 C 4.39 g/m*3 -0.7 C 0 km/h
341 16-02-2019 04:20:00 -0.8 C 4.35 g/m*3 -0.8 C 0 km/h
342 16-02-2019 04:25:00 -0.9 C 4.32 g/m*3 -0.9 C 0 km/h
343 16-02-2019 04:30:00 -1 C 4.29 g/m*3 -1 C 0 km/h
344 16-02-2019 04:35:00 -1 C 4.29 g/m*3 -1 C 1.6 km/h
345 16-02-2019 04:40:00 -1.1 C 4.26 g/m*3 -1.1 C 0 km/h
346 16-02-2019 04:45:00 -1.2 C 4.24 g/m*3 -1.2 C 0 km/h
347 16-02-2019 04:50:00 -1.2 C 4.24 g/m*3 -1.2 C 0 km/h
348 16-02-2019 04:55:00 -1.2 C 4.24 g/m*3 -1.2 C 0 km/h
349 16-02-2019 05:00:00 -1.1 C 4.26 g/m*3 -1.1 C 3.2 km/h
350 16-02-2019 05:05:00 -0.9 C 4.37 g/m*3 -0.9 C 1.6 km/h
Sensor: Nr:Datum:Temp:Abs-Feuchte:Windchill:Wind:
Aussen-T/F 351 16-02-2019 05:10:00 -0.8 C 4.35 g/m*3 -0.8 C 0 km/h
352 16-02-2019 05:15:00 -0.9 C 4.32 g/m*3 -0.9 C 0 km/h
353 16-02-2019 05:20:00 -1.2 C 4.24 g/m*3 -1.2 C 0 km/h
354 16-02-2019 05:25:00 -1.3 C 4.21 g/m*3 -1.3 C 0 km/h
355 16-02-2019 05:30:00 -1.4 C 4.18 g/m*3 -1.4 C 0 km/h
356 16-02-2019 05:35:00 -1.5 C 4.15 g/m*3 -1.5 C 0 km/h
357 16-02-2019 05:40:00 -1.4 C 4.18 g/m*3 -1.4 C 3.2 km/h
358 16-02-2019 05:45:00 -1.1 C 4.31 g/m*3 -1.1 C 3.2 km/h
359 16-02-2019 05:50:00 -0.9 C 4.37 g/m*3 -0.9 C 1.6 km/h
360 16-02-2019 05:55:00 -0.9 C 4.37 g/m*3 -0.9 C 0 km/h
361 16-02-2019 06:00:00 -1.1 C 4.26 g/m*3 -1.1 C 0 km/h
362 16-02-2019 06:05:00 -1.3 C 4.21 g/m*3 -1.3 C 0 km/h
363 16-02-2019 06:10:00 -1.4 C 4.18 g/m*3 -1.4 C 0 km/h
364 16-02-2019 06:15:00 -1.3 C 4.21 g/m*3 -1.3 C 3.2 km/h
365 16-02-2019 06:20:00 -1.2 C 4.28 g/m*3 -1.2 C 0 km/h
366 16-02-2019 06:25:00 -1.2 C 4.24 g/m*3 -1.2 C 0 km/h
367 16-02-2019 06:30:00 -1.3 C 4.21 g/m*3 -1.3 C 0 km/h
368 16-02-2019 06:35:00 -1.2 C 4.24 g/m*3 -1.2 C 1.6 km/h
369 16-02-2019 06:40:00 -1.2 C 4.28 g/m*3 -1.2 C 0 km/h
370 16-02-2019 06:45:00 -1.2 C 4.28 g/m*3 -1.2 C 0 km/h
371 16-02-2019 06:50:00 -1.1 C 4.31 g/m*3 -1.1 C 1.6 km/h
372 16-02-2019 06:55:00 -1 C 4.34 g/m*3 -1 C 3.2 km/h
373 16-02-2019 07:00:00 -1.1 C 4.26 g/m*3 -1.1 C 0 km/h
374 16-02-2019 07:05:00 -1.2 C 4.24 g/m*3 -1.2 C 0 km/h
375 16-02-2019 07:10:00 -1.4 C 4.18 g/m*3 -1.4 C 1.6 km/h
Sensor: Nr:Datum:Temp:Abs-Feuchte:Windchill:Wind:
Aussen-T/F 376 16-02-2019 07:15:00 -1.6 C 4.12 g/m*3 -1.6 C 0 km/h
377 16-02-2019 07:20:00 -1.7 C 4.09 g/m*3 -1.7 C 0 km/h
378 16-02-2019 07:25:00 -1.7 C 4.09 g/m*3 -1.7 C 0 km/h
379 16-02-2019 07:30:00 -1.7 C 4.09 g/m*3 -1.7 C 0 km/h
380 16-02-2019 07:35:00 -1.7 C 4.09 g/m*3 -1.7 C 0 km/h
381 16-02-2019 07:40:00 -1.8 C 4.06 g/m*3 -1.8 C 0 km/h
382 16-02-2019 07:45:00 -1.9 C 4.03 g/m*3 -1.9 C 0 km/h
383 16-02-2019 07:50:00 -1.9 C 4.03 g/m*3 -1.9 C 0 km/h
384 16-02-2019 07:55:00 -2 C 4 g/m*3 -2 C 0 km/h
385 16-02-2019 08:00:00 -2 C 4 g/m*3 -2 C 0 km/h
386 16-02-2019 08:05:00 -1.9 C 4.08 g/m*3 -1.9 C 0 km/h
387 16-02-2019 08:10:00 -1.8 C 4.1 g/m*3 -1.8 C 0 km/h
388 16-02-2019 08:15:00 -1.8 C 4.1 g/m*3 -1.8 C 0 km/h
389 16-02-2019 08:20:00 -1.8 C 4.06 g/m*3 -1.8 C 0 km/h
390 16-02-2019 08:25:00 -1.8 C 4.06 g/m*3 -1.8 C 0 km/h
391 16-02-2019 08:30:00 -1.8 C 4.06 g/m*3 -1.8 C 0 km/h
392 16-02-2019 08:35:00 -1.8 C 4.06 g/m*3 -1.8 C 0 km/h
393 16-02-2019 08:40:00 -1.8 C 4.06 g/m*3 -1.8 C 0 km/h
394 16-02-2019 08:45:00 -1.7 C 4.13 g/m*3 -1.7 C 0 km/h
395 16-02-2019 08:50:00 -1.6 C 4.16 g/m*3 -1.6 C 1.6 km/h
396 16-02-2019 08:55:00 -1.6 C 4.16 g/m*3 -1.6 C 0 km/h
397 16-02-2019 09:00:00 -1.4 C 4.22 g/m*3 -1.4 C 0 km/h
398 16-02-2019 09:05:00 -1.3 C 4.25 g/m*3 -1.3 C 0 km/h
399 16-02-2019 09:10:00 -1.2 C 4.28 g/m*3 -1.2 C 0 km/h
400 16-02-2019 09:15:00 -1.2 C 4.28 g/m*3 -1.2 C 0 km/h
Sensor: Nr:Datum:Temp:Abs-Feuchte:Windchill:Wind:
Aussen-T/F 401 16-02-2019 09:20:00 -1.2 C 4.28 g/m*3 -1.2 C 0 km/h
402 16-02-2019 09:25:00 -1.2 C 4.28 g/m*3 -1.2 C 0 km/h
403 16-02-2019 09:30:00 -1.2 C 4.28 g/m*3 -1.2 C 0 km/h
404 16-02-2019 09:35:00 -1.1 C 4.31 g/m*3 -1.1 C 0 km/h
405 16-02-2019 09:40:00 -0.9 C 4.37 g/m*3 -0.9 C 0 km/h
406 16-02-2019 09:45:00 -0.8 C 4.4 g/m*3 -0.8 C 0 km/h
407 16-02-2019 09:50:00 -0.8 C 4.4 g/m*3 -0.8 C 0 km/h
408 16-02-2019 09:55:00 -0.8 C 4.4 g/m*3 -0.8 C 0 km/h
409 16-02-2019 10:00:00 -0.8 C 4.4 g/m*3 -0.8 C 0 km/h
410 16-02-2019 10:05:00 -0.8 C 4.4 g/m*3 -0.8 C 0 km/h
411 16-02-2019 10:10:00 -0.7 C 4.43 g/m*3 -0.7 C 0 km/h
412 16-02-2019 10:15:00 -0.6 C 4.46 g/m*3 -0.6 C 0 km/h
413 16-02-2019 10:20:00 -0.6 C 4.46 g/m*3 -0.6 C 0 km/h
414 16-02-2019 10:25:00 -0.5 C 4.49 g/m*3 -0.5 C 0 km/h
415 16-02-2019 10:30:00 -0.3 C 4.56 g/m*3 -0.3 C 0 km/h
416 16-02-2019 10:35:00 0.1 C 4.73 g/m*3 0.1 C 0 km/h
417 16-02-2019 10:40:00 0.2 C 4.77 g/m*3 0.2 C 0 km/h
418 16-02-2019 10:45:00 0.3 C 4.8 g/m*3 0.3 C 0 km/h
419 16-02-2019 10:50:00 0.4 C 4.83 g/m*3 0.4 C 0 km/h
420 16-02-2019 10:55:00 0.6 C 4.9 g/m*3 0.6 C 0 km/h
421 16-02-2019 11:00:00 0.7 C 4.93 g/m*3 0.7 C 0 km/h
422 16-02-2019 11:05:00 0.9 C 5 g/m*3 0.9 C 0 km/h
423 16-02-2019 11:10:00 1.3 C 5.14 g/m*3 1.3 C 1.6 km/h
424 16-02-2019 11:15:00 1.6 C 5.25 g/m*3 1.6 C 1.6 km/h
425 16-02-2019 11:20:00 1.9 C 5.35 g/m*3 1.9 C 0 km/h
Sensor: Nr:Datum:Temp:Abs-Feuchte:Windchill:Wind:
Aussen-T/F 426 16-02-2019 11:25:00 2.1 C 5.43 g/m*3 2.1 C 0 km/h
427 16-02-2019 11:30:00 2.3 C 5.5 g/m*3 2.3 C 0 km/h
428 16-02-2019 11:35:00 2.6 C 5.61 g/m*3 2.6 C 0 km/h
429 16-02-2019 11:40:00 2.8 C 5.69 g/m*3 2.8 C 3.2 km/h
430 16-02-2019 11:45:00 3.1 C 5.81 g/m*3 3.1 C 0 km/h
431 16-02-2019 11:50:00 3.3 C 5.88 g/m*3 3.3 C 0 km/h
432 16-02-2019 11:55:00 3.5 C 5.96 g/m*3 3.5 C 0 km/h
433 16-02-2019 12:00:00 3.7 C 6.04 g/m*3 3.7 C 0 km/h
434 16-02-2019 12:05:00 3.8 C 6.09 g/m*3 3.8 C 0 km/h
435 16-02-2019 12:10:00 3.9 C 6.13 g/m*3 3.9 C 0 km/h
436 16-02-2019 12:15:00 4.2 C 6.25 g/m*3 4.2 C 0 km/h
437 16-02-2019 12:20:00 4.4 C 6.33 g/m*3 4.4 C 0 km/h
438 16-02-2019 12:25:00 4.8 C 6.5 g/m*3 4.8 C 0 km/h
439 16-02-2019 12:30:00 5.1 C 6.63 g/m*3 5.1 C 0 km/h
440 16-02-2019 12:35:00 5.4 C 6.77 g/m*3 5.4 C 0 km/h
441 16-02-2019 12:40:00 5.8 C 6.95 g/m*3 5.8 C 0 km/h
442 16-02-2019 12:45:00 6 C 7.04 g/m*3 6 C 0 km/h
443 16-02-2019 12:50:00 6.2 C 7.13 g/m*3 4.98 C 6.4 km/h
444 16-02-2019 12:55:00 6.3 C 7.11 g/m*3 5.1 C 6.4 km/h
445 16-02-2019 13:00:00 6.4 C 7 g/m*3 6.4 C 3.2 km/h
446 16-02-2019 13:05:00 6.5 C 6.97 g/m*3 6.5 C 3.2 km/h
447 16-02-2019 13:10:00 6.7 C 7.07 g/m*3 6.7 C 1.6 km/h
448 16-02-2019 13:15:00 6.9 C 7.16 g/m*3 6.9 C 4.8 km/h
449 16-02-2019 13:20:00 7.2 C 7.22 g/m*3 7.2 C 4.8 km/h
450 16-02-2019 13:25:00 7.6 C 7.33 g/m*3 7.6 C 3.2 km/h
Sensor: Nr:Datum:Temp:Abs-Feuchte:Windchill:Wind:
Aussen-T/F 451 16-02-2019 13:30:00 7.9 C 7.39 g/m*3 7.9 C 3.2 km/h
452 16-02-2019 13:35:00 8.3 C 7.5 g/m*3 8.3 C 1.6 km/h
453 16-02-2019 13:40:00 8.7 C 7.7 g/m*3 8.7 C 1.6 km/h
454 16-02-2019 13:45:00 9 C 7.67 g/m*3 9 C 0 km/h
455 16-02-2019 13:50:00 9.3 C 7.64 g/m*3 9.3 C 0 km/h
456 16-02-2019 13:55:00 9.8 C 7.79 g/m*3 9.8 C 0 km/h
457 16-02-2019 14:00:00 10.1 C 7.75 g/m*3 10.1 C 0 km/h
458 16-02-2019 14:05:00 10.4 C 7.71 g/m*3 10.4 C 0 km/h
459 16-02-2019 14:10:00 10.6 C 7.71 g/m*3 10.6 C 0 km/h
460 16-02-2019 14:15:00 10.7 C 7.76 g/m*3 10.7 C 0 km/h
461 16-02-2019 14:20:00 10.7 C 7.66 g/m*3 10.7 C 0 km/h
462 16-02-2019 14:25:00 10.7 C 7.56 g/m*3 10.7 C 0 km/h
463 16-02-2019 14:30:00 10.7 C 7.56 g/m*3 10.7 C 0 km/h
464 16-02-2019 14:35:00 10.7 C 7.46 g/m*3 10.7 C 0 km/h
465 16-02-2019 14:40:00 10.7 C 7.46 g/m*3 10.7 C 0 km/h
466 16-02-2019 14:45:00 10.7 C 7.37 g/m*3 10.7 C 0 km/h
467 16-02-2019 14:50:00 10.9 C 7.26 g/m*3 10.9 C 0 km/h
468 16-02-2019 14:55:00 11.1 C 7.35 g/m*3 11.1 C 0 km/h
469 16-02-2019 15:00:00 11.3 C 7.34 g/m*3 11.3 C 3.2 km/h
470 16-02-2019 15:05:00 11.4 C 7.39 g/m*3 11.4 C 3.2 km/h
471 16-02-2019 15:10:00 11.6 C 7.38 g/m*3 11.6 C 3.2 km/h
472 16-02-2019 15:15:00 11.6 C 7.38 g/m*3 11.6 C 3.2 km/h
473 16-02-2019 15:20:00 11.7 C 7.53 g/m*3 11.7 C 4.8 km/h
474 16-02-2019 15:25:00 11.7 C 7.32 g/m*3 11.7 C 4.8 km/h
475 16-02-2019 15:30:00 11.8 C 7.37 g/m*3 11.8 C 3.2 km/h
Sensor: Nr:Datum:Temp:Abs-Feuchte:Windchill:Wind:
Aussen-T/F 476 16-02-2019 15:35:00 11.8 C 7.26 g/m*3 11.8 C 4.8 km/h
477 16-02-2019 15:40:00 11.9 C 7.2 g/m*3 11.9 C 4.8 km/h
478 16-02-2019 15:45:00 12 C 7.25 g/m*3 12 C 3.2 km/h
479 16-02-2019 15:50:00 12.1 C 7.29 g/m*3 12.1 C 4.8 km/h
480 16-02-2019 15:55:00 12.2 C 7.23 g/m*3 12.2 C 4.8 km/h
481 16-02-2019 16:00:00 12.3 C 7.28 g/m*3 12.3 C 4.8 km/h
482 16-02-2019 16:05:00 12.3 C 7.28 g/m*3 12.3 C 6.4 km/h
483 16-02-2019 16:10:00 12.2 C 7.23 g/m*3 12.2 C 4.8 km/h
484 16-02-2019 16:15:00 12.1 C 7.18 g/m*3 12.1 C 4.8 km/h
485 16-02-2019 16:20:00 11.9 C 7.1 g/m*3 11.9 C 4.8 km/h
486 16-02-2019 16:25:00 11.8 C 7.05 g/m*3 11.8 C 3.2 km/h
487 16-02-2019 16:30:00 11.8 C 7.05 g/m*3 11.8 C 0 km/h
488 16-02-2019 16:35:00 11.7 C 7.11 g/m*3 11.7 C 0 km/h
489 16-02-2019 16:40:00 11.7 C 7.01 g/m*3 11.7 C 0 km/h
490 16-02-2019 16:45:00 11.6 C 6.96 g/m*3 11.6 C 0 km/h
491 16-02-2019 16:50:00 11.6 C 7.07 g/m*3 11.6 C 0 km/h
492 16-02-2019 16:55:00 11.6 C 7.07 g/m*3 11.6 C 0 km/h
493 16-02-2019 17:00:00 11.5 C 7.13 g/m*3 11.5 C 0 km/h
494 16-02-2019 17:05:00 11.4 C 6.98 g/m*3 11.4 C 0 km/h
495 16-02-2019 17:10:00 11.3 C 7.04 g/m*3 11.3 C 0 km/h
496 16-02-2019 17:15:00 11.2 C 6.99 g/m*3 11.2 C 6.4 km/h
497 16-02-2019 17:20:00 11 C 6.91 g/m*3 11 C 4.8 km/h
498 16-02-2019 17:25:00 10.8 C 6.92 g/m*3 10.29 C 6.4 km/h
499 16-02-2019 17:30:00 10.7 C 6.88 g/m*3 10.18 C 6.4 km/h
500 16-02-2019 17:35:00 10.4 C 6.75 g/m*3 10.4 C 4.8 km/h
Sensor: Nr:Datum:Temp:Abs-Feuchte:Windchill:Wind:
Aussen-T/F 501 16-02-2019 17:40:00 10.3 C 6.8 g/m*3 10.3 C 4.8 km/h
502 16-02-2019 17:45:00 10.1 C 6.71 g/m*3 10.1 C 4.8 km/h
503 16-02-2019 17:50:00 9.9 C 6.72 g/m*3 9.9 C 4.8 km/h
504 16-02-2019 17:55:00 9.7 C 6.64 g/m*3 9.7 C 4.8 km/h
505 16-02-2019 18:00:00 9.5 C 6.64 g/m*3 9.5 C 4.8 km/h
506 16-02-2019 18:05:00 9.3 C 6.65 g/m*3 9.3 C 4.8 km/h
507 16-02-2019 18:10:00 9.2 C 6.7 g/m*3 9.2 C 4.8 km/h
508 16-02-2019 18:15:00 9 C 6.61 g/m*3 8.21 C 6.4 km/h
509 16-02-2019 18:20:00 8.9 C 6.66 g/m*3 8.1 C 6.4 km/h
510 16-02-2019 18:25:00 8.8 C 6.61 g/m*3 7.98 C 6.4 km/h
511 16-02-2019 18:30:00 8.7 C 6.66 g/m*3 7.87 C 6.4 km/h
512 16-02-2019 18:35:00 8.5 C 6.66 g/m*3 7.64 C 6.4 km/h
513 16-02-2019 18:40:00 8.4 C 6.62 g/m*3 7.52 C 6.4 km/h
514 16-02-2019 18:45:00 8.3 C 6.57 g/m*3 7.41 C 6.4 km/h
515 16-02-2019 18:50:00 8.2 C 6.53 g/m*3 7.29 C 6.4 km/h
516 16-02-2019 18:55:00 8.1 C 6.57 g/m*3 7.17 C 6.4 km/h
517 16-02-2019 19:00:00 8.1 C 6.57 g/m*3 8.1 C 4.8 km/h
518 16-02-2019 19:05:00 8 C 6.53 g/m*3 8 C 3.2 km/h
519 16-02-2019 19:10:00 7.8 C 6.53 g/m*3 7.8 C 3.2 km/h
520 16-02-2019 19:15:00 7.6 C 6.44 g/m*3 7.6 C 1.6 km/h
521 16-02-2019 19:20:00 7.4 C 6.44 g/m*3 7.4 C 3.2 km/h
522 16-02-2019 19:25:00 7.3 C 6.4 g/m*3 7.3 C 3.2 km/h
523 16-02-2019 19:30:00 7.2 C 6.44 g/m*3 7.2 C 3.2 km/h
524 16-02-2019 19:35:00 7.1 C 6.47 g/m*3 7.1 C 1.6 km/h
525 16-02-2019 19:40:00 7.1 C 6.47 g/m*3 7.1 C 0 km/h
Sensor: Nr:Datum:Temp:Abs-Feuchte:Windchill:Wind:
Aussen-T/F 526 16-02-2019 19:45:00 6.9 C 6.31 g/m*3 6.9 C 0 km/h
527 16-02-2019 19:50:00 6.7 C 6.15 g/m*3 6.7 C 0 km/h
528 16-02-2019 19:55:00 6.3 C 6.07 g/m*3 6.3 C 0 km/h
529 16-02-2019 20:00:00 6.2 C 6.1 g/m*3 6.2 C 0 km/h
530 16-02-2019 20:05:00 6.1 C 6.06 g/m*3 6.1 C 0 km/h
531 16-02-2019 20:10:00 6 C 6.02 g/m*3 6 C 0 km/h
532 16-02-2019 20:15:00 5.8 C 5.95 g/m*3 5.8 C 0 km/h
533 16-02-2019 20:20:00 5.6 C 5.94 g/m*3 5.6 C 0 km/h
534 16-02-2019 20:25:00 5.4 C 5.93 g/m*3 5.4 C 0 km/h
535 16-02-2019 20:30:00 5.4 C 5.93 g/m*3 5.4 C 0 km/h
536 16-02-2019 20:35:00 5.3 C 5.82 g/m*3 5.3 C 0 km/h
537 16-02-2019 20:40:00 5.1 C 5.75 g/m*3 5.1 C 0 km/h
538 16-02-2019 20:45:00 4.8 C 5.7 g/m*3 4.8 C 0 km/h
539 16-02-2019 20:50:00 4.7 C 5.73 g/m*3 4.7 C 0 km/h
540 16-02-2019 20:55:00 4.6 C 5.69 g/m*3 4.6 C 0 km/h
541 16-02-2019 21:00:00 4.3 C 5.58 g/m*3 4.3 C 0 km/h
542 16-02-2019 21:05:00 4.2 C 5.61 g/m*3 4.2 C 0 km/h
543 16-02-2019 21:10:00 3.9 C 5.49 g/m*3 3.9 C 0 km/h
544 16-02-2019 21:15:00 3.8 C 5.52 g/m*3 3.8 C 0 km/h
545 16-02-2019 21:20:00 3.7 C 5.55 g/m*3 3.7 C 0 km/h
546 16-02-2019 21:25:00 3.8 C 5.65 g/m*3 3.8 C 0 km/h
547 16-02-2019 21:30:00 3.7 C 5.55 g/m*3 3.7 C 0 km/h
548 16-02-2019 21:35:00 3.7 C 5.55 g/m*3 3.7 C 0 km/h
549 16-02-2019 21:40:00 3.6 C 5.51 g/m*3 3.6 C 0 km/h
550 16-02-2019 21:45:00 3.6 C 5.57 g/m*3 3.6 C 0 km/h
Sensor: Nr:Datum:Temp:Abs-Feuchte:Windchill:Wind:
Aussen-T/F 551 16-02-2019 21:50:00 3.5 C 5.53 g/m*3 3.5 C 0 km/h
552 16-02-2019 21:55:00 3.3 C 5.4 g/m*3 3.3 C 0 km/h
553 16-02-2019 22:00:00 3.2 C 5.42 g/m*3 3.2 C 0 km/h
554 16-02-2019 22:05:00 3.2 C 5.42 g/m*3 3.2 C 0 km/h
555 16-02-2019 22:10:00 2.9 C 5.32 g/m*3 2.9 C 0 km/h
556 16-02-2019 22:15:00 2.8 C 5.28 g/m*3 2.8 C 0 km/h
557 16-02-2019 22:20:00 2.6 C 5.21 g/m*3 2.6 C 0 km/h
558 16-02-2019 22:25:00 2.7 C 5.36 g/m*3 2.7 C 0 km/h
559 16-02-2019 22:30:00 2.8 C 5.4 g/m*3 2.8 C 0 km/h
560 16-02-2019 22:35:00 2.7 C 5.36 g/m*3 2.7 C 0 km/h
561 16-02-2019 22:40:00 2.8 C 5.46 g/m*3 2.8 C 0 km/h
562 16-02-2019 22:45:00 2.8 C 5.4 g/m*3 2.8 C 0 km/h
563 16-02-2019 22:50:00 2.7 C 5.36 g/m*3 2.7 C 0 km/h
564 16-02-2019 22:55:00 2.4 C 5.25 g/m*3 2.4 C 0 km/h
565 16-02-2019 23:00:00 2.3 C 5.22 g/m*3 2.3 C 0 km/h
566 16-02-2019 23:05:00 2.1 C 5.09 g/m*3 2.1 C 0 km/h
567 16-02-2019 23:10:00 2 C 5.11 g/m*3 2 C 0 km/h
568 16-02-2019 23:15:00 2.1 C 5.2 g/m*3 2.1 C 0 km/h
569 16-02-2019 23:20:00 2 C 5.17 g/m*3 2 C 0 km/h
570 16-02-2019 23:25:00 1.9 C 5.13 g/m*3 1.9 C 0 km/h
571 16-02-2019 23:30:00 1.8 C 5.1 g/m*3 1.8 C 0 km/h
572 16-02-2019 23:35:00 1.8 C 5.1 g/m*3 1.8 C 0 km/h
573 16-02-2019 23:40:00 1.9 C 5.19 g/m*3 1.9 C 0 km/h
574 16-02-2019 23:45:00 1.9 C 5.19 g/m*3 1.9 C 0 km/h
575 16-02-2019 23:50:00 1.8 C 5.15 g/m*3 1.8 C 0 km/h
Sensor: Nr:Datum:Temp:Abs-Feuchte:Windchill:Wind:
Aussen-T/F 576 16-02-2019 23:55:00 1.9 C 5.19 g/m*3 1.9 C 0 km/h
577 17-02-2019 00:00:00 1.9 C 5.19 g/m*3 1.9 C 0 km/h
578 17-02-2019 00:05:00 1.9 C 5.19 g/m*3 1.9 C 0 km/h
579 17-02-2019 00:10:00 1.8 C 5.15 g/m*3 1.8 C 0 km/h
580 17-02-2019 00:15:00 1.7 C 5.12 g/m*3 1.7 C 0 km/h
581 17-02-2019 00:20:00 1.6 C 5.08 g/m*3 1.6 C 0 km/h
582 17-02-2019 00:25:00 1.5 C 5.05 g/m*3 1.5 C 0 km/h
583 17-02-2019 00:30:00 1.6 C 5.08 g/m*3 1.6 C 0 km/h
584 17-02-2019 00:35:00 1.5 C 5.05 g/m*3 1.5 C 0 km/h
585 17-02-2019 00:40:00 1.3 C 4.98 g/m*3 1.3 C 0 km/h
586 17-02-2019 00:45:00 1.3 C 4.98 g/m*3 1.3 C 0 km/h
587 17-02-2019 00:50:00 1.3 C 4.98 g/m*3 1.3 C 0 km/h
588 17-02-2019 00:55:00 1.2 C 4.95 g/m*3 1.2 C 0 km/h
589 17-02-2019 01:00:00 1.2 C 4.95 g/m*3 1.2 C 0 km/h
590 17-02-2019 01:05:00 1.2 C 4.95 g/m*3 1.2 C 0 km/h
591 17-02-2019 01:10:00 1.2 C 4.95 g/m*3 1.2 C 0 km/h
592 17-02-2019 01:15:00 0.9 C 4.85 g/m*3 0.9 C 0 km/h
593 17-02-2019 01:20:00 0.8 C 4.81 g/m*3 0.8 C 0 km/h
594 17-02-2019 01:25:00 0.8 C 4.81 g/m*3 0.8 C 0 km/h
595 17-02-2019 01:30:00 0.8 C 4.81 g/m*3 0.8 C 0 km/h
596 17-02-2019 01:35:00 0.7 C 4.78 g/m*3 0.7 C 0 km/h
597 17-02-2019 01:40:00 0.6 C 4.8 g/m*3 0.6 C 0 km/h
598 17-02-2019 01:45:00 0.6 C 4.8 g/m*3 0.6 C 0 km/h
599 17-02-2019 01:50:00 0.8 C 4.86 g/m*3 0.8 C 0 km/h
600 17-02-2019 01:55:00 0.8 C 4.86 g/m*3 0.8 C 0 km/h
Sensor: Nr:Datum:Temp:Abs-Feuchte:Windchill:Wind:
Aussen-T/F 601 17-02-2019 02:00:00 0.7 C 4.83 g/m*3 0.7 C 0 km/h
602 17-02-2019 02:05:00 0.7 C 4.83 g/m*3 0.7 C 0 km/h
603 17-02-2019 02:10:00 0.6 C 4.8 g/m*3 0.6 C 0 km/h
604 17-02-2019 02:15:00 0.4 C 4.73 g/m*3 0.4 C 0 km/h
605 17-02-2019 02:20:00 0.4 C 4.73 g/m*3 0.4 C 0 km/h
606 17-02-2019 02:25:00 0.3 C 4.7 g/m*3 0.3 C 0 km/h
607 17-02-2019 02:30:00 0.3 C 4.7 g/m*3 0.3 C 0 km/h
608 17-02-2019 02:35:00 0.2 C 4.67 g/m*3 0.2 C 0 km/h
609 17-02-2019 02:40:00 0.2 C 4.67 g/m*3 0.2 C 0 km/h
610 17-02-2019 02:45:00 0.1 C 4.63 g/m*3 0.1 C 0 km/h
611 17-02-2019 02:50:00 0 C 4.6 g/m*3 0 C 0 km/h
612 17-02-2019 02:55:00 0.2 C 4.67 g/m*3 0.2 C 0 km/h
613 17-02-2019 03:00:00 0.3 C 4.75 g/m*3 0.3 C 0 km/h
614 17-02-2019 03:05:00 0.3 C 4.7 g/m*3 0.3 C 0 km/h
615 17-02-2019 03:10:00 0.2 C 4.67 g/m*3 0.2 C 0 km/h
616 17-02-2019 03:15:00 0.2 C 4.67 g/m*3 0.2 C 0 km/h
617 17-02-2019 03:20:00 0.1 C 4.63 g/m*3 0.1 C 0 km/h
618 17-02-2019 03:25:00 0 C 4.6 g/m*3 0 C 0 km/h
619 17-02-2019 03:30:00 -0.1 C 4.57 g/m*3 -0.1 C 0 km/h
620 17-02-2019 03:35:00 -0.1 C 4.57 g/m*3 -0.1 C 0 km/h
621 17-02-2019 03:40:00 0 C 4.6 g/m*3 0 C 0 km/h
622 17-02-2019 03:45:00 0.1 C 4.68 g/m*3 0.1 C 0 km/h
623 17-02-2019 03:50:00 0.1 C 4.68 g/m*3 0.1 C 0 km/h
624 17-02-2019 03:55:00 0 C 4.65 g/m*3 0 C 0 km/h
625 17-02-2019 04:00:00 -0.1 C 4.62 g/m*3 -0.1 C 0 km/h
Sensor: Nr:Datum:Temp:Abs-Feuchte:Windchill:Wind:
Aussen-T/F 626 17-02-2019 04:05:00 -0.2 C 4.54 g/m*3 -0.2 C 0 km/h
627 17-02-2019 04:10:00 -0.2 C 4.54 g/m*3 -0.2 C 0 km/h
628 17-02-2019 04:15:00 -0.2 C 4.54 g/m*3 -0.2 C 0 km/h
629 17-02-2019 04:20:00 -0.3 C 4.51 g/m*3 -0.3 C 0 km/h
630 17-02-2019 04:25:00 -0.3 C 4.51 g/m*3 -0.3 C 0 km/h
631 17-02-2019 04:30:00 -0.3 C 4.56 g/m*3 -0.3 C 0 km/h
632 17-02-2019 04:35:00 -0.4 C 4.52 g/m*3 -0.4 C 0 km/h
633 17-02-2019 04:40:00 -0.4 C 4.48 g/m*3 -0.4 C 0 km/h
634 17-02-2019 04:45:00 -0.6 C 4.42 g/m*3 -0.6 C 0 km/h
635 17-02-2019 04:50:00 -0.7 C 4.39 g/m*3 -0.7 C 0 km/h
636 17-02-2019 04:55:00 -0.7 C 4.43 g/m*3 -0.7 C 0 km/h
637 17-02-2019 05:00:00 -0.6 C 4.46 g/m*3 -0.6 C 0 km/h
638 17-02-2019 05:05:00 -0.6 C 4.46 g/m*3 -0.6 C 0 km/h
639 17-02-2019 05:10:00 -0.7 C 4.43 g/m*3 -0.7 C 0 km/h
640 17-02-2019 05:15:00 -0.7 C 4.39 g/m*3 -0.7 C 0 km/h
641 17-02-2019 05:20:00 -0.8 C 4.35 g/m*3 -0.8 C 0 km/h
642 17-02-2019 05:25:00 -0.8 C 4.35 g/m*3 -0.8 C 0 km/h
643 17-02-2019 05:30:00 -0.8 C 4.4 g/m*3 -0.8 C 0 km/h
644 17-02-2019 05:35:00 -0.9 C 4.37 g/m*3 -0.9 C 0 km/h
645 17-02-2019 05:40:00 -1 C 4.34 g/m*3 -1 C 0 km/h
646 17-02-2019 05:45:00 -1.1 C 4.31 g/m*3 -1.1 C 0 km/h
647 17-02-2019 05:50:00 -1.1 C 4.26 g/m*3 -1.1 C 0 km/h
648 17-02-2019 05:55:00 -1.2 C 4.24 g/m*3 -1.2 C 0 km/h
649 17-02-2019 06:00:00 -1.1 C 4.31 g/m*3 -1.1 C 1.6 km/h
650 17-02-2019 06:05:00 -0.8 C 4.4 g/m*3 -0.8 C 0 km/h
Sensor: Nr:Datum:Temp:Abs-Feuchte:Windchill:Wind:
Aussen-T/F 651 17-02-2019 06:10:00 -0.8 C 4.4 g/m*3 -0.8 C 0 km/h
652 17-02-2019 06:15:00 -0.8 C 4.4 g/m*3 -0.8 C 0 km/h
653 17-02-2019 06:20:00 -0.9 C 4.37 g/m*3 -0.9 C 0 km/h
654 17-02-2019 06:25:00 -1.1 C 4.31 g/m*3 -1.1 C 0 km/h
655 17-02-2019 06:30:00 -1.1 C 4.31 g/m*3 -1.1 C 0 km/h
656 17-02-2019 06:35:00 -1.2 C 4.28 g/m*3 -1.2 C 0 km/h
657 17-02-2019 06:40:00 -1.1 C 4.31 g/m*3 -1.1 C 0 km/h
658 17-02-2019 06:45:00 -1 C 4.34 g/m*3 -1 C 0 km/h
659 17-02-2019 06:50:00 -0.9 C 4.37 g/m*3 -0.9 C 0 km/h
660 17-02-2019 06:55:00 -0.9 C 4.37 g/m*3 -0.9 C 0 km/h
661 17-02-2019 07:00:00 -1 C 4.34 g/m*3 -1 C 0 km/h
662 17-02-2019 07:05:00 -1.1 C 4.31 g/m*3 -1.1 C 0 km/h
663 17-02-2019 07:10:00 -1.2 C 4.28 g/m*3 -1.2 C 0 km/h
664 17-02-2019 07:15:00 -1.3 C 4.25 g/m*3 -1.3 C 0 km/h
665 17-02-2019 07:20:00 -1.3 C 4.25 g/m*3 -1.3 C 0 km/h
666 17-02-2019 07:25:00 -1.2 C 4.28 g/m*3 -1.2 C 0 km/h
667 17-02-2019 07:30:00 -1.2 C 4.28 g/m*3 -1.2 C 0 km/h
668 17-02-2019 07:35:00 -1.2 C 4.28 g/m*3 -1.2 C 0 km/h
669 17-02-2019 07:40:00 -1.3 C 4.25 g/m*3 -1.3 C 0 km/h
670 17-02-2019 07:45:00 -1.3 C 4.25 g/m*3 -1.3 C 0 km/h
671 17-02-2019 07:50:00 -1.4 C 4.22 g/m*3 -1.4 C 0 km/h
672 17-02-2019 07:55:00 -1.5 C 4.19 g/m*3 -1.5 C 0 km/h
673 17-02-2019 08:00:00 -1.5 C 4.19 g/m*3 -1.5 C 0 km/h
674 17-02-2019 08:05:00 -1.4 C 4.22 g/m*3 -1.4 C 0 km/h
675 17-02-2019 08:10:00 -1.5 C 4.19 g/m*3 -1.5 C 0 km/h
Sensor: Nr:Datum:Temp:Abs-Feuchte:Windchill:Wind:
Aussen-T/F 676 17-02-2019 08:15:00 -1.4 C 4.22 g/m*3 -1.4 C 0 km/h
677 17-02-2019 08:20:00 -1.4 C 4.22 g/m*3 -1.4 C 0 km/h
678 17-02-2019 08:25:00 -1.4 C 4.22 g/m*3 -1.4 C 0 km/h
679 17-02-2019 08:30:00 -1.4 C 4.22 g/m*3 -1.4 C 0 km/h
680 17-02-2019 08:35:00 -1.3 C 4.25 g/m*3 -1.3 C 0 km/h
681 17-02-2019 08:40:00 -1.2 C 4.28 g/m*3 -1.2 C 0 km/h
682 17-02-2019 08:45:00 -1.2 C 4.28 g/m*3 -1.2 C 0 km/h
683 17-02-2019 08:50:00 -1.2 C 4.28 g/m*3 -1.2 C 0 km/h
684 17-02-2019 08:55:00 -1.1 C 4.31 g/m*3 -1.1 C 0 km/h
685 17-02-2019 09:00:00 -1 C 4.34 g/m*3 -1 C 0 km/h
686 17-02-2019 09:05:00 -0.9 C 4.37 g/m*3 -0.9 C 0 km/h
687 17-02-2019 09:10:00 -0.9 C 4.37 g/m*3 -0.9 C 0 km/h
688 17-02-2019 09:15:00 -0.8 C 4.4 g/m*3 -0.8 C 0 km/h
689 17-02-2019 09:20:00 -0.8 C 4.4 g/m*3 -0.8 C 0 km/h
690 17-02-2019 09:25:00 -0.8 C 4.4 g/m*3 -0.8 C 0 km/h
691 17-02-2019 09:30:00 -0.8 C 4.4 g/m*3 -0.8 C 0 km/h
692 17-02-2019 09:35:00 -0.8 C 4.4 g/m*3 -0.8 C 0 km/h
693 17-02-2019 09:40:00 -0.8 C 4.4 g/m*3 -0.8 C 0 km/h
694 17-02-2019 09:45:00 -0.8 C 4.4 g/m*3 -0.8 C 0 km/h
695 17-02-2019 09:50:00 -0.7 C 4.43 g/m*3 -0.7 C 0 km/h
696 17-02-2019 09:55:00 -0.7 C 4.43 g/m*3 -0.7 C 0 km/h
697 17-02-2019 10:00:00 -0.7 C 4.43 g/m*3 -0.7 C 0 km/h
698 17-02-2019 10:05:00 -0.6 C 4.46 g/m*3 -0.6 C 0 km/h
699 17-02-2019 10:10:00 -0.5 C 4.49 g/m*3 -0.5 C 0 km/h
700 17-02-2019 10:15:00 -0.4 C 4.52 g/m*3 -0.4 C 0 km/h
Sensor: Nr:Datum:Temp:Abs-Feuchte:Windchill:Wind:
Aussen-T/F 701 17-02-2019 10:20:00 -0.4 C 4.57 g/m*3 -0.4 C 0 km/h
702 17-02-2019 10:25:00 -0.3 C 4.6 g/m*3 -0.3 C 0 km/h
703 17-02-2019 10:30:00 -0.2 C 4.64 g/m*3 -0.2 C 0 km/h
704 17-02-2019 10:35:00 -0.1 C 4.67 g/m*3 -0.1 C 0 km/h
705 17-02-2019 10:40:00 0.1 C 4.73 g/m*3 0.1 C 0 km/h
706 17-02-2019 10:45:00 0.2 C 4.77 g/m*3 0.2 C 0 km/h
707 17-02-2019 10:50:00 0.3 C 4.8 g/m*3 0.3 C 0 km/h
708 17-02-2019 10:55:00 0.6 C 4.9 g/m*3 0.6 C 0 km/h
709 17-02-2019 11:00:00 0.7 C 4.93 g/m*3 0.7 C 0 km/h
710 17-02-2019 11:05:00 0.9 C 5 g/m*3 0.9 C 0 km/h
711 17-02-2019 11:10:00 1.1 C 5.07 g/m*3 1.1 C 0 km/h
712 17-02-2019 11:15:00 1.3 C 5.14 g/m*3 1.3 C 0 km/h
713 17-02-2019 11:20:00 1.6 C 5.25 g/m*3 1.6 C 0 km/h
714 17-02-2019 11:25:00 1.8 C 5.32 g/m*3 1.8 C 0 km/h
715 17-02-2019 11:30:00 2.1 C 5.43 g/m*3 2.1 C 0 km/h
716 17-02-2019 11:35:00 2.3 C 5.5 g/m*3 2.3 C 1.6 km/h
717 17-02-2019 11:40:00 2.5 C 5.58 g/m*3 2.5 C 0 km/h
718 17-02-2019 11:45:00 2.8 C 5.69 g/m*3 2.8 C 0 km/h
719 17-02-2019 11:50:00 2.9 C 5.73 g/m*3 2.9 C 0 km/h
720 17-02-2019 11:55:00 3.2 C 5.85 g/m*3 3.2 C 0 km/h
721 17-02-2019 12:00:00 3.3 C 5.88 g/m*3 3.3 C 0 km/h
722 17-02-2019 12:05:00 3.5 C 5.96 g/m*3 3.5 C 0 km/h
723 17-02-2019 12:10:00 3.7 C 6.04 g/m*3 3.7 C 0 km/h
724 17-02-2019 12:15:00 3.9 C 6.13 g/m*3 3.9 C 0 km/h
725 17-02-2019 12:20:00 4.2 C 6.25 g/m*3 4.2 C 0 km/h
Sensor: Nr:Datum:Temp:Abs-Feuchte:Windchill:Wind:
Aussen-T/F 726 17-02-2019 12:25:00 4.5 C 6.38 g/m*3 4.5 C 0 km/h
727 17-02-2019 12:30:00 4.8 C 6.57 g/m*3 4.8 C 0 km/h
728 17-02-2019 12:35:00 5.2 C 6.75 g/m*3 5.2 C 0 km/h
729 17-02-2019 12:40:00 5.6 C 6.93 g/m*3 5.6 C 0 km/h
730 17-02-2019 12:45:00 5.8 C 7.02 g/m*3 5.8 C 0 km/h
731 17-02-2019 12:50:00 6.1 C 7.16 g/m*3 6.1 C 0 km/h
732 17-02-2019 12:55:00 6.2 C 7.13 g/m*3 6.2 C 1.6 km/h
733 17-02-2019 13:00:00 6.3 C 7.25 g/m*3 6.3 C 0 km/h
734 17-02-2019 13:05:00 6.5 C 7.27 g/m*3 6.5 C 0 km/h
735 17-02-2019 13:10:00 6.7 C 7.37 g/m*3 6.7 C 0 km/h
736 17-02-2019 13:15:00 6.8 C 7.42 g/m*3 6.8 C 1.6 km/h
737 17-02-2019 13:20:00 7.1 C 7.57 g/m*3 7.1 C 0 km/h
738 17-02-2019 13:25:00 7.3 C 7.66 g/m*3 7.3 C 0 km/h
739 17-02-2019 13:30:00 7.6 C 7.81 g/m*3 7.6 C 0 km/h
740 17-02-2019 13:35:00 7.8 C 7.92 g/m*3 7.8 C 0 km/h
741 17-02-2019 13:40:00 8.1 C 8.07 g/m*3 8.1 C 0 km/h
742 17-02-2019 13:45:00 8.4 C 8.14 g/m*3 8.4 C 0 km/h
743 17-02-2019 13:50:00 8.7 C 8.22 g/m*3 8.7 C 1.6 km/h
744 17-02-2019 13:55:00 8.9 C 8.23 g/m*3 8.9 C 3.2 km/h
745 17-02-2019 14:00:00 9.1 C 8.16 g/m*3 9.1 C 3.2 km/h
746 17-02-2019 14:05:00 9.3 C 8.18 g/m*3 9.3 C 3.2 km/h
747 17-02-2019 14:10:00 9.5 C 8.1 g/m*3 9.5 C 4.8 km/h
748 17-02-2019 14:15:00 9.6 C 8.06 g/m*3 9.6 C 3.2 km/h
749 17-02-2019 14:20:00 9.7 C 8.02 g/m*3 9.7 C 1.6 km/h
750 17-02-2019 14:25:00 9.8 C 7.98 g/m*3 9.8 C 0 km/h
Sensor: Nr:Datum:Temp:Abs-Feuchte:Windchill:Wind:
Aussen-T/F 751 17-02-2019 14:30:00 9.9 C 7.94 g/m*3 9.9 C 0 km/h
752 17-02-2019 14:35:00 9.9 C 7.84 g/m*3 9.9 C 0 km/h
753 17-02-2019 14:40:00 10 C 7.89 g/m*3 10 C 0 km/h
754 17-02-2019 14:45:00 10.1 C 7.85 g/m*3 10.1 C 0 km/h
755 17-02-2019 14:50:00 10.1 C 7.85 g/m*3 10.1 C 0 km/h
756 17-02-2019 14:55:00 10.2 C 7.9 g/m*3 10.2 C 0 km/h
757 17-02-2019 15:00:00 10.2 C 7.8 g/m*3 10.2 C 0 km/h
758 17-02-2019 15:05:00 10.3 C 7.76 g/m*3 10.3 C 0 km/h
759 17-02-2019 15:10:00 10.5 C 7.66 g/m*3 10.5 C 4.8 km/h
760 17-02-2019 15:15:00 10.8 C 7.81 g/m*3 10.8 C 4.8 km/h
761 17-02-2019 15:20:00 11.1 C 7.96 g/m*3 11.1 C 4.8 km/h
762 17-02-2019 15:25:00 11.2 C 7.91 g/m*3 11.2 C 3.2 km/h
763 17-02-2019 15:30:00 11.3 C 7.96 g/m*3 11.3 C 4.8 km/h
764 17-02-2019 15:35:00 11.4 C 7.9 g/m*3 11.4 C 1.6 km/h
765 17-02-2019 15:40:00 11.6 C 7.8 g/m*3 11.6 C 0 km/h
766 17-02-2019 15:45:00 11.8 C 7.68 g/m*3 11.8 C 4.8 km/h
767 17-02-2019 15:50:00 12 C 7.78 g/m*3 12 C 4.8 km/h
768 17-02-2019 15:55:00 12.1 C 7.83 g/m*3 12.1 C 3.2 km/h
769 17-02-2019 16:00:00 12.2 C 7.66 g/m*3 12.2 C 0 km/h
770 17-02-2019 16:05:00 12.3 C 7.71 g/m*3 12.3 C 0 km/h
771 17-02-2019 16:10:00 12.3 C 7.71 g/m*3 12.3 C 0 km/h
772 17-02-2019 16:15:00 12.2 C 7.66 g/m*3 12.2 C 0 km/h
773 17-02-2019 16:20:00 12.1 C 7.61 g/m*3 12.1 C 0 km/h
774 17-02-2019 16:25:00 11.9 C 7.52 g/m*3 11.9 C 0 km/h
775 17-02-2019 16:30:00 11.8 C 7.47 g/m*3 11.8 C 4.8 km/h
Sensor: Nr:Datum:Temp:Abs-Feuchte:Windchill:Wind:
Aussen-T/F 776 17-02-2019 16:35:00 11.7 C 7.32 g/m*3 11.7 C 1.6 km/h
777 17-02-2019 16:40:00 11.7 C 7.53 g/m*3 11.7 C 6.4 km/h
778 17-02-2019 16:45:00 11.7 C 7.43 g/m*3 11.7 C 4.8 km/h
779 17-02-2019 16:50:00 11.7 C 7.53 g/m*3 11.7 C 4.8 km/h
780 17-02-2019 16:55:00 11.7 C 7.53 g/m*3 11.7 C 4.8 km/h
781 17-02-2019 17:00:00 11.6 C 7.38 g/m*3 11.6 C 6.4 km/h
782 17-02-2019 17:05:00 11.6 C 7.38 g/m*3 11.6 C 6.4 km/h
783 17-02-2019 17:10:00 11.4 C 7.29 g/m*3 11.4 C 4.8 km/h
784 17-02-2019 17:15:00 11.3 C 7.34 g/m*3 11.3 C 6.4 km/h
785 17-02-2019 17:20:00 11.2 C 7.3 g/m*3 11.2 C 6.4 km/h
786 17-02-2019 17:25:00 11.1 C 7.25 g/m*3 11.1 C 6.4 km/h
787 17-02-2019 17:30:00 11.1 C 7.35 g/m*3 11.1 C 4.8 km/h
788 17-02-2019 17:35:00 10.9 C 7.26 g/m*3 10.41 C 6.4 km/h
789 17-02-2019 17:40:00 10.8 C 7.22 g/m*3 10.29 C 6.4 km/h
790 17-02-2019 17:45:00 10.6 C 7.22 g/m*3 10.06 C 6.4 km/h
791 17-02-2019 17:50:00 10.3 C 7.09 g/m*3 9.72 C 6.4 km/h
792 17-02-2019 17:55:00 10.1 C 7 g/m*3 9.48 C 6.4 km/h
793 17-02-2019 18:00:00 9.8 C 6.96 g/m*3 9.14 C 6.4 km/h
794 17-02-2019 18:05:00 9.6 C 6.87 g/m*3 8.91 C 6.4 km/h
795 17-02-2019 18:10:00 9.3 C 6.74 g/m*3 8.56 C 6.4 km/h
796 17-02-2019 18:15:00 9 C 6.61 g/m*3 8.21 C 6.4 km/h
797 17-02-2019 18:20:00 8.8 C 6.61 g/m*3 7.98 C 6.4 km/h
798 17-02-2019 18:25:00 8.6 C 6.53 g/m*3 8.6 C 4.8 km/h
799 17-02-2019 18:30:00 8.4 C 6.45 g/m*3 8.4 C 4.8 km/h
800 17-02-2019 18:35:00 8.3 C 6.49 g/m*3 8.3 C 4.8 km/h
Sensor: Nr:Datum:Temp:Abs-Feuchte:Windchill:Wind:
Aussen-T/F 801 17-02-2019 18:40:00 8.1 C 6.41 g/m*3 8.1 C 3.2 km/h
802 17-02-2019 18:45:00 7.9 C 6.41 g/m*3 7.9 C 0 km/h
803 17-02-2019 18:50:00 7.7 C 6.32 g/m*3 7.7 C 3.2 km/h
804 17-02-2019 18:55:00 7.6 C 6.28 g/m*3 7.6 C 4.8 km/h
805 17-02-2019 19:00:00 7.4 C 6.2 g/m*3 7.4 C 4.8 km/h
806 17-02-2019 19:05:00 7.3 C 6.24 g/m*3 7.3 C 4.8 km/h
807 17-02-2019 19:10:00 7.3 C 6.32 g/m*3 7.3 C 3.2 km/h
808 17-02-2019 19:15:00 7.2 C 6.28 g/m*3 7.2 C 3.2 km/h
809 17-02-2019 19:20:00 7.1 C 6.24 g/m*3 7.1 C 1.6 km/h
810 17-02-2019 19:25:00 6.8 C 6.04 g/m*3 6.8 C 0 km/h
811 17-02-2019 19:30:00 6.6 C 6.11 g/m*3 6.6 C 1.6 km/h
812 17-02-2019 19:35:00 6.3 C 6 g/m*3 6.3 C 0 km/h
813 17-02-2019 19:40:00 6.3 C 6 g/m*3 6.3 C 0 km/h
814 17-02-2019 19:45:00 6.2 C 5.96 g/m*3 6.2 C 3.2 km/h
815 17-02-2019 19:50:00 6.2 C 5.96 g/m*3 6.2 C 0 km/h
816 17-02-2019 19:55:00 6.1 C 5.92 g/m*3 6.1 C 0 km/h
817 17-02-2019 20:00:00 6 C 5.95 g/m*3 6 C 0 km/h
818 17-02-2019 20:05:00 5.5 C 5.69 g/m*3 5.5 C 0 km/h
819 17-02-2019 20:10:00 5.2 C 5.71 g/m*3 5.2 C 0 km/h
820 17-02-2019 20:15:00 5.1 C 5.75 g/m*3 5.1 C 0 km/h
821 17-02-2019 20:20:00 4.9 C 5.67 g/m*3 4.9 C 0 km/h
822 17-02-2019 20:25:00 4.7 C 5.6 g/m*3 4.7 C 0 km/h
823 17-02-2019 20:30:00 4.4 C 5.55 g/m*3 4.4 C 0 km/h
824 17-02-2019 20:35:00 4.3 C 5.58 g/m*3 4.3 C 0 km/h
825 17-02-2019 20:40:00 4.2 C 5.61 g/m*3 4.2 C 0 km/h
Sensor: Nr:Datum:Temp:Abs-Feuchte:Windchill:Wind:
Aussen-T/F 826 17-02-2019 20:45:00 4.2 C 5.54 g/m*3 4.2 C 0 km/h
827 17-02-2019 20:50:00 4 C 5.47 g/m*3 4 C 0 km/h
828 17-02-2019 20:55:00 3.8 C 5.46 g/m*3 3.8 C 0 km/h
829 17-02-2019 21:00:00 3.6 C 5.39 g/m*3 3.6 C 0 km/h
830 17-02-2019 21:05:00 3.6 C 5.45 g/m*3 3.6 C 0 km/h
831 17-02-2019 21:10:00 3.8 C 5.58 g/m*3 3.8 C 1.6 km/h
832 17-02-2019 21:15:00 4.1 C 5.63 g/m*3 4.1 C 0 km/h
833 17-02-2019 21:20:00 4.2 C 5.61 g/m*3 4.2 C 0 km/h
834 17-02-2019 21:25:00 4.1 C 5.5 g/m*3 4.1 C 0 km/h
835 17-02-2019 21:30:00 3.8 C 5.4 g/m*3 3.8 C 0 km/h
836 17-02-2019 21:35:00 3.6 C 5.39 g/m*3 3.6 C 0 km/h
837 17-02-2019 21:40:00 3.5 C 5.41 g/m*3 3.5 C 0 km/h
838 17-02-2019 21:45:00 3.3 C 5.28 g/m*3 3.3 C 0 km/h
839 17-02-2019 21:50:00 3.2 C 5.3 g/m*3 3.2 C 0 km/h
840 17-02-2019 21:55:00 3 C 5.23 g/m*3 3 C 0 km/h
841 17-02-2019 22:00:00 2.8 C 5.16 g/m*3 2.8 C 0 km/h
842 17-02-2019 22:05:00 2.8 C 5.22 g/m*3 2.8 C 0 km/h
843 17-02-2019 22:10:00 2.7 C 5.19 g/m*3 2.7 C 0 km/h
844 17-02-2019 22:15:00 2.5 C 5.12 g/m*3 2.5 C 0 km/h
845 17-02-2019 22:20:00 2.5 C 5.17 g/m*3 2.5 C 0 km/h
846 17-02-2019 22:25:00 2.5 C 5.17 g/m*3 2.5 C 0 km/h
847 17-02-2019 22:30:00 2.4 C 5.14 g/m*3 2.4 C 0 km/h
848 17-02-2019 22:35:00 2.4 C 5.14 g/m*3 2.4 C 0 km/h
849 17-02-2019 22:40:00 2.2 C 5.01 g/m*3 2.2 C 0 km/h
850 17-02-2019 22:45:00 2 C 5 g/m*3 2 C 0 km/h
Sensor: Nr:Datum:Temp:Abs-Feuchte:Windchill:Wind:
Aussen-T/F 851 17-02-2019 22:50:00 1.9 C 5.02 g/m*3 1.9 C 0 km/h
852 17-02-2019 22:55:00 1.8 C 4.93 g/m*3 1.8 C 0 km/h
853 17-02-2019 23:00:00 1.8 C 4.99 g/m*3 1.8 C 0 km/h
854 17-02-2019 23:05:00 1.7 C 4.95 g/m*3 1.7 C 0 km/h
855 17-02-2019 23:10:00 1.7 C 4.95 g/m*3 1.7 C 0 km/h
856 17-02-2019 23:15:00 1.6 C 4.92 g/m*3 1.6 C 0 km/h
857 17-02-2019 23:20:00 1.7 C 5.01 g/m*3 1.7 C 0 km/h
858 17-02-2019 23:25:00 1.7 C 5.01 g/m*3 1.7 C 0 km/h
859 17-02-2019 23:30:00 1.8 C 5.04 g/m*3 1.8 C 0 km/h
860 17-02-2019 23:35:00 1.7 C 5.01 g/m*3 1.7 C 0 km/h
861 17-02-2019 23:40:00 1.7 C 5.01 g/m*3 1.7 C 0 km/h
862 17-02-2019 23:45:00 1.6 C 4.97 g/m*3 1.6 C 0 km/h
863 17-02-2019 23:50:00 1.6 C 4.97 g/m*3 1.6 C 0 km/h
864 17-02-2019 23:55:00 1.8 C 5.04 g/m*3 1.8 C 0 km/h
865 18-02-2019 00:00:00 1.7 C 5.01 g/m*3 1.7 C 0 km/h
866 18-02-2019 00:05:00 1.7 C 5.01 g/m*3 1.7 C 0 km/h
867 18-02-2019 00:10:00 1.8 C 5.04 g/m*3 1.8 C 0 km/h
868 18-02-2019 00:15:00 1.9 C 5.08 g/m*3 1.9 C 0 km/h
869 18-02-2019 00:20:00 1.7 C 4.95 g/m*3 1.7 C 0 km/h
870 18-02-2019 00:25:00 1.5 C 4.89 g/m*3 1.5 C 0 km/h
871 18-02-2019 00:30:00 1.4 C 4.85 g/m*3 1.4 C 0 km/h
872 18-02-2019 00:35:00 1.2 C 4.79 g/m*3 1.2 C 0 km/h
873 18-02-2019 00:40:00 1.3 C 4.87 g/m*3 1.3 C 0 km/h
874 18-02-2019 00:45:00 1.2 C 4.84 g/m*3 1.2 C 0 km/h
875 18-02-2019 00:50:00 1.1 C 4.81 g/m*3 1.1 C 0 km/h
Sensor: Nr:Datum:Temp:Abs-Feuchte:Windchill:Wind:
Aussen-T/F 876 18-02-2019 00:55:00 1.1 C 4.81 g/m*3 1.1 C 0 km/h
877 18-02-2019 01:00:00 0.9 C 4.74 g/m*3 0.9 C 0 km/h
878 18-02-2019 01:05:00 0.9 C 4.74 g/m*3 0.9 C 0 km/h
879 18-02-2019 01:10:00 0.9 C 4.79 g/m*3 0.9 C 0 km/h
880 18-02-2019 01:15:00 0.7 C 4.68 g/m*3 0.7 C 0 km/h
881 18-02-2019 01:20:00 0.5 C 4.61 g/m*3 0.5 C 0 km/h
882 18-02-2019 01:25:00 0.4 C 4.58 g/m*3 0.4 C 0 km/h
883 18-02-2019 01:30:00 0.4 C 4.63 g/m*3 0.4 C 0 km/h
884 18-02-2019 01:35:00 0.3 C 4.6 g/m*3 0.3 C 0 km/h
885 18-02-2019 01:40:00 0.3 C 4.6 g/m*3 0.3 C 0 km/h
886 18-02-2019 01:45:00 0.3 C 4.6 g/m*3 0.3 C 0 km/h
887 18-02-2019 01:50:00 0.2 C 4.57 g/m*3 0.2 C 0 km/h
888 18-02-2019 01:55:00 0.1 C 4.54 g/m*3 0.1 C 0 km/h
889 18-02-2019 02:00:00 0.1 C 4.54 g/m*3 0.1 C 0 km/h
890 18-02-2019 02:05:00 0 C 4.51 g/m*3 0 C 0 km/h
891 18-02-2019 02:10:00 0 C 4.51 g/m*3 0 C 0 km/h
892 18-02-2019 02:15:00 0.1 C 4.59 g/m*3 0.1 C 1.6 km/h
893 18-02-2019 02:20:00 0.1 C 4.59 g/m*3 0.1 C 0 km/h
894 18-02-2019 02:25:00 0.1 C 4.59 g/m*3 0.1 C 0 km/h
895 18-02-2019 02:30:00 0.1 C 4.59 g/m*3 0.1 C 0 km/h
896 18-02-2019 02:35:00 0.2 C 4.62 g/m*3 0.2 C 0 km/h
897 18-02-2019 02:40:00 0.2 C 4.62 g/m*3 0.2 C 0 km/h
898 18-02-2019 02:45:00 0.2 C 4.62 g/m*3 0.2 C 0 km/h
899 18-02-2019 02:50:00 0.1 C 4.59 g/m*3 0.1 C 0 km/h
900 18-02-2019 02:55:00 -0.2 C 4.49 g/m*3 -0.2 C 0 km/h
Sensor: Nr:Datum:Temp:Abs-Feuchte:Windchill:Wind:
Aussen-T/F 901 18-02-2019 03:00:00 -0.3 C 4.46 g/m*3 -0.3 C 0 km/h
902 18-02-2019 03:05:00 -0.3 C 4.46 g/m*3 -0.3 C 0 km/h
903 18-02-2019 03:10:00 -0.3 C 4.46 g/m*3 -0.3 C 0 km/h
904 18-02-2019 03:15:00 -0.3 C 4.46 g/m*3 -0.3 C 0 km/h
905 18-02-2019 03:20:00 -0.4 C 4.43 g/m*3 -0.4 C 0 km/h
906 18-02-2019 03:25:00 -0.4 C 4.43 g/m*3 -0.4 C 0 km/h
907 18-02-2019 03:30:00 -0.4 C 4.43 g/m*3 -0.4 C 0 km/h
908 18-02-2019 03:35:00 -0.4 C 4.43 g/m*3 -0.4 C 0 km/h
909 18-02-2019 03:40:00 -0.4 C 4.48 g/m*3 -0.4 C 0 km/h
910 18-02-2019 03:45:00 -0.5 C 4.4 g/m*3 -0.5 C 0 km/h
911 18-02-2019 03:50:00 -0.6 C 4.37 g/m*3 -0.6 C 0 km/h
912 18-02-2019 03:55:00 -0.7 C 4.34 g/m*3 -0.7 C 0 km/h
913 18-02-2019 04:00:00 -0.7 C 4.34 g/m*3 -0.7 C 0 km/h
914 18-02-2019 04:05:00 -0.8 C 4.31 g/m*3 -0.8 C 0 km/h
915 18-02-2019 04:10:00 -0.8 C 4.31 g/m*3 -0.8 C 0 km/h
916 18-02-2019 04:15:00 -0.8 C 4.31 g/m*3 -0.8 C 0 km/h
917 18-02-2019 04:20:00 -0.9 C 4.28 g/m*3 -0.9 C 0 km/h
918 18-02-2019 04:25:00 -0.8 C 4.35 g/m*3 -0.8 C 0 km/h
919 18-02-2019 04:30:00 -0.7 C 4.39 g/m*3 -0.7 C 0 km/h
920 18-02-2019 04:35:00 -0.7 C 4.39 g/m*3 -0.7 C 0 km/h
921 18-02-2019 04:40:00 -0.7 C 4.39 g/m*3 -0.7 C 0 km/h
922 18-02-2019 04:45:00 -0.7 C 4.39 g/m*3 -0.7 C 0 km/h
923 18-02-2019 04:50:00 -0.8 C 4.35 g/m*3 -0.8 C 0 km/h
924 18-02-2019 04:55:00 -0.9 C 4.32 g/m*3 -0.9 C 0 km/h
925 18-02-2019 05:00:00 -1 C 4.29 g/m*3 -1 C 0 km/h
Sensor: Nr:Datum:Temp:Abs-Feuchte:Windchill:Wind:
Aussen-T/F 926 18-02-2019 05:05:00 -1.1 C 4.26 g/m*3 -1.1 C 0 km/h
927 18-02-2019 05:10:00 -1.1 C 4.26 g/m*3 -1.1 C 0 km/h
928 18-02-2019 05:15:00 -1.2 C 4.24 g/m*3 -1.2 C 0 km/h
929 18-02-2019 05:20:00 -1.2 C 4.24 g/m*3 -1.2 C 0 km/h
930 18-02-2019 05:25:00 -1.3 C 4.21 g/m*3 -1.3 C 0 km/h
931 18-02-2019 05:30:00 -1.2 C 4.24 g/m*3 -1.2 C 0 km/h
932 18-02-2019 05:35:00 -1.2 C 4.24 g/m*3 -1.2 C 0 km/h
933 18-02-2019 05:40:00 -1.2 C 4.24 g/m*3 -1.2 C 0 km/h
934 18-02-2019 05:45:00 -1.3 C 4.21 g/m*3 -1.3 C 0 km/h
935 18-02-2019 05:50:00 -1.3 C 4.21 g/m*3 -1.3 C 0 km/h
936 18-02-2019 05:55:00 -1.5 C 4.15 g/m*3 -1.5 C 0 km/h
937 18-02-2019 06:00:00 -1.5 C 4.15 g/m*3 -1.5 C 0 km/h
938 18-02-2019 06:05:00 -1.4 C 4.18 g/m*3 -1.4 C 0 km/h
939 18-02-2019 06:10:00 -1.4 C 4.18 g/m*3 -1.4 C 0 km/h
940 18-02-2019 06:15:00 -1.4 C 4.18 g/m*3 -1.4 C 0 km/h
941 18-02-2019 06:20:00 -1.6 C 4.12 g/m*3 -1.6 C 0 km/h
942 18-02-2019 06:25:00 -1.4 C 4.18 g/m*3 -1.4 C 0 km/h
943 18-02-2019 06:30:00 -1.4 C 4.18 g/m*3 -1.4 C 0 km/h
944 18-02-2019 06:35:00 -1.4 C 4.18 g/m*3 -1.4 C 0 km/h
945 18-02-2019 06:40:00 -1.6 C 4.12 g/m*3 -1.6 C 0 km/h
946 18-02-2019 06:45:00 -1.7 C 4.09 g/m*3 -1.7 C 0 km/h
947 18-02-2019 06:50:00 -1.6 C 4.12 g/m*3 -1.6 C 0 km/h
948 18-02-2019 06:55:00 -1.3 C 4.21 g/m*3 -1.3 C 0 km/h
949 18-02-2019 07:00:00 -1.3 C 4.25 g/m*3 -1.3 C 0 km/h
950 18-02-2019 07:05:00 -1.3 C 4.21 g/m*3 -1.3 C 0 km/h
Sensor: Nr:Datum:Temp:Abs-Feuchte:Windchill:Wind:
Aussen-T/F 951 18-02-2019 07:10:00 -1.5 C 4.15 g/m*3 -1.5 C 0 km/h
952 18-02-2019 07:15:00 -1.7 C 4.09 g/m*3 -1.7 C 0 km/h
953 18-02-2019 07:20:00 -1.7 C 4.09 g/m*3 -1.7 C 0 km/h
954 18-02-2019 07:25:00 -1.6 C 4.12 g/m*3 -1.6 C 0 km/h
955 18-02-2019 07:30:00 -1.6 C 4.12 g/m*3 -1.6 C 0 km/h
956 18-02-2019 07:35:00 -1.7 C 4.09 g/m*3 -1.7 C 0 km/h
957 18-02-2019 07:40:00 -1.8 C 4.06 g/m*3 -1.8 C 0 km/h
958 18-02-2019 07:45:00 -1.8 C 4.06 g/m*3 -1.8 C 0 km/h
959 18-02-2019 07:50:00 -1.9 C 4.03 g/m*3 -1.9 C 0 km/h
960 18-02-2019 07:55:00 -1.9 C 4.03 g/m*3 -1.9 C 0 km/h
961 18-02-2019 08:00:00 -1.9 C 4.03 g/m*3 -1.9 C 0 km/h
962 18-02-2019 08:05:00 -1.9 C 4.03 g/m*3 -1.9 C 0 km/h
963 18-02-2019 08:10:00 -1.9 C 4.03 g/m*3 -1.9 C 0 km/h
964 18-02-2019 08:15:00 -1.9 C 4.03 g/m*3 -1.9 C 0 km/h
965 18-02-2019 08:20:00 -1.9 C 4.03 g/m*3 -1.9 C 0 km/h
966 18-02-2019 08:25:00 -1.8 C 4.06 g/m*3 -1.8 C 0 km/h
967 18-02-2019 08:30:00 -1.8 C 4.06 g/m*3 -1.8 C 0 km/h
968 18-02-2019 08:35:00 -1.7 C 4.13 g/m*3 -1.7 C 0 km/h
969 18-02-2019 08:40:00 -1.4 C 4.22 g/m*3 -1.4 C 0 km/h
970 18-02-2019 08:45:00 -1.2 C 4.28 g/m*3 -1.2 C 1.6 km/h
971 18-02-2019 08:50:00 -1.1 C 4.31 g/m*3 -1.1 C 0 km/h
972 18-02-2019 08:55:00 -1.1 C 4.31 g/m*3 -1.1 C 0 km/h
973 18-02-2019 09:00:00 -0.9 C 4.37 g/m*3 -0.9 C 3.2 km/h
974 18-02-2019 09:05:00 -0.6 C 4.46 g/m*3 -0.6 C 3.2 km/h
975 18-02-2019 09:10:00 -0.5 C 4.49 g/m*3 -0.5 C 0 km/h
Sensor: Nr:Datum:Temp:Abs-Feuchte:Windchill:Wind:
Aussen-T/F 976 18-02-2019 09:15:00 -0.6 C 4.46 g/m*3 -0.6 C 0 km/h
977 18-02-2019 09:20:00 -0.6 C 4.46 g/m*3 -0.6 C 0 km/h
978 18-02-2019 09:25:00 -0.5 C 4.49 g/m*3 -0.5 C 1.6 km/h
979 18-02-2019 09:30:00 -0.4 C 4.52 g/m*3 -0.4 C 0 km/h
980 18-02-2019 09:35:00 -0.4 C 4.52 g/m*3 -0.4 C 0 km/h
981 18-02-2019 09:40:00 -0.5 C 4.49 g/m*3 -0.5 C 0 km/h
982 18-02-2019 09:45:00 -0.6 C 4.46 g/m*3 -0.6 C 0 km/h
983 18-02-2019 09:50:00 -0.6 C 4.46 g/m*3 -0.6 C 0 km/h
984 18-02-2019 09:55:00 -0.6 C 4.46 g/m*3 -0.6 C 0 km/h
985 18-02-2019 10:00:00 -0.5 C 4.49 g/m*3 -0.5 C 0 km/h
986 18-02-2019 10:05:00 -0.5 C 4.49 g/m*3 -0.5 C 0 km/h
987 18-02-2019 10:10:00 -0.4 C 4.52 g/m*3 -0.4 C 0 km/h
988 18-02-2019 10:15:00 -0.3 C 4.56 g/m*3 -0.3 C 1.6 km/h
989 18-02-2019 10:20:00 -0.1 C 4.62 g/m*3 -0.1 C 0 km/h
990 18-02-2019 10:25:00 0.1 C 4.68 g/m*3 0.1 C 0 km/h
991 18-02-2019 10:30:00 0.2 C 4.72 g/m*3 0.2 C 0 km/h
992 18-02-2019 10:35:00 0.3 C 4.75 g/m*3 0.3 C 0 km/h
993 18-02-2019 10:40:00 0.5 C 4.81 g/m*3 0.5 C 3.2 km/h
994 18-02-2019 10:45:00 0.7 C 4.88 g/m*3 0.7 C 3.2 km/h
995 18-02-2019 10:50:00 1 C 5.03 g/m*3 1 C 1.6 km/h
996 18-02-2019 10:55:00 1.3 C 5.14 g/m*3 1.3 C 0 km/h
997 18-02-2019 11:00:00 1.6 C 5.25 g/m*3 1.6 C 0 km/h
998 18-02-2019 11:05:00 1.7 C 5.28 g/m*3 1.7 C 0 km/h
999 18-02-2019 11:10:00 1.9 C 5.35 g/m*3 1.9 C 0 km/h
1000 18-02-2019 11:15:00 2.2 C 5.46 g/m*3 2.2 C 0 km/h
Sensor: Nr:Datum:Temp:Abs-Feuchte:Windchill:Wind:
Aussen-T/F 1001 18-02-2019 11:20:00 2.4 C 5.54 g/m*3 2.4 C 0 km/h
1002 18-02-2019 11:25:00 2.7 C 5.65 g/m*3 2.7 C 0 km/h
1003 18-02-2019 11:30:00 3 C 5.77 g/m*3 3 C 0 km/h
1004 18-02-2019 11:35:00 3.3 C 5.88 g/m*3 3.3 C 0 km/h
1005 18-02-2019 11:40:00 3.6 C 6 g/m*3 3.6 C 0 km/h
1006 18-02-2019 11:45:00 3.7 C 5.98 g/m*3 3.7 C 0 km/h
1007 18-02-2019 11:50:00 3.9 C 6.06 g/m*3 3.9 C 0 km/h
1008 18-02-2019 11:55:00 4.1 C 6.08 g/m*3 4.1 C 0 km/h
1009 18-02-2019 12:00:00 4.2 C 6.12 g/m*3 4.2 C 0 km/h
1010 18-02-2019 12:05:00 4.4 C 6.2 g/m*3 4.4 C 0 km/h
1011 18-02-2019 12:10:00 4.7 C 6.33 g/m*3 4.7 C 0 km/h
1012 18-02-2019 12:15:00 4.9 C 6.41 g/m*3 4.9 C 0 km/h
1013 18-02-2019 12:20:00 5.3 C 6.58 g/m*3 5.3 C 0 km/h
1014 18-02-2019 12:25:00 5.6 C 6.72 g/m*3 5.6 C 0 km/h
1015 18-02-2019 12:30:00 6.1 C 6.94 g/m*3 6.1 C 0 km/h
1016 18-02-2019 12:35:00 6.6 C 7.02 g/m*3 6.6 C 0 km/h
1017 18-02-2019 12:40:00 7.1 C 7.18 g/m*3 7.1 C 0 km/h
1018 18-02-2019 12:45:00 7.5 C 7.2 g/m*3 7.5 C 0 km/h
1019 18-02-2019 12:50:00 7.9 C 7.23 g/m*3 7.9 C 0 km/h
1020 18-02-2019 12:55:00 8.2 C 7.29 g/m*3 8.2 C 0 km/h
1021 18-02-2019 13:00:00 8.3 C 7.25 g/m*3 8.3 C 0 km/h
1022 18-02-2019 13:05:00 8.4 C 7.21 g/m*3 8.4 C 0 km/h
1023 18-02-2019 13:10:00 8.6 C 7.22 g/m*3 8.6 C 0 km/h
1024 18-02-2019 13:15:00 8.8 C 7.22 g/m*3 8.8 C 0 km/h
1025 18-02-2019 13:20:00 9 C 7.32 g/m*3 9 C 0 km/h
Sensor: Nr:Datum:Temp:Abs-Feuchte:Windchill:Wind:
Aussen-T/F 1026 18-02-2019 13:25:00 9.3 C 7.28 g/m*3 9.3 C 0 km/h
1027 18-02-2019 13:30:00 9.7 C 7.47 g/m*3 9.7 C 0 km/h
1028 18-02-2019 13:35:00 10 C 7.42 g/m*3 10 C 0 km/h
1029 18-02-2019 13:40:00 10.3 C 7.47 g/m*3 10.3 C 0 km/h
1030 18-02-2019 13:45:00 10.6 C 7.42 g/m*3 10.6 C 0 km/h
1031 18-02-2019 13:50:00 10.9 C 7.46 g/m*3 10.9 C 0 km/h
1032 18-02-2019 13:55:00 11.2 C 7.5 g/m*3 11.2 C 0 km/h
1033 18-02-2019 14:00:00 11.5 C 7.54 g/m*3 11.5 C 0 km/h
1034 18-02-2019 14:05:00 11.6 C 7.38 g/m*3 11.6 C 0 km/h
1035 18-02-2019 14:10:00 11.7 C 7.43 g/m*3 11.7 C 0 km/h
1036 18-02-2019 14:15:00 11.7 C 7.43 g/m*3 11.7 C 0 km/h
1037 18-02-2019 14:20:00 11.6 C 7.38 g/m*3 11.6 C 0 km/h
1038 18-02-2019 14:25:00 11.5 C 7.33 g/m*3 11.5 C 0 km/h
1039 18-02-2019 14:30:00 11.3 C 7.34 g/m*3 11.3 C 0 km/h
1040 18-02-2019 14:35:00 11.2 C 7.3 g/m*3 11.2 C 0 km/h
1041 18-02-2019 14:40:00 11 C 7.31 g/m*3 11 C 0 km/h
1042 18-02-2019 14:45:00 10.9 C 7.26 g/m*3 10.9 C 0 km/h
1043 18-02-2019 14:50:00 11 C 7.31 g/m*3 11 C 0 km/h
1044 18-02-2019 14:55:00 11.1 C 7.35 g/m*3 11.1 C 0 km/h
1045 18-02-2019 15:00:00 11.1 C 7.35 g/m*3 11.1 C 0 km/h
1046 18-02-2019 15:05:00 11.2 C 7.3 g/m*3 11.2 C 0 km/h
1047 18-02-2019 15:10:00 11.4 C 7.29 g/m*3 11.4 C 0 km/h
1048 18-02-2019 15:15:00 11.6 C 7.38 g/m*3 11.6 C 0 km/h
1049 18-02-2019 15:20:00 11.7 C 7.22 g/m*3 11.7 C 0 km/h
1050 18-02-2019 15:25:00 11.9 C 7.1 g/m*3 11.9 C 0 km/h
Sensor: Nr:Datum:Temp:Abs-Feuchte:Windchill:Wind:
Aussen-T/F 1051 18-02-2019 15:30:00 12.2 C 7.01 g/m*3 12.2 C 0 km/h
1052 18-02-2019 15:35:00 12.4 C 7.1 g/m*3 12.4 C 0 km/h
1053 18-02-2019 15:40:00 12.6 C 7.3 g/m*3 12.6 C 0 km/h
1054 18-02-2019 15:45:00 12.7 C 6.68 g/m*3 12.7 C 0 km/h
1055 18-02-2019 15:50:00 12.9 C 6.99 g/m*3 12.9 C 0 km/h
1056 18-02-2019 15:55:00 13 C 7.03 g/m*3 13 C 0 km/h
1057 18-02-2019 16:00:00 12.9 C 6.99 g/m*3 12.9 C 0 km/h
1058 18-02-2019 16:05:00 12.8 C 6.94 g/m*3 12.8 C 0 km/h
1059 18-02-2019 16:10:00 12.6 C 6.75 g/m*3 12.6 C 0 km/h
1060 18-02-2019 16:15:00 12.4 C 6.88 g/m*3 12.4 C 0 km/h
1061 18-02-2019 16:20:00 12.2 C 6.69 g/m*3 12.2 C 0 km/h
1062 18-02-2019 16:25:00 11.9 C 6.67 g/m*3 11.9 C 0 km/h
1063 18-02-2019 16:30:00 11.7 C 6.8 g/m*3 11.7 C 0 km/h
1064 18-02-2019 16:35:00 11.5 C 6.82 g/m*3 11.5 C 0 km/h
1065 18-02-2019 16:40:00 11.3 C 6.83 g/m*3 11.3 C 0 km/h
1066 18-02-2019 16:45:00 11.1 C 6.85 g/m*3 11.1 C 0 km/h
1067 18-02-2019 16:50:00 10.9 C 6.76 g/m*3 10.9 C 0 km/h
1068 18-02-2019 16:55:00 10.8 C 6.72 g/m*3 10.8 C 0 km/h
1069 18-02-2019 17:00:00 10.8 C 6.72 g/m*3 10.8 C 0 km/h
1070 18-02-2019 17:05:00 10.8 C 6.72 g/m*3 10.8 C 0 km/h
1071 18-02-2019 17:10:00 10.8 C 6.82 g/m*3 10.8 C 0 km/h
1072 18-02-2019 17:15:00 10.9 C 6.76 g/m*3 10.9 C 0 km/h
1073 18-02-2019 17:20:00 10.9 C 6.76 g/m*3 10.9 C 0 km/h
1074 18-02-2019 17:25:00 10.8 C 6.82 g/m*3 10.8 C 0 km/h
1075 18-02-2019 17:30:00 10.6 C 6.83 g/m*3 10.6 C 0 km/h
Sensor: Nr:Datum:Temp:Abs-Feuchte:Windchill:Wind:
Aussen-T/F 1076 18-02-2019 17:35:00 10.3 C 6.7 g/m*3 10.3 C 0 km/h
1077 18-02-2019 17:40:00 10.1 C 6.62 g/m*3 10.1 C 0 km/h
1078 18-02-2019 17:45:00 9.9 C 6.63 g/m*3 9.9 C 0 km/h
1079 18-02-2019 17:50:00 9.7 C 6.64 g/m*3 9.7 C 0 km/h
1080 18-02-2019 17:55:00 9.5 C 6.55 g/m*3 9.5 C 0 km/h
1081 18-02-2019 18:00:00 9.3 C 6.56 g/m*3 9.3 C 0 km/h
1082 18-02-2019 18:05:00 9.1 C 6.48 g/m*3 9.1 C 0 km/h
1083 18-02-2019 18:10:00 8.9 C 6.39 g/m*3 8.9 C 0 km/h
1084 18-02-2019 18:15:00 8.7 C 6.4 g/m*3 8.7 C 0 km/h
1085 18-02-2019 18:20:00 8.5 C 6.32 g/m*3 8.5 C 0 km/h
1086 18-02-2019 18:25:00 8.3 C 6.32 g/m*3 8.3 C 0 km/h
1087 18-02-2019 18:30:00 8.3 C 6.41 g/m*3 8.3 C 0 km/h
1088 18-02-2019 18:35:00 8.2 C 6.36 g/m*3 8.2 C 0 km/h
1089 18-02-2019 18:40:00 8.1 C 6.32 g/m*3 8.1 C 0 km/h
1090 18-02-2019 18:45:00 8 C 6.28 g/m*3 8 C 0 km/h
1091 18-02-2019 18:50:00 7.9 C 6.24 g/m*3 7.9 C 0 km/h
1092 18-02-2019 18:55:00 7.7 C 6.08 g/m*3 7.7 C 0 km/h
1093 18-02-2019 19:00:00 7.5 C 6.08 g/m*3 7.5 C 0 km/h
1094 18-02-2019 19:05:00 7.3 C 6.16 g/m*3 7.3 C 0 km/h
1095 18-02-2019 19:10:00 7.2 C 6.2 g/m*3 7.2 C 0 km/h
1096 18-02-2019 19:15:00 7.1 C 6.16 g/m*3 7.1 C 0 km/h
1097 18-02-2019 19:20:00 6.9 C 6.16 g/m*3 6.9 C 0 km/h
1098 18-02-2019 19:25:00 6.8 C 6.19 g/m*3 6.8 C 0 km/h
1099 18-02-2019 19:30:00 6.8 C 6.19 g/m*3 6.8 C 0 km/h
1100 18-02-2019 19:35:00 6.8 C 6.27 g/m*3 6.8 C 0 km/h
Sensor: Nr:Datum:Temp:Abs-Feuchte:Windchill:Wind:
Aussen-T/F 1101 18-02-2019 19:40:00 6.9 C 6.24 g/m*3 6.9 C 0 km/h
1102 18-02-2019 19:45:00 6.9 C 6.24 g/m*3 6.9 C 0 km/h
1103 18-02-2019 19:50:00 6.9 C 6.24 g/m*3 6.9 C 0 km/h
1104 18-02-2019 19:55:00 6.9 C 6.24 g/m*3 6.9 C 0 km/h
1105 18-02-2019 20:00:00 6.8 C 6.12 g/m*3 6.8 C 0 km/h
1106 18-02-2019 20:05:00 6.7 C 6 g/m*3 6.7 C 0 km/h
1107 18-02-2019 20:10:00 6.6 C 5.96 g/m*3 6.6 C 4.8 km/h
1108 18-02-2019 20:15:00 6.4 C 5.81 g/m*3 6.4 C 0 km/h
1109 18-02-2019 20:20:00 6.1 C 5.77 g/m*3 6.1 C 0 km/h
1110 18-02-2019 20:25:00 5.8 C 5.8 g/m*3 5.8 C 0 km/h
1111 18-02-2019 20:30:00 5.5 C 5.69 g/m*3 5.5 C 0 km/h
1112 18-02-2019 20:35:00 5.2 C 5.65 g/m*3 5.2 C 0 km/h
1113 18-02-2019 20:40:00 4.9 C 5.54 g/m*3 4.9 C 0 km/h
1114 18-02-2019 20:45:00 4.7 C 5.6 g/m*3 4.7 C 0 km/h
1115 18-02-2019 20:50:00 4.6 C 5.62 g/m*3 4.6 C 0 km/h
1116 18-02-2019 20:55:00 4.6 C 5.69 g/m*3 4.6 C 0 km/h
1117 18-02-2019 21:00:00 4.6 C 5.69 g/m*3 4.6 C 0 km/h
1118 18-02-2019 21:05:00 4.6 C 5.69 g/m*3 4.6 C 0 km/h
1119 18-02-2019 21:10:00 4.4 C 5.62 g/m*3 4.4 C 0 km/h
1120 18-02-2019 21:15:00 4.3 C 5.58 g/m*3 4.3 C 0 km/h
1121 18-02-2019 21:20:00 4.3 C 5.58 g/m*3 4.3 C 0 km/h
1122 18-02-2019 21:25:00 4.2 C 5.54 g/m*3 4.2 C 0 km/h
1123 18-02-2019 21:30:00 4.2 C 5.54 g/m*3 4.2 C 0 km/h
1124 18-02-2019 21:35:00 4 C 5.47 g/m*3 4 C 0 km/h
1125 18-02-2019 21:40:00 3.9 C 5.43 g/m*3 3.9 C 0 km/h
Sensor: Nr:Datum:Temp:Abs-Feuchte:Windchill:Wind:
Aussen-T/F 1126 18-02-2019 21:45:00 3.8 C 5.4 g/m*3 3.8 C 0 km/h
1127 18-02-2019 21:50:00 3.6 C 5.32 g/m*3 3.6 C 0 km/h
1128 18-02-2019 21:55:00 3.3 C 5.22 g/m*3 3.3 C 0 km/h
1129 18-02-2019 22:00:00 3.2 C 5.24 g/m*3 3.2 C 0 km/h
1130 18-02-2019 22:05:00 3 C 5.17 g/m*3 3 C 0 km/h
1131 18-02-2019 22:10:00 3 C 5.23 g/m*3 3 C 0 km/h
1132 18-02-2019 22:15:00 2.9 C 5.26 g/m*3 2.9 C 0 km/h
1133 18-02-2019 22:20:00 2.9 C 5.26 g/m*3 2.9 C 0 km/h
1134 18-02-2019 22:25:00 2.8 C 5.22 g/m*3 2.8 C 0 km/h
1135 18-02-2019 22:30:00 2.7 C 5.19 g/m*3 2.7 C 0 km/h
1136 18-02-2019 22:35:00 2.7 C 5.19 g/m*3 2.7 C 0 km/h
1137 18-02-2019 22:40:00 2.7 C 5.19 g/m*3 2.7 C 0 km/h
1138 18-02-2019 22:45:00 2.5 C 5.12 g/m*3 2.5 C 0 km/h
1139 18-02-2019 22:50:00 2.4 C 5.14 g/m*3 2.4 C 0 km/h
1140 18-02-2019 22:55:00 2.4 C 5.14 g/m*3 2.4 C 0 km/h
1141 18-02-2019 23:00:00 2.3 C 5.1 g/m*3 2.3 C 0 km/h
1142 18-02-2019 23:05:00 2.3 C 5.1 g/m*3 2.3 C 0 km/h
1143 18-02-2019 23:10:00 2.2 C 5.13 g/m*3 2.2 C 0 km/h
1144 18-02-2019 23:15:00 2.3 C 5.16 g/m*3 2.3 C 0 km/h
1145 18-02-2019 23:20:00 2.3 C 5.16 g/m*3 2.3 C 0 km/h
1146 18-02-2019 23:25:00 2.3 C 5.16 g/m*3 2.3 C 0 km/h
1147 18-02-2019 23:30:00 2.2 C 5.13 g/m*3 2.2 C 0 km/h
1148 18-02-2019 23:35:00 2.1 C 5.09 g/m*3 2.1 C 0 km/h
1149 18-02-2019 23:40:00 2 C 5.06 g/m*3 2 C 0 km/h
1150 18-02-2019 23:45:00 1.9 C 5.02 g/m*3 1.9 C 0 km/h
Sensor: Nr:Datum:Temp:Abs-Feuchte:Windchill:Wind:
Aussen-T/F 1151 18-02-2019 23:50:00 1.9 C 5.02 g/m*3 1.9 C 0 km/h
1152 18-02-2019 23:55:00 1.8 C 4.99 g/m*3 1.8 C 0 km/h
1153 19-02-2019 00:00:00 1.8 C 4.99 g/m*3 1.8 C 0 km/h
1154 19-02-2019 00:05:00 1.7 C 4.95 g/m*3 1.7 C 0 km/h
1155 19-02-2019 00:10:00 1.7 C 5.01 g/m*3 1.7 C 0 km/h
1156 19-02-2019 00:15:00 1.7 C 5.01 g/m*3 1.7 C 0 km/h
1157 19-02-2019 00:20:00 1.7 C 5.01 g/m*3 1.7 C 0 km/h
1158 19-02-2019 00:25:00 1.8 C 5.04 g/m*3 1.8 C 0 km/h
1159 19-02-2019 00:30:00 1.7 C 5.01 g/m*3 1.7 C 0 km/h
1160 19-02-2019 00:35:00 1.7 C 5.01 g/m*3 1.7 C 0 km/h
1161 19-02-2019 00:40:00 1.7 C 5.01 g/m*3 1.7 C 0 km/h
1162 19-02-2019 00:45:00 1.7 C 5.06 g/m*3 1.7 C 0 km/h
1163 19-02-2019 00:50:00 1.7 C 5.06 g/m*3 1.7 C 0 km/h
1164 19-02-2019 00:55:00 1.8 C 5.1 g/m*3 1.8 C 0 km/h
1165 19-02-2019 01:00:00 1.8 C 5.1 g/m*3 1.8 C 0 km/h
1166 19-02-2019 01:05:00 1.8 C 5.1 g/m*3 1.8 C 0 km/h
1167 19-02-2019 01:10:00 1.8 C 5.1 g/m*3 1.8 C 0 km/h
1168 19-02-2019 01:15:00 1.9 C 5.13 g/m*3 1.9 C 0 km/h
1169 19-02-2019 01:20:00 1.9 C 5.13 g/m*3 1.9 C 0 km/h
1170 19-02-2019 01:25:00 1.9 C 5.13 g/m*3 1.9 C 0 km/h
1171 19-02-2019 01:30:00 1.8 C 5.04 g/m*3 1.8 C 0 km/h
1172 19-02-2019 01:35:00 1.8 C 5.04 g/m*3 1.8 C 0 km/h
1173 19-02-2019 01:40:00 1.8 C 5.1 g/m*3 1.8 C 0 km/h
1174 19-02-2019 01:45:00 1.9 C 5.13 g/m*3 1.9 C 0 km/h
1175 19-02-2019 01:50:00 1.8 C 5.1 g/m*3 1.8 C 0 km/h
Sensor: Nr:Datum:Temp:Abs-Feuchte:Windchill:Wind:
Aussen-T/F 1176 19-02-2019 01:55:00 1.8 C 5.1 g/m*3 1.8 C 0 km/h
1177 19-02-2019 02:00:00 1.8 C 5.1 g/m*3 1.8 C 0 km/h
1178 19-02-2019 02:05:00 1.8 C 5.1 g/m*3 1.8 C 0 km/h
1179 19-02-2019 02:10:00 1.8 C 5.1 g/m*3 1.8 C 0 km/h
1180 19-02-2019 02:15:00 1.9 C 5.19 g/m*3 1.9 C 0 km/h
1181 19-02-2019 02:20:00 2 C 5.17 g/m*3 2 C 0 km/h
1182 19-02-2019 02:25:00 1.9 C 5.13 g/m*3 1.9 C 0 km/h
1183 19-02-2019 02:30:00 1.8 C 5.1 g/m*3 1.8 C 0 km/h
1184 19-02-2019 02:35:00 1.8 C 5.1 g/m*3 1.8 C 0 km/h
1185 19-02-2019 02:40:00 1.8 C 5.1 g/m*3 1.8 C 0 km/h
1186 19-02-2019 02:45:00 1.8 C 5.1 g/m*3 1.8 C 0 km/h
1187 19-02-2019 02:50:00 1.9 C 5.19 g/m*3 1.9 C 0 km/h
1188 19-02-2019 02:55:00 1.9 C 5.19 g/m*3 1.9 C 0 km/h
1189 19-02-2019 03:00:00 2 C 5.22 g/m*3 2 C 0 km/h
1190 19-02-2019 03:05:00 2 C 5.22 g/m*3 2 C 0 km/h
1191 19-02-2019 03:10:00 2 C 5.22 g/m*3 2 C 0 km/h
1192 19-02-2019 03:15:00 2.1 C 5.26 g/m*3 2.1 C 0 km/h
1193 19-02-2019 03:20:00 2.1 C 5.26 g/m*3 2.1 C 0 km/h
1194 19-02-2019 03:25:00 2.1 C 5.26 g/m*3 2.1 C 0 km/h
1195 19-02-2019 03:30:00 2.3 C 5.39 g/m*3 2.3 C 1.6 km/h
1196 19-02-2019 03:35:00 2.4 C 5.42 g/m*3 2.4 C 0 km/h
1197 19-02-2019 03:40:00 2.6 C 5.5 g/m*3 2.6 C 0 km/h
1198 19-02-2019 03:45:00 2.7 C 5.54 g/m*3 2.7 C 0 km/h
1199 19-02-2019 03:50:00 2.8 C 5.57 g/m*3 2.8 C 3.2 km/h
1200 19-02-2019 03:55:00 3 C 5.65 g/m*3 1.28 C 6.4 km/h
Sensor: Nr:Datum:Temp:Abs-Feuchte:Windchill:Wind:
Aussen-T/F 1201 19-02-2019 04:00:00 3.2 C 5.72 g/m*3 3.2 C 4.8 km/h
1202 19-02-2019 04:05:00 3.3 C 5.76 g/m*3 3.3 C 3.2 km/h
1203 19-02-2019 04:10:00 3.4 C 5.8 g/m*3 3.4 C 1.6 km/h
1204 19-02-2019 04:15:00 3.6 C 5.88 g/m*3 3.6 C 3.2 km/h
1205 19-02-2019 04:20:00 3.7 C 5.92 g/m*3 3.7 C 4.8 km/h
1206 19-02-2019 04:25:00 3.8 C 5.96 g/m*3 3.8 C 4.8 km/h
1207 19-02-2019 04:30:00 3.8 C 5.9 g/m*3 1.7 C 8.1 km/h
1208 19-02-2019 04:35:00 3.8 C 5.9 g/m*3 3.8 C 4.8 km/h
1209 19-02-2019 04:40:00 3.8 C 5.83 g/m*3 1.7 C 8.1 km/h
1210 19-02-2019 04:45:00 3.9 C 5.87 g/m*3 2.32 C 6.4 km/h
1211 19-02-2019 04:50:00 4 C 5.91 g/m*3 4 C 3.2 km/h
1212 19-02-2019 04:55:00 4.1 C 5.89 g/m*3 4.1 C 0 km/h
1213 19-02-2019 05:00:00 4.1 C 5.89 g/m*3 4.1 C 1.6 km/h
1214 19-02-2019 05:05:00 3.9 C 5.75 g/m*3 3.9 C 0 km/h
1215 19-02-2019 05:10:00 3.9 C 5.68 g/m*3 3.9 C 0 km/h
1216 19-02-2019 05:15:00 3.9 C 5.75 g/m*3 3.9 C 3.2 km/h
1217 19-02-2019 05:20:00 3.9 C 5.75 g/m*3 3.9 C 1.6 km/h
1218 19-02-2019 05:25:00 3.9 C 5.75 g/m*3 3.9 C 4.8 km/h
1219 19-02-2019 05:30:00 3.9 C 5.75 g/m*3 3.9 C 3.2 km/h
1220 19-02-2019 05:35:00 4 C 5.79 g/m*3 4 C 4.8 km/h
1221 19-02-2019 05:40:00 4.1 C 5.82 g/m*3 4.1 C 3.2 km/h
1222 19-02-2019 05:45:00 4.2 C 5.86 g/m*3 4.2 C 4.8 km/h
1223 19-02-2019 05:50:00 4.3 C 5.84 g/m*3 4.3 C 3.2 km/h
1224 19-02-2019 05:55:00 4.4 C 5.88 g/m*3 4.4 C 4.8 km/h
1225 19-02-2019 06:00:00 4.6 C 5.96 g/m*3 4.6 C 4.8 km/h
Sensor: Nr:Datum:Temp:Abs-Feuchte:Windchill:Wind:
Aussen-T/F 1226 19-02-2019 06:05:00 4.7 C 5.93 g/m*3 2.76 C 8.1 km/h
1227 19-02-2019 06:10:00 4.8 C 5.9 g/m*3 2.87 C 8.1 km/h
1228 19-02-2019 06:15:00 4.9 C 5.94 g/m*3 3.48 C 6.4 km/h
1229 19-02-2019 06:20:00 5.1 C 5.95 g/m*3 3.71 C 6.4 km/h
1230 19-02-2019 06:25:00 5.1 C 5.95 g/m*3 5.1 C 1.6 km/h
1231 19-02-2019 06:30:00 5.1 C 5.95 g/m*3 5.1 C 0 km/h
1232 19-02-2019 06:35:00 5.1 C 5.95 g/m*3 5.1 C 3.2 km/h
1233 19-02-2019 06:40:00 5.1 C 5.95 g/m*3 5.1 C 3.2 km/h
1234 19-02-2019 06:45:00 5.1 C 5.95 g/m*3 5.1 C 3.2 km/h
1235 19-02-2019 06:50:00 5.1 C 6.02 g/m*3 5.1 C 4.8 km/h
1236 19-02-2019 06:55:00 5.2 C 6.06 g/m*3 5.2 C 3.2 km/h
1237 19-02-2019 07:00:00 5.2 C 6.06 g/m*3 5.2 C 4.8 km/h
1238 19-02-2019 07:05:00 5.2 C 6.13 g/m*3 5.2 C 4.8 km/h
1239 19-02-2019 07:10:00 5.2 C 6.13 g/m*3 5.2 C 4.8 km/h
1240 19-02-2019 07:15:00 5.2 C 6.13 g/m*3 5.2 C 3.2 km/h
1241 19-02-2019 07:20:00 5.2 C 6.13 g/m*3 5.2 C 4.8 km/h
1242 19-02-2019 07:25:00 5.2 C 6.2 g/m*3 5.2 C 1.6 km/h
1243 19-02-2019 07:30:00 5.2 C 6.2 g/m*3 5.2 C 4.8 km/h
1244 19-02-2019 07:35:00 5.2 C 6.27 g/m*3 5.2 C 4.8 km/h
1245 19-02-2019 07:40:00 5.2 C 6.27 g/m*3 5.2 C 0 km/h
1246 19-02-2019 07:45:00 5.2 C 6.33 g/m*3 5.2 C 0 km/h
1247 19-02-2019 07:50:00 5.2 C 6.33 g/m*3 5.2 C 0 km/h
1248 19-02-2019 07:55:00 5.2 C 6.33 g/m*3 5.2 C 1.6 km/h
1249 19-02-2019 08:00:00 5.2 C 6.33 g/m*3 5.2 C 0 km/h
1250 19-02-2019 08:05:00 5.2 C 6.4 g/m*3 5.2 C 1.6 km/h
Sensor: Nr:Datum:Temp:Abs-Feuchte:Windchill:Wind:
Aussen-T/F 1251 19-02-2019 08:10:00 5.1 C 6.29 g/m*3 5.1 C 0 km/h
1252 19-02-2019 08:15:00 4.9 C 6.21 g/m*3 4.9 C 0 km/h
1253 19-02-2019 08:20:00 4.9 C 6.28 g/m*3 4.9 C 4.8 km/h
1254 19-02-2019 08:25:00 4.9 C 6.28 g/m*3 4.9 C 0 km/h
1255 19-02-2019 08:30:00 4.8 C 6.24 g/m*3 4.8 C 0 km/h
1256 19-02-2019 08:35:00 4.8 C 6.24 g/m*3 4.8 C 0 km/h
1257 19-02-2019 08:40:00 4.8 C 6.3 g/m*3 4.8 C 1.6 km/h
1258 19-02-2019 08:45:00 4.8 C 6.24 g/m*3 4.8 C 3.2 km/h
1259 19-02-2019 08:50:00 4.7 C 6.19 g/m*3 4.7 C 0 km/h
1260 19-02-2019 08:55:00 4.6 C 6.22 g/m*3 4.6 C 1.6 km/h
1261 19-02-2019 09:00:00 4.7 C 6.26 g/m*3 4.7 C 4.8 km/h
1262 19-02-2019 09:05:00 4.8 C 6.3 g/m*3 4.8 C 3.2 km/h
1263 19-02-2019 09:10:00 4.9 C 6.41 g/m*3 4.9 C 4.8 km/h
1264 19-02-2019 09:15:00 5 C 6.46 g/m*3 5 C 4.8 km/h
1265 19-02-2019 09:20:00 5.1 C 6.5 g/m*3 5.1 C 1.6 km/h
1266 19-02-2019 09:25:00 5.1 C 6.5 g/m*3 3.23 C 8.1 km/h
1267 19-02-2019 09:30:00 5.2 C 6.54 g/m*3 3.34 C 8.1 km/h
1268 19-02-2019 09:35:00 5.3 C 6.58 g/m*3 5.3 C 3.2 km/h
1269 19-02-2019 09:40:00 5.5 C 6.67 g/m*3 5.5 C 4.8 km/h
1270 19-02-2019 09:45:00 5.7 C 6.76 g/m*3 5.7 C 4.8 km/h
1271 19-02-2019 09:50:00 5.8 C 6.81 g/m*3 4.52 C 6.4 km/h
1272 19-02-2019 09:55:00 5.9 C 6.85 g/m*3 4.17 C 8.1 km/h
1273 19-02-2019 10:00:00 5.9 C 6.85 g/m*3 4.63 C 6.4 km/h
1274 19-02-2019 10:05:00 6.1 C 6.94 g/m*3 6.1 C 4.8 km/h
1275 19-02-2019 10:10:00 6.2 C 6.99 g/m*3 4.52 C 8.1 km/h
Sensor: Nr:Datum:Temp:Abs-Feuchte:Windchill:Wind:
Aussen-T/F 1276 19-02-2019 10:15:00 6.2 C 6.99 g/m*3 4.52 C 8.1 km/h
1277 19-02-2019 10:20:00 6.2 C 6.91 g/m*3 4.52 C 8.1 km/h
1278 19-02-2019 10:25:00 6.3 C 6.96 g/m*3 3.96 C 11.3 km/h
1279 19-02-2019 10:30:00 6.4 C 7 g/m*3 4.39 C 9.7 km/h
1280 19-02-2019 10:35:00 6.4 C 7 g/m*3 4.39 C 9.7 km/h
1281 19-02-2019 10:40:00 6.5 C 7.05 g/m*3 4.51 C 9.7 km/h
1282 19-02-2019 10:45:00 6.6 C 7.1 g/m*3 4.63 C 9.7 km/h
1283 19-02-2019 10:50:00 6.6 C 7.1 g/m*3 4.99 C 8.1 km/h
1284 19-02-2019 10:55:00 6.7 C 7.07 g/m*3 5.11 C 8.1 km/h
1285 19-02-2019 11:00:00 6.7 C 7.07 g/m*3 5.11 C 8.1 km/h
1286 19-02-2019 11:05:00 6.8 C 7.11 g/m*3 5.22 C 8.1 km/h
1287 19-02-2019 11:10:00 6.9 C 7.16 g/m*3 5.79 C 6.4 km/h
1288 19-02-2019 11:15:00 7.1 C 7.25 g/m*3 5.58 C 8.1 km/h
1289 19-02-2019 11:20:00 7.1 C 7.25 g/m*3 6.02 C 6.4 km/h
1290 19-02-2019 11:25:00 7.2 C 7.3 g/m*3 5.69 C 8.1 km/h
1291 19-02-2019 11:30:00 7.3 C 7.35 g/m*3 5.47 C 9.7 km/h
1292 19-02-2019 11:35:00 7.4 C 7.4 g/m*3 6.37 C 6.4 km/h
1293 19-02-2019 11:40:00 7.6 C 7.41 g/m*3 6.16 C 8.1 km/h
1294 19-02-2019 11:45:00 7.6 C 7.41 g/m*3 6.16 C 8.1 km/h
1295 19-02-2019 11:50:00 7.8 C 7.51 g/m*3 6.4 C 8.1 km/h
1296 19-02-2019 11:55:00 7.9 C 7.56 g/m*3 7.9 C 4.8 km/h
1297 19-02-2019 12:00:00 8.1 C 7.66 g/m*3 8.1 C 3.2 km/h
1298 19-02-2019 12:05:00 8.2 C 7.62 g/m*3 8.2 C 4.8 km/h
1299 19-02-2019 12:10:00 8.4 C 7.72 g/m*3 8.4 C 4.8 km/h
1300 19-02-2019 12:15:00 8.5 C 7.6 g/m*3 7.22 C 8.1 km/h
Sensor: Nr:Datum:Temp:Abs-Feuchte:Windchill:Wind:
Aussen-T/F 1301 19-02-2019 12:20:00 8.6 C 7.56 g/m*3 7.34 C 8.1 km/h
1302 19-02-2019 12:25:00 8.7 C 7.61 g/m*3 7.87 C 6.4 km/h
1303 19-02-2019 12:30:00 8.8 C 7.66 g/m*3 7.98 C 6.4 km/h
1304 19-02-2019 12:35:00 8.8 C 7.57 g/m*3 8.8 C 4.8 km/h
1305 19-02-2019 12:40:00 8.9 C 7.53 g/m*3 8.9 C 4.8 km/h
1306 19-02-2019 12:45:00 9.1 C 7.54 g/m*3 7.61 C 9.7 km/h
1307 19-02-2019 12:50:00 9.2 C 7.59 g/m*3 9.2 C 1.6 km/h
1308 19-02-2019 12:55:00 9.3 C 7.64 g/m*3 8.56 C 6.4 km/h
1309 19-02-2019 13:00:00 9.2 C 7.5 g/m*3 8.05 C 8.1 km/h
1310 19-02-2019 13:05:00 9.2 C 7.41 g/m*3 7.73 C 9.7 km/h
1311 19-02-2019 13:10:00 9.3 C 7.46 g/m*3 8.16 C 8.1 km/h
1312 19-02-2019 13:15:00 9.4 C 7.42 g/m*3 8.28 C 8.1 km/h
1313 19-02-2019 13:20:00 9.7 C 7.65 g/m*3 8.63 C 8.1 km/h
1314 19-02-2019 13:25:00 9.8 C 7.52 g/m*3 9.8 C 4.8 km/h
1315 19-02-2019 13:30:00 10.1 C 7.75 g/m*3 8.31 C 12.9 km/h
1316 19-02-2019 13:35:00 10.3 C 7.57 g/m*3 8.55 C 12.9 km/h
1317 19-02-2019 13:40:00 10.4 C 7.52 g/m*3 9.46 C 8.1 km/h
1318 19-02-2019 13:45:00 10.5 C 7.37 g/m*3 9.02 C 11.3 km/h
1319 19-02-2019 13:50:00 10.6 C 7.32 g/m*3 9.14 C 11.3 km/h
1320 19-02-2019 13:55:00 10.8 C 7.41 g/m*3 9.93 C 8.1 km/h
1321 19-02-2019 14:00:00 10.8 C 7.41 g/m*3 9.38 C 11.3 km/h
1322 19-02-2019 14:05:00 10.7 C 7.37 g/m*3 9.26 C 11.3 km/h
1323 19-02-2019 14:10:00 10.7 C 7.27 g/m*3 8.84 C 14.5 km/h
1324 19-02-2019 14:15:00 10.8 C 7.31 g/m*3 9.38 C 11.3 km/h
1325 19-02-2019 14:20:00 10.7 C 7.27 g/m*3 9.52 C 9.7 km/h
Sensor: Nr:Datum:Temp:Abs-Feuchte:Windchill:Wind:
Aussen-T/F 1326 19-02-2019 14:25:00 10.7 C 7.27 g/m*3 9.81 C 8.1 km/h
1327 19-02-2019 14:30:00 10.6 C 7.22 g/m*3 9.14 C 11.3 km/h
1328 19-02-2019 14:35:00 10.6 C 7.22 g/m*3 8.92 C 12.9 km/h
1329 19-02-2019 14:40:00 10.5 C 7.27 g/m*3 9.02 C 11.3 km/h
1330 19-02-2019 14:45:00 10.5 C 7.37 g/m*3 9.02 C 11.3 km/h
1331 19-02-2019 14:50:00 10.6 C 7.32 g/m*3 9.4 C 9.7 km/h
1332 19-02-2019 14:55:00 10.6 C 7.22 g/m*3 9.69 C 8.1 km/h
1333 19-02-2019 15:00:00 10.7 C 7.27 g/m*3 10.7 C 4.8 km/h
1334 19-02-2019 15:05:00 10.7 C 7.37 g/m*3 10.7 C 0 km/h
1335 19-02-2019 15:10:00 10.8 C 7.31 g/m*3 9.38 C 11.3 km/h
1336 19-02-2019 15:15:00 10.9 C 7.36 g/m*3 10.04 C 8.1 km/h
1337 19-02-2019 15:20:00 10.9 C 7.26 g/m*3 10.9 C 4.8 km/h
1338 19-02-2019 15:25:00 10.9 C 7.16 g/m*3 9.28 C 12.9 km/h
1339 19-02-2019 15:30:00 10.9 C 7.26 g/m*3 10.04 C 8.1 km/h
1340 19-02-2019 15:35:00 11 C 7.21 g/m*3 9.63 C 11.3 km/h
1341 19-02-2019 15:40:00 11 C 7.11 g/m*3 10.16 C 8.1 km/h
1342 19-02-2019 15:45:00 11.1 C 7.15 g/m*3 11.1 C 9.7 km/h
1343 19-02-2019 15:50:00 11.2 C 7.2 g/m*3 11.2 C 11.3 km/h
1344 19-02-2019 15:55:00 11.2 C 7.1 g/m*3 11.2 C 9.7 km/h
1345 19-02-2019 16:00:00 11.3 C 7.34 g/m*3 11.3 C 8.1 km/h
1346 19-02-2019 16:05:00 11.2 C 7.4 g/m*3 11.2 C 12.9 km/h
1347 19-02-2019 16:10:00 11.1 C 7.25 g/m*3 11.1 C 8.1 km/h
1348 19-02-2019 16:15:00 10.9 C 7.06 g/m*3 10.04 C 8.1 km/h
1349 19-02-2019 16:20:00 10.9 C 7.16 g/m*3 10.41 C 6.4 km/h
1350 19-02-2019 16:25:00 10.9 C 7.16 g/m*3 10.04 C 8.1 km/h
Sensor: Nr:Datum:Temp:Abs-Feuchte:Windchill:Wind:
Aussen-T/F 1351 19-02-2019 16:30:00 10.8 C 7.02 g/m*3 9.93 C 8.1 km/h
1352 19-02-2019 16:35:00 10.8 C 7.22 g/m*3 10.8 C 4.8 km/h
1353 19-02-2019 16:40:00 10.8 C 7.22 g/m*3 10.8 C 4.8 km/h
1354 19-02-2019 16:45:00 10.7 C 7.07 g/m*3 10.18 C 6.4 km/h
1355 19-02-2019 16:50:00 10.7 C 7.07 g/m*3 10.7 C 3.2 km/h
1356 19-02-2019 16:55:00 10.7 C 7.17 g/m*3 10.7 C 4.8 km/h
1357 19-02-2019 17:00:00 10.7 C 7.07 g/m*3 9.52 C 9.7 km/h
1358 19-02-2019 17:05:00 10.4 C 6.94 g/m*3 9.46 C 8.1 km/h
1359 19-02-2019 17:10:00 10.2 C 6.95 g/m*3 10.2 C 4.8 km/h
1360 19-02-2019 17:15:00 10.1 C 6.9 g/m*3 8.8 C 9.7 km/h
1361 19-02-2019 17:20:00 10.1 C 7 g/m*3 10.1 C 3.2 km/h
1362 19-02-2019 17:25:00 9.9 C 6.91 g/m*3 9.9 C 1.6 km/h
1363 19-02-2019 17:30:00 9.8 C 6.87 g/m*3 9.8 C 1.6 km/h
1364 19-02-2019 17:35:00 9.6 C 6.87 g/m*3 9.6 C 3.2 km/h
1365 19-02-2019 17:40:00 9.3 C 6.74 g/m*3 9.3 C 0 km/h
1366 19-02-2019 17:45:00 9.1 C 6.74 g/m*3 9.1 C 0 km/h
1367 19-02-2019 17:50:00 8.7 C 6.75 g/m*3 8.7 C 3.2 km/h
1368 19-02-2019 17:55:00 8.4 C 6.7 g/m*3 8.4 C 4.8 km/h
1369 19-02-2019 18:00:00 8.1 C 6.66 g/m*3 8.1 C 4.8 km/h
1370 19-02-2019 18:05:00 7.8 C 6.61 g/m*3 7.8 C 3.2 km/h
1371 19-02-2019 18:10:00 7.6 C 6.61 g/m*3 6.16 C 8.1 km/h
1372 19-02-2019 18:15:00 7.6 C 6.61 g/m*3 7.6 C 1.6 km/h
1373 19-02-2019 18:20:00 7.5 C 6.56 g/m*3 7.5 C 4.8 km/h
1374 19-02-2019 18:25:00 7.4 C 6.6 g/m*3 6.37 C 6.4 km/h
1375 19-02-2019 18:30:00 7.2 C 6.52 g/m*3 7.2 C 4.8 km/h
Sensor: Nr:Datum:Temp:Abs-Feuchte:Windchill:Wind:
Aussen-T/F 1376 19-02-2019 18:35:00 7.1 C 6.55 g/m*3 7.1 C 4.8 km/h
1377 19-02-2019 18:40:00 6.9 C 6.47 g/m*3 6.9 C 3.2 km/h
1378 19-02-2019 18:45:00 6.8 C 6.5 g/m*3 6.8 C 3.2 km/h
1379 19-02-2019 18:50:00 6.7 C 6.46 g/m*3 6.7 C 4.8 km/h
1380 19-02-2019 18:55:00 6.7 C 6.53 g/m*3 6.7 C 4.8 km/h
1381 19-02-2019 19:00:00 6.6 C 6.49 g/m*3 6.6 C 4.8 km/h
1382 19-02-2019 19:05:00 6.6 C 6.49 g/m*3 6.6 C 4.8 km/h
1383 19-02-2019 19:10:00 6.5 C 6.45 g/m*3 6.5 C 4.8 km/h
1384 19-02-2019 19:15:00 6.4 C 6.48 g/m*3 6.4 C 4.8 km/h
1385 19-02-2019 19:20:00 6.4 C 6.48 g/m*3 6.4 C 4.8 km/h
1386 19-02-2019 19:25:00 6.3 C 6.44 g/m*3 6.3 C 4.8 km/h
1387 19-02-2019 19:30:00 6.2 C 6.4 g/m*3 6.2 C 4.8 km/h
1388 19-02-2019 19:35:00 6.1 C 6.36 g/m*3 6.1 C 4.8 km/h
1389 19-02-2019 19:40:00 6.1 C 6.43 g/m*3 6.1 C 4.8 km/h
1390 19-02-2019 19:45:00 5.9 C 6.35 g/m*3 5.9 C 0 km/h
1391 19-02-2019 19:50:00 5.9 C 6.35 g/m*3 5.9 C 3.2 km/h
1392 19-02-2019 19:55:00 5.7 C 6.26 g/m*3 5.7 C 3.2 km/h
1393 19-02-2019 20:00:00 5.7 C 6.33 g/m*3 5.7 C 4.8 km/h
1394 19-02-2019 20:05:00 5.7 C 6.33 g/m*3 5.7 C 4.8 km/h
1395 19-02-2019 20:10:00 5.7 C 6.33 g/m*3 5.7 C 4.8 km/h
1396 19-02-2019 20:15:00 5.6 C 6.29 g/m*3 5.6 C 4.8 km/h
1397 19-02-2019 20:20:00 5.6 C 6.29 g/m*3 5.6 C 3.2 km/h
1398 19-02-2019 20:25:00 5.4 C 6.21 g/m*3 5.4 C 1.6 km/h
1399 19-02-2019 20:30:00 5.4 C 6.21 g/m*3 5.4 C 4.8 km/h
1400 19-02-2019 20:35:00 5.4 C 6.28 g/m*3 5.4 C 3.2 km/h
Sensor: Nr:Datum:Temp:Abs-Feuchte:Windchill:Wind:
Aussen-T/F 1401 19-02-2019 20:40:00 5.3 C 6.17 g/m*3 5.3 C 0 km/h
1402 19-02-2019 20:45:00 5.2 C 6.13 g/m*3 5.2 C 1.6 km/h
1403 19-02-2019 20:50:00 5.1 C 6.16 g/m*3 5.1 C 3.2 km/h
1404 19-02-2019 20:55:00 5.2 C 6.2 g/m*3 5.2 C 3.2 km/h
1405 19-02-2019 21:00:00 5.3 C 6.24 g/m*3 5.3 C 3.2 km/h
1406 19-02-2019 21:05:00 5.3 C 6.24 g/m*3 5.3 C 1.6 km/h
1407 19-02-2019 21:10:00 5.3 C 6.24 g/m*3 5.3 C 0 km/h
1408 19-02-2019 21:15:00 5.2 C 6.13 g/m*3 5.2 C 0 km/h
1409 19-02-2019 21:20:00 5.1 C 6.09 g/m*3 5.1 C 0 km/h
1410 19-02-2019 21:25:00 5 C 6.12 g/m*3 5 C 0 km/h
1411 19-02-2019 21:30:00 4.9 C 6.08 g/m*3 4.9 C 0 km/h
1412 19-02-2019 21:35:00 4.8 C 6.04 g/m*3 4.8 C 1.6 km/h
1413 19-02-2019 21:40:00 4.6 C 5.89 g/m*3 4.6 C 0 km/h
1414 19-02-2019 21:45:00 4.4 C 5.81 g/m*3 4.4 C 0 km/h
1415 19-02-2019 21:50:00 4.2 C 5.8 g/m*3 4.2 C 0 km/h
1416 19-02-2019 21:55:00 4.1 C 5.76 g/m*3 4.1 C 0 km/h
1417 19-02-2019 22:00:00 3.9 C 5.68 g/m*3 3.9 C 1.6 km/h
1418 19-02-2019 22:05:00 3.8 C 5.65 g/m*3 3.8 C 0 km/h
1419 19-02-2019 22:10:00 3.6 C 5.57 g/m*3 3.6 C 0 km/h
1420 19-02-2019 22:15:00 3.5 C 5.6 g/m*3 3.5 C 1.6 km/h
1421 19-02-2019 22:20:00 3.4 C 5.56 g/m*3 3.4 C 0 km/h
1422 19-02-2019 22:25:00 3.3 C 5.52 g/m*3 3.3 C 0 km/h
1423 19-02-2019 22:30:00 3.3 C 5.58 g/m*3 3.3 C 0 km/h
1424 19-02-2019 22:35:00 3.3 C 5.58 g/m*3 3.3 C 0 km/h
1425 19-02-2019 22:40:00 3.4 C 5.68 g/m*3 3.4 C 3.2 km/h
Sensor: Nr:Datum:Temp:Abs-Feuchte:Windchill:Wind:
Aussen-T/F 1426 19-02-2019 22:45:00 3.4 C 5.62 g/m*3 3.4 C 0 km/h
1427 19-02-2019 22:50:00 3.4 C 5.62 g/m*3 3.4 C 0 km/h
1428 19-02-2019 22:55:00 3.3 C 5.58 g/m*3 3.3 C 1.6 km/h
1429 19-02-2019 23:00:00 3.3 C 5.58 g/m*3 3.3 C 0 km/h
1430 19-02-2019 23:05:00 3.2 C 5.54 g/m*3 3.2 C 0 km/h
1431 19-02-2019 23:10:00 3.2 C 5.54 g/m*3 3.2 C 0 km/h
1432 19-02-2019 23:15:00 3.1 C 5.57 g/m*3 3.1 C 0 km/h
1433 19-02-2019 23:20:00 3.1 C 5.57 g/m*3 3.1 C 1.6 km/h
1434 19-02-2019 23:25:00 3.1 C 5.57 g/m*3 3.1 C 1.6 km/h
1435 19-02-2019 23:30:00 3.1 C 5.57 g/m*3 3.1 C 0 km/h
1436 19-02-2019 23:35:00 3 C 5.53 g/m*3 3 C 1.6 km/h
1437 19-02-2019 23:40:00 2.9 C 5.49 g/m*3 2.9 C 0 km/h
1438 19-02-2019 23:45:00 2.9 C 5.49 g/m*3 2.9 C 1.6 km/h
1439 19-02-2019 23:50:00 2.9 C 5.49 g/m*3 2.9 C 1.6 km/h
1440 19-02-2019 23:55:00 2.8 C 5.46 g/m*3 2.8 C 0 km/h
1441 20-02-2019 00:00:00 2.8 C 5.46 g/m*3 2.8 C 0 km/h
1442 20-02-2019 00:05:00 2.8 C 5.46 g/m*3 2.8 C 0 km/h
1443 20-02-2019 00:10:00 2.8 C 5.46 g/m*3 2.8 C 1.6 km/h
1444 20-02-2019 00:15:00 2.8 C 5.46 g/m*3 2.8 C 0 km/h
1445 20-02-2019 00:20:00 2.8 C 5.51 g/m*3 2.8 C 1.6 km/h
1446 20-02-2019 00:25:00 2.8 C 5.51 g/m*3 2.8 C 1.6 km/h
1447 20-02-2019 00:30:00 2.7 C 5.42 g/m*3 2.7 C 3.2 km/h
1448 20-02-2019 00:35:00 2.5 C 5.35 g/m*3 2.5 C 0 km/h
1449 20-02-2019 00:40:00 2.3 C 5.27 g/m*3 2.3 C 1.6 km/h
1450 20-02-2019 00:45:00 2.3 C 5.27 g/m*3 2.3 C 0 km/h
Sensor: Nr:Datum:Temp:Abs-Feuchte:Windchill:Wind:
Aussen-T/F 1451 20-02-2019 00:50:00 2.3 C 5.33 g/m*3 2.3 C 0 km/h
1452 20-02-2019 00:55:00 2.3 C 5.27 g/m*3 2.3 C 0 km/h
1453 20-02-2019 01:00:00 2.2 C 5.24 g/m*3 2.2 C 0 km/h
1454 20-02-2019 01:05:00 2.2 C 5.24 g/m*3 2.2 C 0 km/h
1455 20-02-2019 01:10:00 2.1 C 5.2 g/m*3 2.1 C 0 km/h
1456 20-02-2019 01:15:00 2 C 5.17 g/m*3 2 C 0 km/h
1457 20-02-2019 01:20:00 1.9 C 5.13 g/m*3 1.9 C 0 km/h
1458 20-02-2019 01:25:00 1.8 C 5.15 g/m*3 1.8 C 0 km/h
1459 20-02-2019 01:30:00 1.7 C 5.06 g/m*3 1.7 C 0 km/h
1460 20-02-2019 01:35:00 1.6 C 5.03 g/m*3 1.6 C 0 km/h
1461 20-02-2019 01:40:00 1.5 C 4.99 g/m*3 1.5 C 0 km/h
1462 20-02-2019 01:45:00 1.5 C 5.05 g/m*3 1.5 C 0 km/h
1463 20-02-2019 01:50:00 1.5 C 5.05 g/m*3 1.5 C 0 km/h
1464 20-02-2019 01:55:00 1.4 C 5.01 g/m*3 1.4 C 0 km/h
1465 20-02-2019 02:00:00 1.4 C 5.01 g/m*3 1.4 C 0 km/h
1466 20-02-2019 02:05:00 1.3 C 4.98 g/m*3 1.3 C 0 km/h
1467 20-02-2019 02:10:00 1.3 C 4.98 g/m*3 1.3 C 0 km/h
1468 20-02-2019 02:15:00 1.2 C 4.95 g/m*3 1.2 C 0 km/h
1469 20-02-2019 02:20:00 1.1 C 4.91 g/m*3 1.1 C 0 km/h
1470 20-02-2019 02:25:00 1 C 4.88 g/m*3 1 C 0 km/h
1471 20-02-2019 02:30:00 1.1 C 4.91 g/m*3 1.1 C 0 km/h
1472 20-02-2019 02:35:00 1.1 C 4.91 g/m*3 1.1 C 0 km/h
1473 20-02-2019 02:40:00 1.2 C 5 g/m*3 1.2 C 1.6 km/h
1474 20-02-2019 02:45:00 1.3 C 5.03 g/m*3 1.3 C 0 km/h
1475 20-02-2019 02:50:00 1.2 C 5 g/m*3 1.2 C 0 km/h
Sensor: Nr:Datum:Temp:Abs-Feuchte:Windchill:Wind:
Aussen-T/F 1476 20-02-2019 02:55:00 1.1 C 4.91 g/m*3 1.1 C 0 km/h
1477 20-02-2019 03:00:00 1.1 C 4.91 g/m*3 1.1 C 3.2 km/h
1478 20-02-2019 03:05:00 1 C 4.93 g/m*3 1 C 0 km/h
1479 20-02-2019 03:10:00 1 C 4.93 g/m*3 1 C 1.6 km/h
1480 20-02-2019 03:15:00 1 C 4.93 g/m*3 1 C 1.6 km/h
1481 20-02-2019 03:20:00 1.1 C 4.96 g/m*3 1.1 C 0 km/h
1482 20-02-2019 03:25:00 1.2 C 5 g/m*3 1.2 C 0 km/h
1483 20-02-2019 03:30:00 1.1 C 4.96 g/m*3 1.1 C 1.6 km/h
1484 20-02-2019 03:35:00 1.1 C 4.96 g/m*3 1.1 C 0 km/h
1485 20-02-2019 03:40:00 1.1 C 4.96 g/m*3 1.1 C 1.6 km/h
1486 20-02-2019 03:45:00 1.1 C 4.96 g/m*3 1.1 C 1.6 km/h
1487 20-02-2019 03:50:00 1.2 C 5 g/m*3 1.2 C 1.6 km/h
1488 20-02-2019 03:55:00 1.2 C 5 g/m*3 1.2 C 1.6 km/h
1489 20-02-2019 04:00:00 1.2 C 5 g/m*3 1.2 C 0 km/h
1490 20-02-2019 04:05:00 1.1 C 4.96 g/m*3 1.1 C 1.6 km/h
1491 20-02-2019 04:10:00 1.1 C 4.96 g/m*3 1.1 C 3.2 km/h
1492 20-02-2019 04:15:00 1 C 4.93 g/m*3 1 C 0 km/h
1493 20-02-2019 04:20:00 0.8 C 4.86 g/m*3 0.8 C 0 km/h
1494 20-02-2019 04:25:00 0.7 C 4.83 g/m*3 0.7 C 0 km/h
1495 20-02-2019 04:30:00 0.7 C 4.83 g/m*3 0.7 C 0 km/h
1496 20-02-2019 04:35:00 0.7 C 4.83 g/m*3 0.7 C 0 km/h
1497 20-02-2019 04:40:00 0.8 C 4.86 g/m*3 0.8 C 0 km/h
1498 20-02-2019 04:45:00 0.8 C 4.86 g/m*3 0.8 C 0 km/h
1499 20-02-2019 04:50:00 0.8 C 4.86 g/m*3 0.8 C 0 km/h
1500 20-02-2019 04:55:00 0.8 C 4.86 g/m*3 0.8 C 3.2 km/h
Sensor: Nr:Datum:Temp:Abs-Feuchte:Windchill:Wind:
Aussen-T/F 1501 20-02-2019 05:00:00 1 C 4.98 g/m*3 1 C 1.6 km/h
1502 20-02-2019 05:05:00 1.1 C 5.02 g/m*3 1.1 C 0 km/h
1503 20-02-2019 05:10:00 1.1 C 5.02 g/m*3 1.1 C 0 km/h
1504 20-02-2019 05:15:00 1.1 C 4.96 g/m*3 1.1 C 0 km/h
1505 20-02-2019 05:20:00 1.1 C 4.96 g/m*3 1.1 C 0 km/h
1506 20-02-2019 05:25:00 1 C 4.93 g/m*3 1 C 0 km/h
1507 20-02-2019 05:30:00 0.9 C 4.9 g/m*3 0.9 C 0 km/h
1508 20-02-2019 05:35:00 0.9 C 4.9 g/m*3 0.9 C 0 km/h
1509 20-02-2019 05:40:00 0.9 C 4.9 g/m*3 0.9 C 1.6 km/h
1510 20-02-2019 05:45:00 0.9 C 4.95 g/m*3 -1.14 C 6.4 km/h
1511 20-02-2019 05:50:00 1 C 4.98 g/m*3 1 C 3.2 km/h
1512 20-02-2019 05:55:00 1 C 4.98 g/m*3 1 C 0 km/h
1513 20-02-2019 06:00:00 0.9 C 4.95 g/m*3 0.9 C 3.2 km/h
1514 20-02-2019 06:05:00 1 C 4.98 g/m*3 1 C 0 km/h
1515 20-02-2019 06:10:00 1.1 C 5.02 g/m*3 1.1 C 0 km/h
1516 20-02-2019 06:15:00 1 C 4.98 g/m*3 1 C 0 km/h
1517 20-02-2019 06:20:00 0.9 C 4.95 g/m*3 0.9 C 0 km/h
1518 20-02-2019 06:25:00 0.9 C 4.95 g/m*3 0.9 C 0 km/h
1519 20-02-2019 06:30:00 0.9 C 4.95 g/m*3 0.9 C 0 km/h
1520 20-02-2019 06:35:00 0.9 C 4.9 g/m*3 0.9 C 0 km/h
1521 20-02-2019 06:40:00 0.8 C 4.86 g/m*3 0.8 C 0 km/h
1522 20-02-2019 06:45:00 0.7 C 4.83 g/m*3 0.7 C 0 km/h
1523 20-02-2019 06:50:00 0.6 C 4.8 g/m*3 0.6 C 1.6 km/h
1524 20-02-2019 06:55:00 0.7 C 4.88 g/m*3 0.7 C 0 km/h
1525 20-02-2019 07:00:00 0.8 C 4.91 g/m*3 0.8 C 0 km/h
Sensor: Nr:Datum:Temp:Abs-Feuchte:Windchill:Wind:
Aussen-T/F 1526 20-02-2019 07:05:00 0.8 C 4.91 g/m*3 0.8 C 0 km/h
1527 20-02-2019 07:10:00 0.8 C 4.91 g/m*3 0.8 C 4.8 km/h
1528 20-02-2019 07:15:00 0.9 C 4.95 g/m*3 0.9 C 0 km/h
1529 20-02-2019 07:20:00 0.8 C 4.91 g/m*3 0.8 C 0 km/h
1530 20-02-2019 07:25:00 0.7 C 4.88 g/m*3 -1.37 C 6.4 km/h
1531 20-02-2019 07:30:00 0.8 C 4.91 g/m*3 0.8 C 3.2 km/h
1532 20-02-2019 07:35:00 0.7 C 4.88 g/m*3 0.7 C 0 km/h
1533 20-02-2019 07:40:00 0.7 C 4.88 g/m*3 0.7 C 0 km/h
1534 20-02-2019 07:45:00 0.6 C 4.85 g/m*3 0.6 C 0 km/h
1535 20-02-2019 07:50:00 0.6 C 4.85 g/m*3 0.6 C 0 km/h
1536 20-02-2019 07:55:00 0.6 C 4.85 g/m*3 0.6 C 0 km/h
1537 20-02-2019 08:00:00 0.6 C 4.85 g/m*3 0.6 C 0 km/h
1538 20-02-2019 08:05:00 0.7 C 4.88 g/m*3 0.7 C 0 km/h
1539 20-02-2019 08:10:00 0.8 C 4.91 g/m*3 0.8 C 1.6 km/h
1540 20-02-2019 08:15:00 0.9 C 4.95 g/m*3 0.9 C 3.2 km/h
1541 20-02-2019 08:20:00 1.1 C 5.02 g/m*3 1.1 C 0 km/h
1542 20-02-2019 08:25:00 1.2 C 5.05 g/m*3 1.2 C 0 km/h
1543 20-02-2019 08:30:00 1.3 C 5.09 g/m*3 1.3 C 0 km/h
1544 20-02-2019 08:35:00 1.4 C 5.12 g/m*3 1.4 C 0 km/h
1545 20-02-2019 08:40:00 1.6 C 5.25 g/m*3 1.6 C 3.2 km/h
1546 20-02-2019 08:45:00 1.8 C 5.32 g/m*3 1.8 C 4.8 km/h
1547 20-02-2019 08:50:00 2 C 5.39 g/m*3 -0.42 C 8.1 km/h
1548 20-02-2019 08:55:00 2.3 C 5.5 g/m*3 -0.07 C 8.1 km/h
1549 20-02-2019 09:00:00 2.5 C 5.58 g/m*3 -0.62 C 11.3 km/h
1550 20-02-2019 09:05:00 2.7 C 5.65 g/m*3 -1 C 14.5 km/h
Sensor: Nr:Datum:Temp:Abs-Feuchte:Windchill:Wind:
Aussen-T/F 1551 20-02-2019 09:10:00 2.8 C 5.69 g/m*3 -0.59 C 12.9 km/h
1552 20-02-2019 09:15:00 2.8 C 5.69 g/m*3 -0.26 C 11.3 km/h
1553 20-02-2019 09:20:00 2.9 C 5.73 g/m*3 -0.46 C 12.9 km/h
1554 20-02-2019 09:25:00 3 C 5.77 g/m*3 -0.34 C 12.9 km/h
1555 20-02-2019 09:30:00 3.1 C 5.81 g/m*3 0.1 C 11.3 km/h
1556 20-02-2019 09:35:00 3.3 C 5.88 g/m*3 0.34 C 11.3 km/h
1557 20-02-2019 09:40:00 3.3 C 5.82 g/m*3 0.7 C 9.7 km/h
1558 20-02-2019 09:45:00 3.4 C 5.86 g/m*3 1.23 C 8.1 km/h
1559 20-02-2019 09:50:00 3.6 C 5.94 g/m*3 0.7 C 11.3 km/h
1560 20-02-2019 09:55:00 3.7 C 5.98 g/m*3 1.18 C 9.7 km/h
1561 20-02-2019 10:00:00 3.8 C 6.02 g/m*3 0.63 C 12.9 km/h
1562 20-02-2019 10:05:00 3.8 C 6.02 g/m*3 0.94 C 11.3 km/h
1563 20-02-2019 10:10:00 3.9 C 6.06 g/m*3 1.41 C 9.7 km/h
1564 20-02-2019 10:15:00 4.1 C 6.14 g/m*3 1 C 12.9 km/h
1565 20-02-2019 10:20:00 4.2 C 6.19 g/m*3 1.77 C 9.7 km/h
1566 20-02-2019 10:25:00 4.3 C 6.23 g/m*3 1.55 C 11.3 km/h
1567 20-02-2019 10:30:00 4.4 C 6.27 g/m*3 1.67 C 11.3 km/h
1568 20-02-2019 10:35:00 4.6 C 6.35 g/m*3 2.25 C 9.7 km/h
1569 20-02-2019 10:40:00 4.7 C 6.33 g/m*3 2.37 C 9.7 km/h
1570 20-02-2019 10:45:00 4.9 C 6.41 g/m*3 1.7 C 14.5 km/h
1571 20-02-2019 10:50:00 5 C 6.46 g/m*3 2.72 C 9.7 km/h
1572 20-02-2019 10:55:00 5.2 C 6.54 g/m*3 2.63 C 11.3 km/h
1573 20-02-2019 11:00:00 5.4 C 6.63 g/m*3 3.2 C 9.7 km/h
1574 20-02-2019 11:05:00 5.7 C 6.69 g/m*3 3.56 C 9.7 km/h
1575 20-02-2019 11:10:00 5.8 C 6.73 g/m*3 3.36 C 11.3 km/h
Sensor: Nr:Datum:Temp:Abs-Feuchte:Windchill:Wind:
Aussen-T/F 1576 20-02-2019 11:15:00 5.9 C 6.71 g/m*3 3.48 C 11.3 km/h
1577 20-02-2019 11:20:00 6 C 6.68 g/m*3 3.31 C 12.9 km/h
1578 20-02-2019 11:25:00 6.1 C 6.72 g/m*3 4.04 C 9.7 km/h
1579 20-02-2019 11:30:00 6.2 C 6.77 g/m*3 4.98 C 6.4 km/h
1580 20-02-2019 11:35:00 6.3 C 6.74 g/m*3 4.27 C 9.7 km/h
1581 20-02-2019 11:40:00 6.3 C 6.74 g/m*3 3.68 C 12.9 km/h
1582 20-02-2019 11:45:00 6.3 C 6.74 g/m*3 3.96 C 11.3 km/h
1583 20-02-2019 11:50:00 6.4 C 6.78 g/m*3 4.75 C 8.1 km/h
1584 20-02-2019 11:55:00 6.5 C 6.75 g/m*3 4.51 C 9.7 km/h
1585 20-02-2019 12:00:00 6.6 C 6.79 g/m*3 4.63 C 9.7 km/h
1586 20-02-2019 12:05:00 6.7 C 6.84 g/m*3 5.56 C 6.4 km/h
1587 20-02-2019 12:10:00 6.7 C 6.84 g/m*3 5.56 C 6.4 km/h
1588 20-02-2019 12:15:00 6.9 C 6.93 g/m*3 5.79 C 6.4 km/h
1589 20-02-2019 12:20:00 7.1 C 7.02 g/m*3 7.1 C 4.8 km/h
1590 20-02-2019 12:25:00 7.3 C 7.03 g/m*3 6.25 C 6.4 km/h
1591 20-02-2019 12:30:00 7.6 C 7.17 g/m*3 6.6 C 6.4 km/h
1592 20-02-2019 12:35:00 7.7 C 7.05 g/m*3 6.71 C 6.4 km/h
1593 20-02-2019 12:40:00 8 C 7.19 g/m*3 6.3 C 9.7 km/h
1594 20-02-2019 12:45:00 8.2 C 7.2 g/m*3 8.2 C 4.8 km/h
1595 20-02-2019 12:50:00 8.4 C 7.21 g/m*3 6.78 C 9.7 km/h
1596 20-02-2019 12:55:00 8.7 C 7.18 g/m*3 6.85 C 11.3 km/h
1597 20-02-2019 13:00:00 8.9 C 7.18 g/m*3 7.37 C 9.7 km/h
1598 20-02-2019 13:05:00 9.1 C 7.28 g/m*3 7.09 C 12.9 km/h
1599 20-02-2019 13:10:00 9.3 C 7.28 g/m*3 7.33 C 12.9 km/h
1600 20-02-2019 13:15:00 9.5 C 7.28 g/m*3 8.09 C 9.7 km/h
Sensor: Nr:Datum:Temp:Abs-Feuchte:Windchill:Wind:
Aussen-T/F 1601 20-02-2019 13:20:00 9.8 C 7.33 g/m*3 7.94 C 12.9 km/h
1602 20-02-2019 13:25:00 9.9 C 7.28 g/m*3 8.3 C 11.3 km/h
1603 20-02-2019 13:30:00 10.1 C 7.28 g/m*3 8.8 C 9.7 km/h
1604 20-02-2019 13:35:00 10.2 C 7.33 g/m*3 8.43 C 12.9 km/h
1605 20-02-2019 13:40:00 10.2 C 7.23 g/m*3 8.66 C 11.3 km/h
1606 20-02-2019 13:45:00 10.3 C 7.28 g/m*3 8.55 C 12.9 km/h
1607 20-02-2019 13:50:00 10.4 C 7.32 g/m*3 9.16 C 9.7 km/h
1608 20-02-2019 13:55:00 10.7 C 7.37 g/m*3 8.84 C 14.5 km/h
1609 20-02-2019 14:00:00 10.9 C 7.46 g/m*3 9.28 C 12.9 km/h
1610 20-02-2019 14:05:00 10.9 C 7.36 g/m*3 9.28 C 12.9 km/h
1611 20-02-2019 14:10:00 10.9 C 7.36 g/m*3 9.28 C 12.9 km/h
1612 20-02-2019 14:15:00 10.8 C 7.31 g/m*3 9.93 C 8.1 km/h
1613 20-02-2019 14:20:00 10.8 C 7.41 g/m*3 10.29 C 6.4 km/h
1614 20-02-2019 14:25:00 10.8 C 7.41 g/m*3 10.8 C 4.8 km/h
1615 20-02-2019 14:30:00 10.8 C 7.41 g/m*3 10.8 C 4.8 km/h
1616 20-02-2019 14:35:00 10.8 C 7.31 g/m*3 10.29 C 6.4 km/h
1617 20-02-2019 14:40:00 10.9 C 7.36 g/m*3 10.04 C 8.1 km/h
1618 20-02-2019 14:45:00 10.9 C 7.36 g/m*3 9.76 C 9.7 km/h
1619 20-02-2019 14:50:00 10.9 C 7.36 g/m*3 10.9 C 4.8 km/h
1620 20-02-2019 14:55:00 10.9 C 7.36 g/m*3 10.04 C 8.1 km/h
1621 20-02-2019 15:00:00 11 C 7.41 g/m*3 9.4 C 12.9 km/h
1622 20-02-2019 15:05:00 11 C 7.41 g/m*3 10.52 C 6.4 km/h
1623 20-02-2019 15:10:00 11.1 C 7.35 g/m*3 11.1 C 3.2 km/h
1624 20-02-2019 15:15:00 11.1 C 7.35 g/m*3 11.1 C 8.1 km/h
1625 20-02-2019 15:20:00 11.1 C 7.35 g/m*3 11.1 C 9.7 km/h
Sensor: Nr:Datum:Temp:Abs-Feuchte:Windchill:Wind:
Aussen-T/F 1626 20-02-2019 15:25:00 11.1 C 7.35 g/m*3 11.1 C 4.8 km/h
1627 20-02-2019 15:30:00 11 C 7.31 g/m*3 11 C 4.8 km/h
1628 20-02-2019 15:35:00 11.1 C 7.35 g/m*3 11.1 C 6.4 km/h
1629 20-02-2019 15:40:00 11.1 C 7.35 g/m*3 11.1 C 3.2 km/h
1630 20-02-2019 15:45:00 11.1 C 7.35 g/m*3 11.1 C 4.8 km/h
1631 20-02-2019 15:50:00 11.1 C 7.25 g/m*3 11.1 C 4.8 km/h
1632 20-02-2019 15:55:00 11.2 C 7.3 g/m*3 11.2 C 4.8 km/h
1633 20-02-2019 16:00:00 11.3 C 7.24 g/m*3 11.3 C 9.7 km/h
1634 20-02-2019 16:05:00 11.3 C 7.45 g/m*3 11.3 C 6.4 km/h
1635 20-02-2019 16:10:00 11.3 C 7.34 g/m*3 11.3 C 6.4 km/h
1636 20-02-2019 16:15:00 11.3 C 7.34 g/m*3 11.3 C 8.1 km/h
1637 20-02-2019 16:20:00 11.3 C 7.24 g/m*3 11.3 C 8.1 km/h
1638 20-02-2019 16:25:00 11.3 C 7.34 g/m*3 11.3 C 8.1 km/h
1639 20-02-2019 16:30:00 11.2 C 7.2 g/m*3 11.2 C 12.9 km/h
1640 20-02-2019 16:35:00 11.3 C 7.24 g/m*3 11.3 C 6.4 km/h
1641 20-02-2019 16:40:00 11.3 C 7.24 g/m*3 11.3 C 4.8 km/h
1642 20-02-2019 16:45:00 11.5 C 7.33 g/m*3 11.5 C 1.6 km/h
1643 20-02-2019 16:50:00 11.7 C 7.43 g/m*3 11.7 C 3.2 km/h
1644 20-02-2019 16:55:00 11.7 C 7.22 g/m*3 11.7 C 6.4 km/h
1645 20-02-2019 17:00:00 11.7 C 7.22 g/m*3 11.7 C 9.7 km/h
1646 20-02-2019 17:05:00 11.5 C 7.33 g/m*3 11.5 C 4.8 km/h
1647 20-02-2019 17:10:00 11.3 C 7.24 g/m*3 11.3 C 3.2 km/h
1648 20-02-2019 17:15:00 11.1 C 7.25 g/m*3 11.1 C 1.6 km/h
1649 20-02-2019 17:20:00 10.9 C 7.26 g/m*3 10.9 C 3.2 km/h
1650 20-02-2019 17:25:00 10.7 C 7.27 g/m*3 10.7 C 3.2 km/h
Sensor: Nr:Datum:Temp:Abs-Feuchte:Windchill:Wind:
Aussen-T/F 1651 20-02-2019 17:30:00 10.4 C 7.13 g/m*3 10.4 C 4.8 km/h
1652 20-02-2019 17:35:00 10.1 C 7.09 g/m*3 10.1 C 1.6 km/h
1653 20-02-2019 17:40:00 9.7 C 7.01 g/m*3 9.7 C 3.2 km/h
1654 20-02-2019 17:45:00 9.3 C 6.92 g/m*3 9.3 C 4.8 km/h
1655 20-02-2019 17:50:00 8.9 C 6.83 g/m*3 8.9 C 3.2 km/h
1656 20-02-2019 17:55:00 8.6 C 6.79 g/m*3 8.6 C 3.2 km/h
1657 20-02-2019 18:00:00 8.3 C 6.74 g/m*3 8.3 C 3.2 km/h
1658 20-02-2019 18:05:00 8 C 6.7 g/m*3 8 C 4.8 km/h
1659 20-02-2019 18:10:00 7.7 C 6.65 g/m*3 7.7 C 4.8 km/h
1660 20-02-2019 18:15:00 7.6 C 6.69 g/m*3 7.6 C 4.8 km/h
1661 20-02-2019 18:20:00 7.4 C 6.68 g/m*3 7.4 C 4.8 km/h
1662 20-02-2019 18:25:00 7.2 C 6.59 g/m*3 7.2 C 4.8 km/h
1663 20-02-2019 18:30:00 7.1 C 6.63 g/m*3 7.1 C 3.2 km/h
1664 20-02-2019 18:35:00 7 C 6.59 g/m*3 7 C 4.8 km/h
1665 20-02-2019 18:40:00 6.9 C 6.54 g/m*3 6.9 C 3.2 km/h
1666 20-02-2019 18:45:00 6.8 C 6.58 g/m*3 6.8 C 3.2 km/h
1667 20-02-2019 18:50:00 6.8 C 6.58 g/m*3 6.8 C 3.2 km/h
1668 20-02-2019 18:55:00 6.7 C 6.53 g/m*3 6.7 C 1.6 km/h
1669 20-02-2019 19:00:00 6.6 C 6.49 g/m*3 6.6 C 1.6 km/h
1670 20-02-2019 19:05:00 6.5 C 6.45 g/m*3 6.5 C 3.2 km/h
1671 20-02-2019 19:10:00 6.4 C 6.48 g/m*3 6.4 C 3.2 km/h
1672 20-02-2019 19:15:00 6.3 C 6.44 g/m*3 6.3 C 3.2 km/h
1673 20-02-2019 19:20:00 6.3 C 6.44 g/m*3 6.3 C 0 km/h
1674 20-02-2019 19:25:00 6.2 C 6.47 g/m*3 6.2 C 3.2 km/h
1675 20-02-2019 19:30:00 6.1 C 6.43 g/m*3 6.1 C 4.8 km/h
Sensor: Nr:Datum:Temp:Abs-Feuchte:Windchill:Wind:
Aussen-T/F 1676 20-02-2019 19:35:00 6.1 C 6.43 g/m*3 6.1 C 1.6 km/h
1677 20-02-2019 19:40:00 5.9 C 6.35 g/m*3 5.9 C 3.2 km/h
1678 20-02-2019 19:45:00 5.9 C 6.42 g/m*3 5.9 C 1.6 km/h
1679 20-02-2019 19:50:00 5.9 C 6.42 g/m*3 5.9 C 3.2 km/h
1680 20-02-2019 19:55:00 5.8 C 6.38 g/m*3 5.8 C 1.6 km/h
1681 20-02-2019 20:00:00 5.6 C 6.22 g/m*3 5.6 C 0 km/h
1682 20-02-2019 20:05:00 5.4 C 6.14 g/m*3 5.4 C 0 km/h
1683 20-02-2019 20:10:00 5.2 C 6.13 g/m*3 5.2 C 1.6 km/h
1684 20-02-2019 20:15:00 5.2 C 6.13 g/m*3 5.2 C 0 km/h
1685 20-02-2019 20:20:00 5.1 C 6.16 g/m*3 5.1 C 0 km/h
1686 20-02-2019 20:25:00 4.9 C 6.08 g/m*3 4.9 C 0 km/h
1687 20-02-2019 20:30:00 4.8 C 6.04 g/m*3 4.8 C 0 km/h
1688 20-02-2019 20:35:00 4.6 C 5.96 g/m*3 4.6 C 1.6 km/h
1689 20-02-2019 20:40:00 4.4 C 5.88 g/m*3 4.4 C 0 km/h
1690 20-02-2019 20:45:00 4.4 C 5.94 g/m*3 4.4 C 0 km/h
1691 20-02-2019 20:50:00 4.4 C 5.94 g/m*3 4.4 C 0 km/h
1692 20-02-2019 20:55:00 4.4 C 5.94 g/m*3 4.4 C 0 km/h
1693 20-02-2019 21:00:00 4.4 C 6.01 g/m*3 4.4 C 0 km/h
1694 20-02-2019 21:05:00 4.3 C 5.9 g/m*3 4.3 C 0 km/h
1695 20-02-2019 21:10:00 4.2 C 5.86 g/m*3 4.2 C 0 km/h
1696 20-02-2019 21:15:00 4.1 C 5.82 g/m*3 4.1 C 0 km/h
1697 20-02-2019 21:20:00 3.8 C 5.65 g/m*3 3.8 C 0 km/h
1698 20-02-2019 21:25:00 3.7 C 5.67 g/m*3 3.7 C 0 km/h
1699 20-02-2019 21:30:00 3.6 C 5.69 g/m*3 3.6 C 0 km/h
1700 20-02-2019 21:35:00 3.6 C 5.69 g/m*3 3.6 C 0 km/h
Sensor: Nr:Datum:Temp:Abs-Feuchte:Windchill:Wind:
Aussen-T/F 1701 20-02-2019 21:40:00 3.6 C 5.69 g/m*3 3.6 C 0 km/h
1702 20-02-2019 21:45:00 3.4 C 5.62 g/m*3 3.4 C 0 km/h
1703 20-02-2019 21:50:00 3.4 C 5.62 g/m*3 3.4 C 0 km/h
1704 20-02-2019 21:55:00 3.2 C 5.54 g/m*3 3.2 C 0 km/h
1705 20-02-2019 22:00:00 3.2 C 5.54 g/m*3 3.2 C 0 km/h
1706 20-02-2019 22:05:00 3.1 C 5.51 g/m*3 3.1 C 0 km/h
1707 20-02-2019 22:10:00 2.9 C 5.43 g/m*3 2.9 C 0 km/h
1708 20-02-2019 22:15:00 2.8 C 5.4 g/m*3 2.8 C 0 km/h
1709 20-02-2019 22:20:00 2.7 C 5.36 g/m*3 2.7 C 0 km/h
1710 20-02-2019 22:25:00 2.6 C 5.38 g/m*3 2.6 C 0 km/h
1711 20-02-2019 22:30:00 2.5 C 5.35 g/m*3 2.5 C 0 km/h
1712 20-02-2019 22:35:00 2.6 C 5.38 g/m*3 2.6 C 0 km/h
1713 20-02-2019 22:40:00 2.6 C 5.44 g/m*3 2.6 C 0 km/h
1714 20-02-2019 22:45:00 2.6 C 5.44 g/m*3 2.6 C 0 km/h
1715 20-02-2019 22:50:00 2.5 C 5.4 g/m*3 2.5 C 0 km/h
1716 20-02-2019 22:55:00 2.3 C 5.27 g/m*3 2.3 C 0 km/h
1717 20-02-2019 23:00:00 2.2 C 5.29 g/m*3 2.2 C 0 km/h
1718 20-02-2019 23:05:00 2.3 C 5.33 g/m*3 2.3 C 0 km/h
1719 20-02-2019 23:10:00 2.4 C 5.37 g/m*3 2.4 C 1.6 km/h
1720 20-02-2019 23:15:00 2.3 C 5.33 g/m*3 2.3 C 0 km/h
1721 20-02-2019 23:20:00 2.2 C 5.29 g/m*3 2.2 C 0 km/h
1722 20-02-2019 23:25:00 1.9 C 5.19 g/m*3 1.9 C 0 km/h
1723 20-02-2019 23:30:00 1.8 C 5.15 g/m*3 1.8 C 0 km/h
1724 20-02-2019 23:35:00 1.9 C 5.19 g/m*3 1.9 C 0 km/h
1725 20-02-2019 23:40:00 1.9 C 5.19 g/m*3 1.9 C 0 km/h
Sensor: Nr:Datum:Temp:Abs-Feuchte:Windchill:Wind:
Aussen-T/F 1726 20-02-2019 23:45:00 2 C 5.28 g/m*3 2 C 0 km/h
1727 20-02-2019 23:50:00 2.2 C 5.35 g/m*3 2.2 C 0 km/h
1728 20-02-2019 23:55:00 2.2 C 5.35 g/m*3 2.2 C 0 km/h
1729 21-02-2019 00:00:00 2.1 C 5.26 g/m*3 2.1 C 0 km/h
1730 21-02-2019 00:05:00 1.9 C 5.24 g/m*3 1.9 C 0 km/h
1731 21-02-2019 00:10:00 1.8 C 5.15 g/m*3 1.8 C 0 km/h
1732 21-02-2019 00:15:00 1.7 C 5.12 g/m*3 1.7 C 0 km/h
1733 21-02-2019 00:20:00 1.6 C 5.08 g/m*3 1.6 C 0 km/h
1734 21-02-2019 00:25:00 1.5 C 5.05 g/m*3 1.5 C 0 km/h
1735 21-02-2019 00:30:00 1.4 C 5.01 g/m*3 1.4 C 0 km/h
1736 21-02-2019 00:35:00 1.4 C 5.07 g/m*3 1.4 C 0 km/h
1737 21-02-2019 00:40:00 1.4 C 5.07 g/m*3 1.4 C 0 km/h
1738 21-02-2019 00:45:00 1.3 C 5.03 g/m*3 1.3 C 0 km/h
1739 21-02-2019 00:50:00 1.3 C 5.03 g/m*3 1.3 C 0 km/h
1740 21-02-2019 00:55:00 1.5 C 5.1 g/m*3 1.5 C 0 km/h
1741 21-02-2019 01:00:00 1.6 C 5.14 g/m*3 1.6 C 0 km/h
1742 21-02-2019 01:05:00 1.6 C 5.14 g/m*3 1.6 C 0 km/h
1743 21-02-2019 01:10:00 1.7 C 5.17 g/m*3 1.7 C 0 km/h
1744 21-02-2019 01:15:00 1.7 C 5.17 g/m*3 1.7 C 0 km/h
1745 21-02-2019 01:20:00 1.8 C 5.21 g/m*3 1.8 C 0 km/h
1746 21-02-2019 01:25:00 1.7 C 5.17 g/m*3 1.7 C 0 km/h
1747 21-02-2019 01:30:00 1.6 C 5.14 g/m*3 1.6 C 0 km/h
1748 21-02-2019 01:35:00 1.3 C 5.03 g/m*3 1.3 C 0 km/h
1749 21-02-2019 01:40:00 1.3 C 5.03 g/m*3 1.3 C 0 km/h
1750 21-02-2019 01:45:00 1.3 C 5.03 g/m*3 1.3 C 0 km/h
Sensor: Nr:Datum:Temp:Abs-Feuchte:Windchill:Wind:
Aussen-T/F 1751 21-02-2019 01:50:00 1.6 C 5.19 g/m*3 1.6 C 1.6 km/h
1752 21-02-2019 01:55:00 1.8 C 5.26 g/m*3 1.8 C 1.6 km/h
1753 21-02-2019 02:00:00 1.8 C 5.26 g/m*3 1.8 C 0 km/h
1754 21-02-2019 02:05:00 1.8 C 5.26 g/m*3 1.8 C 0 km/h
1755 21-02-2019 02:10:00 1.7 C 5.17 g/m*3 1.7 C 0 km/h
1756 21-02-2019 02:15:00 1.4 C 5.07 g/m*3 1.4 C 0 km/h
1757 21-02-2019 02:20:00 1.2 C 5 g/m*3 1.2 C 0 km/h
1758 21-02-2019 02:25:00 0.9 C 4.9 g/m*3 0.9 C 0 km/h
1759 21-02-2019 02:30:00 0.8 C 4.86 g/m*3 0.8 C 0 km/h
1760 21-02-2019 02:35:00 0.7 C 4.83 g/m*3 0.7 C 0 km/h
1761 21-02-2019 02:40:00 0.7 C 4.83 g/m*3 0.7 C 0 km/h
1762 21-02-2019 02:45:00 0.6 C 4.8 g/m*3 0.6 C 0 km/h
1763 21-02-2019 02:50:00 0.6 C 4.8 g/m*3 0.6 C 0 km/h
1764 21-02-2019 02:55:00 0.6 C 4.8 g/m*3 0.6 C 0 km/h
1765 21-02-2019 03:00:00 0.7 C 4.88 g/m*3 0.7 C 1.6 km/h
1766 21-02-2019 03:05:00 0.7 C 4.88 g/m*3 0.7 C 0 km/h
1767 21-02-2019 03:10:00 0.7 C 4.83 g/m*3 0.7 C 0 km/h
1768 21-02-2019 03:15:00 0.7 C 4.88 g/m*3 0.7 C 0 km/h
1769 21-02-2019 03:20:00 0.7 C 4.88 g/m*3 0.7 C 0 km/h
1770 21-02-2019 03:25:00 0.6 C 4.85 g/m*3 0.6 C 0 km/h
1771 21-02-2019 03:30:00 0.7 C 4.88 g/m*3 0.7 C 0 km/h
1772 21-02-2019 03:35:00 0.7 C 4.88 g/m*3 0.7 C 1.6 km/h
1773 21-02-2019 03:40:00 0.8 C 4.91 g/m*3 0.8 C 0 km/h
1774 21-02-2019 03:45:00 0.8 C 4.91 g/m*3 0.8 C 0 km/h
1775 21-02-2019 03:50:00 0.8 C 4.91 g/m*3 0.8 C 0 km/h
Sensor: Nr:Datum:Temp:Abs-Feuchte:Windchill:Wind:
Aussen-T/F 1776 21-02-2019 03:55:00 1 C 4.98 g/m*3 1 C 0 km/h
1777 21-02-2019 04:00:00 1.1 C 5.02 g/m*3 1.1 C 4.8 km/h
1778 21-02-2019 04:05:00 1.2 C 5.05 g/m*3 1.2 C 4.8 km/h
1779 21-02-2019 04:10:00 1.1 C 5.02 g/m*3 1.1 C 0 km/h
1780 21-02-2019 04:15:00 0.9 C 4.95 g/m*3 0.9 C 0 km/h
1781 21-02-2019 04:20:00 0.8 C 4.91 g/m*3 0.8 C 0 km/h
1782 21-02-2019 04:25:00 0.8 C 4.91 g/m*3 0.8 C 1.6 km/h
1783 21-02-2019 04:30:00 0.8 C 4.91 g/m*3 0.8 C 0 km/h
1784 21-02-2019 04:35:00 0.9 C 4.95 g/m*3 0.9 C 0 km/h
1785 21-02-2019 04:40:00 0.9 C 4.95 g/m*3 0.9 C 0 km/h
1786 21-02-2019 04:45:00 0.9 C 4.95 g/m*3 0.9 C 1.6 km/h
1787 21-02-2019 04:50:00 0.8 C 4.91 g/m*3 0.8 C 3.2 km/h
1788 21-02-2019 04:55:00 0.8 C 4.91 g/m*3 0.8 C 0 km/h
1789 21-02-2019 05:00:00 0.7 C 4.88 g/m*3 0.7 C 0 km/h
1790 21-02-2019 05:05:00 0.6 C 4.85 g/m*3 0.6 C 0 km/h
1791 21-02-2019 05:10:00 0.6 C 4.85 g/m*3 0.6 C 0 km/h
1792 21-02-2019 05:15:00 0.5 C 4.81 g/m*3 0.5 C 0 km/h
1793 21-02-2019 05:20:00 0.5 C 4.81 g/m*3 0.5 C 0 km/h
1794 21-02-2019 05:25:00 0.7 C 4.88 g/m*3 0.7 C 0 km/h
1795 21-02-2019 05:30:00 0.9 C 4.95 g/m*3 0.9 C 0 km/h
1796 21-02-2019 05:35:00 1.2 C 5.05 g/m*3 1.2 C 1.6 km/h
1797 21-02-2019 05:40:00 1.6 C 5.25 g/m*3 1.6 C 1.6 km/h
1798 21-02-2019 05:45:00 1.8 C 5.32 g/m*3 1.8 C 4.8 km/h
1799 21-02-2019 05:50:00 1.8 C 5.32 g/m*3 1.8 C 3.2 km/h
1800 21-02-2019 05:55:00 1.9 C 5.35 g/m*3 1.9 C 3.2 km/h
Sensor: Nr:Datum:Temp:Abs-Feuchte:Windchill:Wind:
Aussen-T/F 1801 21-02-2019 06:00:00 1.9 C 5.35 g/m*3 1.9 C 1.6 km/h
1802 21-02-2019 06:05:00 1.9 C 5.35 g/m*3 1.9 C 3.2 km/h
1803 21-02-2019 06:10:00 1.8 C 5.32 g/m*3 1.8 C 3.2 km/h
1804 21-02-2019 06:15:00 1.7 C 5.23 g/m*3 1.7 C 3.2 km/h
1805 21-02-2019 06:20:00 1.4 C 5.12 g/m*3 1.4 C 0 km/h
1806 21-02-2019 06:25:00 1.3 C 5.09 g/m*3 1.3 C 0 km/h
1807 21-02-2019 06:30:00 1.2 C 5.05 g/m*3 1.2 C 0 km/h
1808 21-02-2019 06:35:00 1 C 4.98 g/m*3 1 C 0 km/h
1809 21-02-2019 06:40:00 0.8 C 4.91 g/m*3 0.8 C 0 km/h
1810 21-02-2019 06:45:00 0.7 C 4.88 g/m*3 0.7 C 0 km/h
1811 21-02-2019 06:50:00 0.6 C 4.85 g/m*3 0.6 C 0 km/h
1812 21-02-2019 06:55:00 0.7 C 4.88 g/m*3 0.7 C 0 km/h
1813 21-02-2019 07:00:00 0.7 C 4.88 g/m*3 0.7 C 0 km/h
1814 21-02-2019 07:05:00 0.8 C 4.91 g/m*3 0.8 C 0 km/h
1815 21-02-2019 07:10:00 1.1 C 5.02 g/m*3 1.1 C 3.2 km/h
1816 21-02-2019 07:15:00 1.2 C 5.05 g/m*3 1.2 C 0 km/h
1817 21-02-2019 07:20:00 1.3 C 5.14 g/m*3 1.3 C 0 km/h
1818 21-02-2019 07:25:00 1.3 C 5.14 g/m*3 1.3 C 0 km/h
1819 21-02-2019 07:30:00 1.3 C 5.14 g/m*3 1.3 C 0 km/h
1820 21-02-2019 07:35:00 1.3 C 5.14 g/m*3 1.3 C 0 km/h
1821 21-02-2019 07:40:00 1.3 C 5.14 g/m*3 1.3 C 1.6 km/h
1822 21-02-2019 07:45:00 1.4 C 5.12 g/m*3 1.4 C 0 km/h
1823 21-02-2019 07:50:00 1.4 C 5.12 g/m*3 1.4 C 0 km/h
1824 21-02-2019 07:55:00 1.5 C 5.16 g/m*3 1.5 C 0 km/h
1825 21-02-2019 08:00:00 1.6 C 5.25 g/m*3 1.6 C 0 km/h
Sensor: Nr:Datum:Temp:Abs-Feuchte:Windchill:Wind:
Aussen-T/F 1826 21-02-2019 08:05:00 1.7 C 5.28 g/m*3 1.7 C 0 km/h
1827 21-02-2019 08:10:00 1.8 C 5.32 g/m*3 1.8 C 0 km/h
1828 21-02-2019 08:15:00 1.9 C 5.35 g/m*3 1.9 C 0 km/h
1829 21-02-2019 08:20:00 2.1 C 5.43 g/m*3 2.1 C 0 km/h
1830 21-02-2019 08:25:00 2.1 C 5.43 g/m*3 2.1 C 1.6 km/h
1831 21-02-2019 08:30:00 2.2 C 5.46 g/m*3 2.2 C 0 km/h
1832 21-02-2019 08:35:00 2.3 C 5.5 g/m*3 2.3 C 1.6 km/h
1833 21-02-2019 08:40:00 2.3 C 5.5 g/m*3 2.3 C 1.6 km/h
1834 21-02-2019 08:45:00 2.4 C 5.54 g/m*3 2.4 C 0 km/h
1835 21-02-2019 08:50:00 2.4 C 5.54 g/m*3 2.4 C 0 km/h
1836 21-02-2019 08:55:00 2.5 C 5.58 g/m*3 2.5 C 0 km/h
1837 21-02-2019 09:00:00 2.6 C 5.61 g/m*3 2.6 C 0 km/h
1838 21-02-2019 09:05:00 2.6 C 5.61 g/m*3 2.6 C 1.6 km/h
1839 21-02-2019 09:10:00 2.7 C 5.65 g/m*3 2.7 C 0 km/h
1840 21-02-2019 09:15:00 2.7 C 5.65 g/m*3 2.7 C 0 km/h
1841 21-02-2019 09:20:00 2.8 C 5.69 g/m*3 2.8 C 0 km/h
1842 21-02-2019 09:25:00 2.8 C 5.69 g/m*3 2.8 C 0 km/h
1843 21-02-2019 09:30:00 2.8 C 5.69 g/m*3 2.8 C 0 km/h
1844 21-02-2019 09:35:00 2.9 C 5.73 g/m*3 2.9 C 0 km/h
1845 21-02-2019 09:40:00 2.9 C 5.73 g/m*3 2.9 C 0 km/h
1846 21-02-2019 09:45:00 3 C 5.77 g/m*3 3 C 0 km/h
1847 21-02-2019 09:50:00 3.1 C 5.81 g/m*3 3.1 C 1.6 km/h
1848 21-02-2019 09:55:00 3.2 C 5.85 g/m*3 3.2 C 4.8 km/h
1849 21-02-2019 10:00:00 3.2 C 5.85 g/m*3 3.2 C 3.2 km/h
1850 21-02-2019 10:05:00 3.3 C 5.88 g/m*3 3.3 C 1.6 km/h
Sensor: Nr:Datum:Temp:Abs-Feuchte:Windchill:Wind:
Aussen-T/F 1851 21-02-2019 10:10:00 3.4 C 5.92 g/m*3 3.4 C 0 km/h
1852 21-02-2019 10:15:00 3.7 C 6.04 g/m*3 3.7 C 0 km/h
1853 21-02-2019 10:20:00 3.8 C 6.09 g/m*3 3.8 C 1.6 km/h
1854 21-02-2019 10:25:00 3.9 C 6.13 g/m*3 3.9 C 0 km/h
1855 21-02-2019 10:30:00 4 C 6.17 g/m*3 4 C 0 km/h
1856 21-02-2019 10:35:00 4.2 C 6.25 g/m*3 4.2 C 1.6 km/h
1857 21-02-2019 10:40:00 4.2 C 6.25 g/m*3 4.2 C 4.8 km/h
1858 21-02-2019 10:45:00 4.3 C 6.29 g/m*3 4.3 C 1.6 km/h
1859 21-02-2019 10:50:00 4.4 C 6.33 g/m*3 4.4 C 0 km/h
1860 21-02-2019 10:55:00 4.6 C 6.42 g/m*3 4.6 C 0 km/h
1861 21-02-2019 11:00:00 4.8 C 6.5 g/m*3 4.8 C 0 km/h
1862 21-02-2019 11:05:00 4.9 C 6.48 g/m*3 4.9 C 0 km/h
1863 21-02-2019 11:10:00 5.1 C 6.57 g/m*3 5.1 C 0 km/h
1864 21-02-2019 11:15:00 5.3 C 6.65 g/m*3 5.3 C 0 km/h
1865 21-02-2019 11:20:00 5.4 C 6.7 g/m*3 5.4 C 3.2 km/h
1866 21-02-2019 11:25:00 5.6 C 6.72 g/m*3 5.6 C 0 km/h
1867 21-02-2019 11:30:00 5.7 C 6.76 g/m*3 5.7 C 0 km/h
1868 21-02-2019 11:35:00 5.9 C 6.85 g/m*3 5.9 C 0 km/h
1869 21-02-2019 11:40:00 6.2 C 6.91 g/m*3 6.2 C 1.6 km/h
1870 21-02-2019 11:45:00 6.4 C 6.93 g/m*3 6.4 C 3.2 km/h
1871 21-02-2019 11:50:00 6.6 C 7.02 g/m*3 6.6 C 3.2 km/h
1872 21-02-2019 11:55:00 6.8 C 7.04 g/m*3 6.8 C 0 km/h
1873 21-02-2019 12:00:00 7 C 7.13 g/m*3 7 C 0 km/h
1874 21-02-2019 12:05:00 7.2 C 7.22 g/m*3 7.2 C 1.6 km/h
1875 21-02-2019 12:10:00 7.4 C 7.24 g/m*3 7.4 C 4.8 km/h
Sensor: Nr:Datum:Temp:Abs-Feuchte:Windchill:Wind:
Aussen-T/F 1876 21-02-2019 12:15:00 7.7 C 7.38 g/m*3 7.7 C 1.6 km/h
1877 21-02-2019 12:20:00 7.8 C 7.35 g/m*3 7.8 C 1.6 km/h
1878 21-02-2019 12:25:00 8.1 C 7.49 g/m*3 8.1 C 0 km/h
1879 21-02-2019 12:30:00 8.3 C 7.59 g/m*3 8.3 C 0 km/h
1880 21-02-2019 12:35:00 8.5 C 7.68 g/m*3 8.5 C 1.6 km/h
1881 21-02-2019 12:40:00 8.8 C 7.83 g/m*3 8.8 C 1.6 km/h
1882 21-02-2019 12:45:00 9.3 C 8 g/m*3 8.56 C 6.4 km/h
1883 21-02-2019 12:50:00 9.8 C 8.07 g/m*3 8.45 C 9.7 km/h
1884 21-02-2019 12:55:00 10.1 C 8.13 g/m*3 9.48 C 6.4 km/h
1885 21-02-2019 13:00:00 10.3 C 8.14 g/m*3 10.3 C 3.2 km/h
1886 21-02-2019 13:05:00 10.5 C 8.15 g/m*3 9.95 C 6.4 km/h
1887 21-02-2019 13:10:00 10.7 C 8.25 g/m*3 9.81 C 8.1 km/h
1888 21-02-2019 13:15:00 10.8 C 8.2 g/m*3 10.8 C 4.8 km/h
1889 21-02-2019 13:20:00 11 C 8.41 g/m*3 10.52 C 6.4 km/h
1890 21-02-2019 13:25:00 11.3 C 8.47 g/m*3 11.3 C 6.4 km/h
1891 21-02-2019 13:30:00 11.5 C 8.37 g/m*3 11.5 C 8.1 km/h
1892 21-02-2019 13:35:00 11.7 C 8.47 g/m*3 11.7 C 4.8 km/h
1893 21-02-2019 13:40:00 11.8 C 8.42 g/m*3 11.8 C 8.1 km/h
1894 21-02-2019 13:45:00 11.9 C 8.37 g/m*3 11.9 C 6.4 km/h
1895 21-02-2019 13:50:00 12 C 8.42 g/m*3 12 C 6.4 km/h
1896 21-02-2019 13:55:00 12.1 C 8.47 g/m*3 12.1 C 6.4 km/h
1897 21-02-2019 14:00:00 12.1 C 8.47 g/m*3 12.1 C 6.4 km/h
1898 21-02-2019 14:05:00 12.2 C 8.42 g/m*3 12.2 C 4.8 km/h
1899 21-02-2019 14:10:00 12.3 C 8.58 g/m*3 12.3 C 3.2 km/h
1900 21-02-2019 14:15:00 12.6 C 8.63 g/m*3 12.6 C 1.6 km/h
Sensor: Nr:Datum:Temp:Abs-Feuchte:Windchill:Wind:
Aussen-T/F 1901 21-02-2019 14:20:00 12.7 C 8.57 g/m*3 12.7 C 8.1 km/h
1902 21-02-2019 14:25:00 12.7 C 8.46 g/m*3 12.7 C 8.1 km/h
1903 21-02-2019 14:30:00 12.8 C 8.51 g/m*3 12.8 C 8.1 km/h
1904 21-02-2019 14:35:00 12.8 C 8.51 g/m*3 12.8 C 9.7 km/h
1905 21-02-2019 14:40:00 12.7 C 8.46 g/m*3 12.7 C 6.4 km/h
1906 21-02-2019 14:45:00 12.7 C 8.46 g/m*3 12.7 C 6.4 km/h
1907 21-02-2019 14:50:00 12.7 C 8.46 g/m*3 12.7 C 8.1 km/h
1908 21-02-2019 14:55:00 12.9 C 8.68 g/m*3 12.9 C 4.8 km/h
1909 21-02-2019 15:00:00 13.2 C 8.61 g/m*3 13.2 C 9.7 km/h
1910 21-02-2019 15:05:00 13.2 C 8.61 g/m*3 13.2 C 11.3 km/h
1911 21-02-2019 15:10:00 13.3 C 8.55 g/m*3 13.3 C 11.3 km/h
1912 21-02-2019 15:15:00 13.4 C 8.6 g/m*3 13.4 C 8.1 km/h
1913 21-02-2019 15:20:00 13.4 C 8.6 g/m*3 13.4 C 8.1 km/h
1914 21-02-2019 15:25:00 13.3 C 8.55 g/m*3 13.3 C 4.8 km/h
1915 21-02-2019 15:30:00 13.3 C 8.66 g/m*3 13.3 C 3.2 km/h
1916 21-02-2019 15:35:00 13.3 C 8.55 g/m*3 13.3 C 4.8 km/h
1917 21-02-2019 15:40:00 13.3 C 8.66 g/m*3 13.3 C 4.8 km/h
1918 21-02-2019 15:45:00 13.4 C 8.6 g/m*3 13.4 C 6.4 km/h
1919 21-02-2019 15:50:00 13.4 C 8.49 g/m*3 13.4 C 3.2 km/h
1920 21-02-2019 15:55:00 13.4 C 8.6 g/m*3 13.4 C 1.6 km/h
1921 21-02-2019 16:00:00 13.3 C 8.43 g/m*3 13.3 C 8.1 km/h
1922 21-02-2019 16:05:00 13.3 C 8.43 g/m*3 13.3 C 4.8 km/h
1923 21-02-2019 16:10:00 13.3 C 8.55 g/m*3 13.3 C 4.8 km/h
1924 21-02-2019 16:15:00 13.3 C 8.66 g/m*3 13.3 C 4.8 km/h
1925 21-02-2019 16:20:00 13.4 C 8.72 g/m*3 13.4 C 3.2 km/h
Sensor: Nr:Datum:Temp:Abs-Feuchte:Windchill:Wind:
Aussen-T/F 1926 21-02-2019 16:25:00 13.4 C 8.6 g/m*3 13.4 C 6.4 km/h
1927 21-02-2019 16:30:00 13.4 C 8.6 g/m*3 13.4 C 8.1 km/h
1928 21-02-2019 16:35:00 13.4 C 8.6 g/m*3 13.4 C 6.4 km/h
1929 21-02-2019 16:40:00 13.4 C 8.6 g/m*3 13.4 C 8.1 km/h
1930 21-02-2019 16:45:00 13.3 C 8.66 g/m*3 13.3 C 3.2 km/h
1931 21-02-2019 16:50:00 13.3 C 8.55 g/m*3 13.3 C 3.2 km/h
1932 21-02-2019 16:55:00 13.3 C 8.55 g/m*3 13.3 C 4.8 km/h
1933 21-02-2019 17:00:00 13.2 C 8.38 g/m*3 13.2 C 3.2 km/h
1934 21-02-2019 17:05:00 13.1 C 8.33 g/m*3 13.1 C 1.6 km/h
1935 21-02-2019 17:10:00 13.1 C 8.33 g/m*3 13.1 C 0 km/h
1936 21-02-2019 17:15:00 13.1 C 8.56 g/m*3 13.1 C 0 km/h
1937 21-02-2019 17:20:00 13.1 C 9.13 g/m*3 13.1 C 0 km/h
1938 21-02-2019 17:25:00 12.8 C 9.07 g/m*3 12.8 C 1.6 km/h
1939 21-02-2019 17:30:00 12.6 C 9.07 g/m*3 12.6 C 3.2 km/h
1940 21-02-2019 17:35:00 12.3 C 9.01 g/m*3 12.3 C 3.2 km/h
1941 21-02-2019 17:40:00 12 C 8.95 g/m*3 12 C 3.2 km/h
1942 21-02-2019 17:45:00 11.7 C 8.79 g/m*3 11.7 C 4.8 km/h
1943 21-02-2019 17:50:00 11.5 C 8.78 g/m*3 11.5 C 3.2 km/h
1944 21-02-2019 17:55:00 11.3 C 8.67 g/m*3 11.3 C 1.6 km/h
1945 21-02-2019 18:00:00 11.1 C 8.66 g/m*3 11.1 C 0 km/h
1946 21-02-2019 18:05:00 10.9 C 8.55 g/m*3 10.9 C 0 km/h
1947 21-02-2019 18:10:00 10.8 C 8.5 g/m*3 10.8 C 0 km/h
1948 21-02-2019 18:15:00 10.7 C 8.45 g/m*3 10.7 C 0 km/h
1949 21-02-2019 18:20:00 10.6 C 8.39 g/m*3 10.6 C 1.6 km/h
1950 21-02-2019 18:25:00 10.6 C 8.39 g/m*3 10.6 C 3.2 km/h
Sensor: Nr:Datum:Temp:Abs-Feuchte:Windchill:Wind:
Aussen-T/F 1951 21-02-2019 18:30:00 10.5 C 8.34 g/m*3 10.5 C 4.8 km/h
1952 21-02-2019 18:35:00 10.4 C 8.29 g/m*3 10.4 C 3.2 km/h
1953 21-02-2019 18:40:00 10.4 C 8.29 g/m*3 10.4 C 3.2 km/h
1954 21-02-2019 18:45:00 10.3 C 8.24 g/m*3 10.3 C 3.2 km/h
1955 21-02-2019 18:50:00 10.3 C 8.33 g/m*3 10.3 C 4.8 km/h
1956 21-02-2019 18:55:00 10.2 C 8.28 g/m*3 10.2 C 4.8 km/h
1957 21-02-2019 19:00:00 10.2 C 8.28 g/m*3 10.2 C 3.2 km/h
1958 21-02-2019 19:05:00 10.1 C 8.13 g/m*3 10.1 C 4.8 km/h
1959 21-02-2019 19:10:00 10 C 8.08 g/m*3 10 C 3.2 km/h
1960 21-02-2019 19:15:00 9.8 C 7.98 g/m*3 9.8 C 3.2 km/h
1961 21-02-2019 19:20:00 9.8 C 8.07 g/m*3 9.8 C 4.8 km/h
1962 21-02-2019 19:25:00 9.7 C 8.11 g/m*3 9.7 C 3.2 km/h
1963 21-02-2019 19:30:00 9.7 C 8.11 g/m*3 9.7 C 3.2 km/h
1964 21-02-2019 19:35:00 9.7 C 8.11 g/m*3 9.7 C 1.6 km/h
1965 21-02-2019 19:40:00 9.6 C 8.06 g/m*3 9.6 C 3.2 km/h
1966 21-02-2019 19:45:00 9.6 C 7.97 g/m*3 9.6 C 4.8 km/h
1967 21-02-2019 19:50:00 9.4 C 7.96 g/m*3 9.4 C 3.2 km/h
1968 21-02-2019 19:55:00 9.3 C 7.91 g/m*3 9.3 C 3.2 km/h
1969 21-02-2019 20:00:00 9.2 C 7.86 g/m*3 9.2 C 4.8 km/h
1970 21-02-2019 20:05:00 9.2 C 7.95 g/m*3 9.2 C 1.6 km/h
1971 21-02-2019 20:10:00 9.2 C 7.95 g/m*3 9.2 C 0 km/h
1972 21-02-2019 20:15:00 9.1 C 7.9 g/m*3 9.1 C 0 km/h
1973 21-02-2019 20:20:00 9.1 C 7.9 g/m*3 9.1 C 0 km/h
1974 21-02-2019 20:25:00 9.2 C 8.04 g/m*3 9.2 C 0 km/h
1975 21-02-2019 20:30:00 9.2 C 8.04 g/m*3 9.2 C 0 km/h
Sensor: Nr:Datum:Temp:Abs-Feuchte:Windchill:Wind:
Aussen-T/F 1976 21-02-2019 20:35:00 9.2 C 8.04 g/m*3 9.2 C 0 km/h
1977 21-02-2019 20:40:00 9.2 C 8.04 g/m*3 9.2 C 0 km/h
1978 21-02-2019 20:45:00 9.2 C 8.04 g/m*3 9.2 C 0 km/h
1979 21-02-2019 20:50:00 9.2 C 8.04 g/m*3 9.2 C 0 km/h
1980 21-02-2019 20:55:00 9.2 C 8.04 g/m*3 9.2 C 0 km/h
1981 21-02-2019 21:00:00 9.3 C 8.09 g/m*3 9.3 C 0 km/h
1982 21-02-2019 21:05:00 9.3 C 8.09 g/m*3 9.3 C 0 km/h
1983 21-02-2019 21:10:00 9.3 C 8.18 g/m*3 9.3 C 0 km/h
1984 21-02-2019 21:15:00 9.3 C 8.18 g/m*3 9.3 C 0 km/h
1985 21-02-2019 21:20:00 9.3 C 8.18 g/m*3 9.3 C 0 km/h
1986 21-02-2019 21:25:00 9.3 C 8.18 g/m*3 9.3 C 0 km/h
1987 21-02-2019 21:30:00 9.3 C 8.18 g/m*3 9.3 C 0 km/h
1988 21-02-2019 21:35:00 9.3 C 8.18 g/m*3 9.3 C 3.2 km/h
1989 21-02-2019 21:40:00 9.3 C 8.09 g/m*3 9.3 C 4.8 km/h
1990 21-02-2019 21:45:00 9.4 C 8.14 g/m*3 9.4 C 0 km/h
1991 21-02-2019 21:50:00 9.4 C 8.14 g/m*3 9.4 C 0 km/h
1992 21-02-2019 21:55:00 9.4 C 8.14 g/m*3 9.4 C 0 km/h
1993 21-02-2019 22:00:00 9.3 C 8.09 g/m*3 9.3 C 0 km/h
1994 21-02-2019 22:05:00 9.3 C 8.09 g/m*3 9.3 C 0 km/h
1995 21-02-2019 22:10:00 9.3 C 8 g/m*3 9.3 C 0 km/h
1996 21-02-2019 22:15:00 9.3 C 8.09 g/m*3 9.3 C 1.6 km/h
1997 21-02-2019 22:20:00 9.3 C 8 g/m*3 9.3 C 0 km/h
1998 21-02-2019 22:25:00 9.3 C 8 g/m*3 9.3 C 0 km/h
1999 21-02-2019 22:30:00 9.3 C 8 g/m*3 9.3 C 0 km/h
2000 21-02-2019 22:35:00 9.3 C 8 g/m*3 9.3 C 0 km/h
Sensor: Nr:Datum:Temp:Abs-Feuchte:Windchill:Wind:
Aussen-T/F 2001 21-02-2019 22:40:00 9.3 C 8 g/m*3 9.3 C 0 km/h
2002 21-02-2019 22:45:00 9.2 C 7.95 g/m*3 9.2 C 0 km/h
2003 21-02-2019 22:50:00 9.2 C 7.95 g/m*3 9.2 C 0 km/h
2004 21-02-2019 22:55:00 9.2 C 7.95 g/m*3 9.2 C 0 km/h
2005 21-02-2019 23:00:00 9.1 C 7.9 g/m*3 9.1 C 0 km/h
2006 21-02-2019 23:05:00 9.1 C 7.9 g/m*3 9.1 C 0 km/h
2007 21-02-2019 23:10:00 9 C 7.85 g/m*3 9 C 0 km/h
2008 21-02-2019 23:15:00 9 C 7.93 g/m*3 8.21 C 6.4 km/h
2009 21-02-2019 23:20:00 9.1 C 7.99 g/m*3 9.1 C 1.6 km/h
2010 21-02-2019 23:25:00 9.2 C 8.04 g/m*3 9.2 C 1.6 km/h
2011 21-02-2019 23:30:00 9.3 C 8.09 g/m*3 9.3 C 1.6 km/h
2012 21-02-2019 23:35:00 9.3 C 8 g/m*3 9.3 C 1.6 km/h
2013 21-02-2019 23:40:00 9.4 C 8.05 g/m*3 9.4 C 0 km/h
2014 21-02-2019 23:45:00 9.3 C 8 g/m*3 9.3 C 3.2 km/h
2015 21-02-2019 23:50:00 9.4 C 8.05 g/m*3 9.4 C 1.6 km/h
2016 21-02-2019 23:55:00 9.4 C 8.05 g/m*3 9.4 C 1.6 km/h
2017 22-02-2019 00:00:00 9.4 C 8.05 g/m*3 9.4 C 1.6 km/h
2018 22-02-2019 00:05:00 9.4 C 7.96 g/m*3 9.4 C 1.6 km/h
2019 22-02-2019 00:10:00 9.3 C 8 g/m*3 9.3 C 1.6 km/h
2020 22-02-2019 00:15:00 9.3 C 8 g/m*3 9.3 C 0 km/h
2021 22-02-2019 00:20:00 9.3 C 8 g/m*3 9.3 C 0 km/h
2022 22-02-2019 00:25:00 9.3 C 8 g/m*3 9.3 C 1.6 km/h
2023 22-02-2019 00:30:00 9.4 C 8.05 g/m*3 9.4 C 3.2 km/h
2024 22-02-2019 00:35:00 9.5 C 8.19 g/m*3 8.09 C 9.7 km/h
2025 22-02-2019 00:40:00 9.8 C 8.35 g/m*3 9.14 C 6.4 km/h
Sensor: Nr:Datum:Temp:Abs-Feuchte:Windchill:Wind:
Aussen-T/F 2026 22-02-2019 00:45:00 10 C 8.27 g/m*3 10 C 4.8 km/h
2027 22-02-2019 00:50:00 10.1 C 8.32 g/m*3 10.1 C 0 km/h
2028 22-02-2019 00:55:00 10.1 C 8.32 g/m*3 10.1 C 1.6 km/h
2029 22-02-2019 01:00:00 10.1 C 8.32 g/m*3 10.1 C 0 km/h
2030 22-02-2019 01:05:00 10.1 C 8.23 g/m*3 10.1 C 1.6 km/h
2031 22-02-2019 01:10:00 9.9 C 8.12 g/m*3 9.9 C 0 km/h
2032 22-02-2019 01:15:00 9.8 C 8.07 g/m*3 9.8 C 0 km/h
2033 22-02-2019 01:20:00 9.8 C 8.16 g/m*3 9.8 C 0 km/h
2034 22-02-2019 01:25:00 9.7 C 8.11 g/m*3 9.7 C 0 km/h
2035 22-02-2019 01:30:00 9.7 C 8.2 g/m*3 9.7 C 0 km/h
2036 22-02-2019 01:35:00 9.7 C 8.2 g/m*3 9.7 C 0 km/h
2037 22-02-2019 01:40:00 9.7 C 8.2 g/m*3 9.7 C 0 km/h
2038 22-02-2019 01:45:00 9.6 C 8.15 g/m*3 9.6 C 0 km/h
2039 22-02-2019 01:50:00 9.6 C 8.15 g/m*3 9.6 C 3.2 km/h
2040 22-02-2019 01:55:00 9.5 C 8.1 g/m*3 9.5 C 0 km/h
2041 22-02-2019 02:00:00 9.4 C 8.05 g/m*3 9.4 C 0 km/h
2042 22-02-2019 02:05:00 9.4 C 8.05 g/m*3 9.4 C 0 km/h
2043 22-02-2019 02:10:00 9.4 C 8.14 g/m*3 9.4 C 0 km/h
2044 22-02-2019 02:15:00 9.4 C 8.14 g/m*3 9.4 C 1.6 km/h
2045 22-02-2019 02:20:00 9.4 C 8.14 g/m*3 9.4 C 0 km/h
2046 22-02-2019 02:25:00 9.3 C 8.09 g/m*3 9.3 C 0 km/h
2047 22-02-2019 02:30:00 9.3 C 8.09 g/m*3 9.3 C 0 km/h
2048 22-02-2019 02:35:00 9.3 C 8.09 g/m*3 9.3 C 1.6 km/h
2049 22-02-2019 02:40:00 9.2 C 8.04 g/m*3 9.2 C 0 km/h
2050 22-02-2019 02:45:00 9.2 C 8.13 g/m*3 9.2 C 0 km/h
Sensor: Nr:Datum:Temp:Abs-Feuchte:Windchill:Wind:
Aussen-T/F 2051 22-02-2019 02:50:00 9.3 C 8.18 g/m*3 9.3 C 0 km/h
2052 22-02-2019 02:55:00 9.3 C 8.27 g/m*3 9.3 C 3.2 km/h
2053 22-02-2019 03:00:00 9.4 C 8.32 g/m*3 9.4 C 0 km/h
2054 22-02-2019 03:05:00 9.4 C 8.23 g/m*3 9.4 C 0 km/h
2055 22-02-2019 03:10:00 9.4 C 8.32 g/m*3 9.4 C 0 km/h
2056 22-02-2019 03:15:00 9.4 C 8.32 g/m*3 9.4 C 0 km/h
2057 22-02-2019 03:20:00 9.5 C 8.37 g/m*3 9.5 C 0 km/h
2058 22-02-2019 03:25:00 9.5 C 8.37 g/m*3 9.5 C 0 km/h
2059 22-02-2019 03:30:00 9.6 C 8.43 g/m*3 9.6 C 0 km/h
2060 22-02-2019 03:35:00 9.6 C 8.52 g/m*3 9.6 C 3.2 km/h
2061 22-02-2019 03:40:00 9.7 C 8.57 g/m*3 9.7 C 1.6 km/h
2062 22-02-2019 03:45:00 9.7 C 8.48 g/m*3 9.7 C 0 km/h
2063 22-02-2019 03:50:00 9.7 C 8.48 g/m*3 9.7 C 1.6 km/h
2064 22-02-2019 03:55:00 9.7 C 8.48 g/m*3 9.7 C 0 km/h
2065 22-02-2019 04:00:00 9.8 C 8.54 g/m*3 9.8 C 0 km/h
2066 22-02-2019 04:05:00 9.8 C 8.54 g/m*3 9.8 C 3.2 km/h
2067 22-02-2019 04:10:00 9.8 C 8.54 g/m*3 9.8 C 1.6 km/h
2068 22-02-2019 04:15:00 9.8 C 8.63 g/m*3 9.8 C 1.6 km/h
2069 22-02-2019 04:20:00 9.8 C 8.63 g/m*3 9.8 C 0 km/h
2070 22-02-2019 04:25:00 9.7 C 8.57 g/m*3 9.7 C 0 km/h
2071 22-02-2019 04:30:00 9.7 C 8.57 g/m*3 9.7 C 0 km/h
2072 22-02-2019 04:35:00 9.6 C 8.52 g/m*3 9.6 C 0 km/h
2073 22-02-2019 04:40:00 9.6 C 8.52 g/m*3 9.6 C 0 km/h
2074 22-02-2019 04:45:00 9.5 C 8.47 g/m*3 9.5 C 0 km/h
2075 22-02-2019 04:50:00 9.5 C 8.56 g/m*3 9.5 C 0 km/h
Sensor: Nr:Datum:Temp:Abs-Feuchte:Windchill:Wind:
Aussen-T/F 2076 22-02-2019 04:55:00 9.4 C 8.5 g/m*3 9.4 C 0 km/h
2077 22-02-2019 05:00:00 9.4 C 8.5 g/m*3 9.4 C 0 km/h
2078 22-02-2019 05:05:00 9.4 C 8.5 g/m*3 9.4 C 0 km/h
2079 22-02-2019 05:10:00 9.4 C 8.5 g/m*3 9.4 C 0 km/h
2080 22-02-2019 05:15:00 9.4 C 8.5 g/m*3 9.4 C 0 km/h
2081 22-02-2019 05:20:00 9.4 C 8.5 g/m*3 9.4 C 0 km/h
2082 22-02-2019 05:25:00 9.3 C 8.45 g/m*3 9.3 C 0 km/h
2083 22-02-2019 05:30:00 9.3 C 8.45 g/m*3 9.3 C 0 km/h
2084 22-02-2019 05:35:00 9.3 C 8.45 g/m*3 9.3 C 1.6 km/h
2085 22-02-2019 05:40:00 9.3 C 8.45 g/m*3 9.3 C 1.6 km/h
2086 22-02-2019 05:45:00 9.3 C 8.54 g/m*3 9.3 C 1.6 km/h
2087 22-02-2019 05:50:00 9.3 C 8.54 g/m*3 9.3 C 0 km/h
2088 22-02-2019 05:55:00 9.3 C 8.54 g/m*3 9.3 C 1.6 km/h
2089 22-02-2019 06:00:00 9.3 C 8.54 g/m*3 9.3 C 0 km/h
2090 22-02-2019 06:05:00 9.3 C 8.54 g/m*3 9.3 C 4.8 km/h
2091 22-02-2019 06:10:00 9.3 C 8.54 g/m*3 9.3 C 3.2 km/h
2092 22-02-2019 06:15:00 9.4 C 8.59 g/m*3 9.4 C 1.6 km/h
2093 22-02-2019 06:20:00 9.4 C 8.59 g/m*3 9.4 C 3.2 km/h
2094 22-02-2019 06:25:00 9.4 C 8.59 g/m*3 8.68 C 6.4 km/h
2095 22-02-2019 06:30:00 9.4 C 8.59 g/m*3 9.4 C 0 km/h
2096 22-02-2019 06:35:00 9.4 C 8.59 g/m*3 9.4 C 0 km/h
2097 22-02-2019 06:40:00 9.3 C 8.54 g/m*3 9.3 C 3.2 km/h
2098 22-02-2019 06:45:00 9.3 C 8.54 g/m*3 9.3 C 0 km/h
2099 22-02-2019 06:50:00 9.3 C 8.54 g/m*3 9.3 C 3.2 km/h
2100 22-02-2019 06:55:00 9.3 C 8.54 g/m*3 9.3 C 0 km/h
Sensor: Nr:Datum:Temp:Abs-Feuchte:Windchill:Wind:
Aussen-T/F 2101 22-02-2019 07:00:00 9.3 C 8.54 g/m*3 9.3 C 0 km/h
2102 22-02-2019 07:05:00 9.3 C 8.54 g/m*3 9.3 C 1.6 km/h
2103 22-02-2019 07:10:00 9.3 C 8.54 g/m*3 9.3 C 0 km/h
2104 22-02-2019 07:15:00 9.2 C 8.48 g/m*3 9.2 C 0 km/h
2105 22-02-2019 07:20:00 9.2 C 8.48 g/m*3 9.2 C 0 km/h
2106 22-02-2019 07:25:00 9.2 C 8.48 g/m*3 9.2 C 3.2 km/h
2107 22-02-2019 07:30:00 9.2 C 8.48 g/m*3 9.2 C 1.6 km/h
2108 22-02-2019 07:35:00 9.2 C 8.57 g/m*3 9.2 C 0 km/h
2109 22-02-2019 07:40:00 9.2 C 8.57 g/m*3 9.2 C 0 km/h
2110 22-02-2019 07:45:00 9.2 C 8.57 g/m*3 9.2 C 0 km/h
2111 22-02-2019 07:50:00 9.2 C 8.57 g/m*3 9.2 C 0 km/h
2112 22-02-2019 07:55:00 9.2 C 8.57 g/m*3 9.2 C 0 km/h
2113 22-02-2019 08:00:00 9.1 C 8.52 g/m*3 9.1 C 0 km/h
2114 22-02-2019 08:05:00 9.1 C 8.52 g/m*3 9.1 C 0 km/h
2115 22-02-2019 08:10:00 9.1 C 8.52 g/m*3 9.1 C 0 km/h
2116 22-02-2019 08:15:00 9.1 C 8.52 g/m*3 9.1 C 0 km/h
2117 22-02-2019 08:20:00 9.1 C 8.52 g/m*3 9.1 C 0 km/h
2118 22-02-2019 08:25:00 9.1 C 8.52 g/m*3 9.1 C 0 km/h
2119 22-02-2019 08:30:00 9.2 C 8.57 g/m*3 9.2 C 0 km/h
2120 22-02-2019 08:35:00 9.2 C 8.57 g/m*3 9.2 C 0 km/h
2121 22-02-2019 08:40:00 9.2 C 8.57 g/m*3 9.2 C 1.6 km/h
2122 22-02-2019 08:45:00 9.2 C 8.57 g/m*3 9.2 C 1.6 km/h
2123 22-02-2019 08:50:00 9.3 C 8.63 g/m*3 9.3 C 3.2 km/h
2124 22-02-2019 08:55:00 9.3 C 8.63 g/m*3 9.3 C 1.6 km/h
2125 22-02-2019 09:00:00 9.4 C 8.68 g/m*3 9.4 C 0 km/h
Sensor: Nr:Datum:Temp:Abs-Feuchte:Windchill:Wind:
Aussen-T/F 2126 22-02-2019 09:05:00 9.4 C 8.68 g/m*3 9.4 C 0 km/h
2127 22-02-2019 09:10:00 9.5 C 8.74 g/m*3 9.5 C 1.6 km/h
2128 22-02-2019 09:15:00 9.5 C 8.74 g/m*3 9.5 C 0 km/h
2129 22-02-2019 09:20:00 9.5 C 8.74 g/m*3 9.5 C 0 km/h
2130 22-02-2019 09:25:00 9.5 C 8.74 g/m*3 9.5 C 0 km/h
2131 22-02-2019 09:30:00 9.5 C 8.74 g/m*3 9.5 C 0 km/h
2132 22-02-2019 09:35:00 9.5 C 8.74 g/m*3 9.5 C 0 km/h
2133 22-02-2019 09:40:00 9.5 C 8.74 g/m*3 9.5 C 0 km/h
2134 22-02-2019 09:45:00 9.6 C 8.79 g/m*3 9.6 C 0 km/h
2135 22-02-2019 09:50:00 9.6 C 8.79 g/m*3 9.6 C 0 km/h
2136 22-02-2019 09:55:00 9.6 C 8.79 g/m*3 9.6 C 0 km/h
2137 22-02-2019 10:00:00 9.7 C 8.85 g/m*3 9.7 C 0 km/h
2138 22-02-2019 10:05:00 9.7 C 8.85 g/m*3 9.7 C 0 km/h
2139 22-02-2019 10:10:00 9.8 C 8.91 g/m*3 9.8 C 0 km/h
2140 22-02-2019 10:15:00 9.8 C 8.91 g/m*3 9.8 C 0 km/h
2141 22-02-2019 10:20:00 9.8 C 8.91 g/m*3 9.8 C 0 km/h
2142 22-02-2019 10:25:00 9.9 C 8.96 g/m*3 9.9 C 0 km/h
2143 22-02-2019 10:30:00 9.9 C 8.96 g/m*3 9.9 C 0 km/h
2144 22-02-2019 10:35:00 10 C 9.02 g/m*3 10 C 0 km/h
2145 22-02-2019 10:40:00 10.1 C 9.08 g/m*3 10.1 C 0 km/h
2146 22-02-2019 10:45:00 10.1 C 9.08 g/m*3 10.1 C 0 km/h
2147 22-02-2019 10:50:00 10.2 C 9.14 g/m*3 10.2 C 0 km/h
2148 22-02-2019 10:55:00 10.2 C 9.14 g/m*3 10.2 C 0 km/h
2149 22-02-2019 11:00:00 10.3 C 9.19 g/m*3 10.3 C 0 km/h
2150 22-02-2019 11:05:00 10.3 C 9.19 g/m*3 10.3 C 0 km/h
Sensor: Nr:Datum:Temp:Abs-Feuchte:Windchill:Wind:
Aussen-T/F 2151 22-02-2019 11:10:00 10.5 C 9.31 g/m*3 10.5 C 0 km/h
2152 22-02-2019 11:15:00 10.6 C 9.37 g/m*3 10.6 C 0 km/h
2153 22-02-2019 11:20:00 10.6 C 9.37 g/m*3 10.6 C 1.6 km/h
2154 22-02-2019 11:25:00 10.6 C 9.27 g/m*3 10.6 C 4.8 km/h
2155 22-02-2019 11:30:00 10.7 C 9.33 g/m*3 10.7 C 0 km/h
2156 22-02-2019 11:35:00 10.7 C 9.33 g/m*3 10.7 C 4.8 km/h
2157 22-02-2019 11:40:00 10.7 C 9.23 g/m*3 10.7 C 3.2 km/h
2158 22-02-2019 11:45:00 10.8 C 9.19 g/m*3 10.8 C 4.8 km/h
2159 22-02-2019 11:50:00 10.9 C 9.25 g/m*3 10.9 C 1.6 km/h
2160 22-02-2019 11:55:00 11 C 9.31 g/m*3 11 C 1.6 km/h
2161 22-02-2019 12:00:00 11.2 C 9.33 g/m*3 11.2 C 8.1 km/h
2162 22-02-2019 12:05:00 11.2 C 9.22 g/m*3 11.2 C 8.1 km/h
2163 22-02-2019 12:10:00 11.3 C 9.28 g/m*3 11.3 C 3.2 km/h
2164 22-02-2019 12:15:00 11.4 C 9.14 g/m*3 11.4 C 3.2 km/h
2165 22-02-2019 12:20:00 11.4 C 9.14 g/m*3 11.4 C 1.6 km/h
2166 22-02-2019 12:25:00 11.6 C 9.15 g/m*3 11.6 C 1.6 km/h
2167 22-02-2019 12:30:00 11.7 C 9.2 g/m*3 11.7 C 6.4 km/h
2168 22-02-2019 12:35:00 11.8 C 9.16 g/m*3 11.8 C 4.8 km/h
2169 22-02-2019 12:40:00 11.8 C 8.95 g/m*3 11.8 C 8.1 km/h
2170 22-02-2019 12:45:00 11.9 C 9 g/m*3 11.9 C 6.4 km/h
2171 22-02-2019 12:50:00 11.9 C 9 g/m*3 11.9 C 8.1 km/h
2172 22-02-2019 12:55:00 12 C 9.06 g/m*3 12 C 1.6 km/h
2173 22-02-2019 13:00:00 12.1 C 9.12 g/m*3 12.1 C 3.2 km/h
2174 22-02-2019 13:05:00 12.1 C 9.01 g/m*3 12.1 C 4.8 km/h
2175 22-02-2019 13:10:00 12.1 C 9.01 g/m*3 12.1 C 6.4 km/h
Sensor: Nr:Datum:Temp:Abs-Feuchte:Windchill:Wind:
Aussen-T/F 2176 22-02-2019 13:15:00 12.1 C 9.01 g/m*3 12.1 C 3.2 km/h
2177 22-02-2019 13:20:00 12.2 C 9.06 g/m*3 12.2 C 0 km/h
2178 22-02-2019 13:25:00 12.5 C 9.02 g/m*3 12.5 C 1.6 km/h
2179 22-02-2019 13:30:00 12.8 C 9.18 g/m*3 12.8 C 4.8 km/h
2180 22-02-2019 13:35:00 12.8 C 8.96 g/m*3 12.8 C 4.8 km/h
2181 22-02-2019 13:40:00 12.8 C 8.96 g/m*3 12.8 C 4.8 km/h
2182 22-02-2019 13:45:00 12.8 C 8.96 g/m*3 12.8 C 4.8 km/h
2183 22-02-2019 13:50:00 12.7 C 8.91 g/m*3 12.7 C 6.4 km/h
2184 22-02-2019 13:55:00 12.6 C 8.85 g/m*3 12.6 C 6.4 km/h
2185 22-02-2019 14:00:00 12.6 C 8.85 g/m*3 12.6 C 3.2 km/h
2186 22-02-2019 14:05:00 12.6 C 8.85 g/m*3 12.6 C 0 km/h
2187 22-02-2019 14:10:00 12.6 C 8.74 g/m*3 12.6 C 1.6 km/h
2188 22-02-2019 14:15:00 12.7 C 8.79 g/m*3 12.7 C 3.2 km/h
2189 22-02-2019 14:20:00 12.7 C 8.68 g/m*3 12.7 C 6.4 km/h
2190 22-02-2019 14:25:00 12.8 C 8.74 g/m*3 12.8 C 3.2 km/h
2191 22-02-2019 14:30:00 12.8 C 8.74 g/m*3 12.8 C 1.6 km/h
2192 22-02-2019 14:35:00 12.9 C 8.9 g/m*3 12.9 C 1.6 km/h
2193 22-02-2019 14:40:00 13 C 8.62 g/m*3 13 C 4.8 km/h
2194 22-02-2019 14:45:00 13.1 C 8.67 g/m*3 13.1 C 4.8 km/h
2195 22-02-2019 14:50:00 13.1 C 8.67 g/m*3 13.1 C 1.6 km/h
2196 22-02-2019 14:55:00 13.1 C 8.67 g/m*3 13.1 C 1.6 km/h
2197 22-02-2019 15:00:00 13.2 C 8.61 g/m*3 13.2 C 0 km/h
2198 22-02-2019 15:05:00 13.3 C 8.78 g/m*3 13.3 C 0 km/h
2199 22-02-2019 15:10:00 13.3 C 8.66 g/m*3 13.3 C 3.2 km/h
2200 22-02-2019 15:15:00 13.4 C 8.6 g/m*3 13.4 C 3.2 km/h
Sensor: Nr:Datum:Temp:Abs-Feuchte:Windchill:Wind:
Aussen-T/F 2201 22-02-2019 15:20:00 13.4 C 8.6 g/m*3 13.4 C 4.8 km/h
2202 22-02-2019 15:25:00 13.4 C 8.49 g/m*3 13.4 C 3.2 km/h
2203 22-02-2019 15:30:00 13.3 C 8.55 g/m*3 13.3 C 1.6 km/h
2204 22-02-2019 15:35:00 13.3 C 8.55 g/m*3 13.3 C 0 km/h
2205 22-02-2019 15:40:00 13.2 C 8.5 g/m*3 13.2 C 0 km/h
2206 22-02-2019 15:45:00 13.2 C 8.5 g/m*3 13.2 C 0 km/h
2207 22-02-2019 15:50:00 13.2 C 8.61 g/m*3 13.2 C 0 km/h
2208 22-02-2019 15:55:00 13.1 C 8.44 g/m*3 13.1 C 0 km/h
2209 22-02-2019 16:00:00 13.1 C 8.44 g/m*3 13.1 C 0 km/h
2210 22-02-2019 16:05:00 13.1 C 8.56 g/m*3 13.1 C 0 km/h
2211 22-02-2019 16:10:00 13.1 C 8.56 g/m*3 13.1 C 0 km/h
2212 22-02-2019 16:15:00 12.9 C 8.34 g/m*3 12.9 C 0 km/h
2213 22-02-2019 16:20:00 12.9 C 8.23 g/m*3 12.9 C 0 km/h
2214 22-02-2019 16:25:00 12.8 C 8.18 g/m*3 12.8 C 0 km/h
2215 22-02-2019 16:30:00 12.8 C 8.06 g/m*3 12.8 C 4.8 km/h
2216 22-02-2019 16:35:00 12.7 C 8.01 g/m*3 12.7 C 4.8 km/h
2217 22-02-2019 16:40:00 12.7 C 8.01 g/m*3 12.7 C 4.8 km/h
2218 22-02-2019 16:45:00 12.7 C 8.24 g/m*3 12.7 C 3.2 km/h
2219 22-02-2019 16:50:00 12.7 C 8.24 g/m*3 12.7 C 1.6 km/h
2220 22-02-2019 16:55:00 12.6 C 8.08 g/m*3 12.6 C 3.2 km/h
2221 22-02-2019 17:00:00 12.5 C 8.14 g/m*3 12.5 C 0 km/h
2222 22-02-2019 17:05:00 12.4 C 8.09 g/m*3 12.4 C 0 km/h
2223 22-02-2019 17:10:00 12.3 C 8.14 g/m*3 12.3 C 0 km/h
2224 22-02-2019 17:15:00 12.2 C 7.88 g/m*3 12.2 C 0 km/h
2225 22-02-2019 17:20:00 12.2 C 7.99 g/m*3 12.2 C 0 km/h
Sensor: Nr:Datum:Temp:Abs-Feuchte:Windchill:Wind:
Aussen-T/F 2226 22-02-2019 17:25:00 12.1 C 8.15 g/m*3 12.1 C 0 km/h
2227 22-02-2019 17:30:00 11.9 C 8.15 g/m*3 11.9 C 0 km/h
2228 22-02-2019 17:35:00 11.7 C 8.05 g/m*3 11.7 C 0 km/h
2229 22-02-2019 17:40:00 11.4 C 8.01 g/m*3 11.4 C 0 km/h
2230 22-02-2019 17:45:00 11.3 C 7.96 g/m*3 11.3 C 0 km/h
2231 22-02-2019 17:50:00 11.1 C 7.96 g/m*3 11.1 C 0 km/h
2232 22-02-2019 17:55:00 10.8 C 7.81 g/m*3 10.8 C 3.2 km/h
2233 22-02-2019 18:00:00 10.4 C 7.71 g/m*3 10.4 C 3.2 km/h
2234 22-02-2019 18:05:00 10.1 C 7.56 g/m*3 10.1 C 3.2 km/h
2235 22-02-2019 18:10:00 9.8 C 7.52 g/m*3 9.8 C 4.8 km/h
2236 22-02-2019 18:15:00 9.4 C 7.42 g/m*3 9.4 C 4.8 km/h
2237 22-02-2019 18:20:00 9.2 C 7.32 g/m*3 9.2 C 4.8 km/h
2238 22-02-2019 18:25:00 9 C 7.32 g/m*3 9 C 0 km/h
2239 22-02-2019 18:30:00 8.8 C 7.31 g/m*3 8.8 C 0 km/h
2240 22-02-2019 18:35:00 8.7 C 7.26 g/m*3 8.7 C 0 km/h
2241 22-02-2019 18:40:00 8.6 C 7.3 g/m*3 8.6 C 0 km/h
2242 22-02-2019 18:45:00 8.4 C 7.21 g/m*3 8.4 C 0 km/h
2243 22-02-2019 18:50:00 8.3 C 7.16 g/m*3 8.3 C 0 km/h
2244 22-02-2019 18:55:00 8.2 C 7.2 g/m*3 8.2 C 0 km/h
2245 22-02-2019 19:00:00 8.2 C 7.2 g/m*3 8.2 C 4.8 km/h
2246 22-02-2019 19:05:00 8.3 C 7.25 g/m*3 8.3 C 4.8 km/h
2247 22-02-2019 19:10:00 8.3 C 7.33 g/m*3 8.3 C 4.8 km/h
2248 22-02-2019 19:15:00 8.4 C 7.38 g/m*3 8.4 C 4.8 km/h
2249 22-02-2019 19:20:00 8.5 C 7.34 g/m*3 8.5 C 4.8 km/h
2250 22-02-2019 19:25:00 8.6 C 7.39 g/m*3 8.6 C 4.8 km/h
Sensor: Nr:Datum:Temp:Abs-Feuchte:Windchill:Wind:
Aussen-T/F 2251 22-02-2019 19:30:00 8.6 C 7.39 g/m*3 8.6 C 4.8 km/h
2252 22-02-2019 19:35:00 8.6 C 7.39 g/m*3 8.6 C 4.8 km/h
2253 22-02-2019 19:40:00 8.7 C 7.44 g/m*3 8.7 C 3.2 km/h
2254 22-02-2019 19:45:00 8.7 C 7.44 g/m*3 8.7 C 3.2 km/h
2255 22-02-2019 19:50:00 8.8 C 7.49 g/m*3 8.8 C 3.2 km/h
2256 22-02-2019 19:55:00 8.9 C 7.53 g/m*3 8.9 C 1.6 km/h
2257 22-02-2019 20:00:00 8.9 C 7.45 g/m*3 8.9 C 3.2 km/h
2258 22-02-2019 20:05:00 9 C 7.49 g/m*3 9 C 3.2 km/h
2259 22-02-2019 20:10:00 9 C 7.49 g/m*3 9 C 0 km/h
2260 22-02-2019 20:15:00 9.1 C 7.54 g/m*3 9.1 C 0 km/h
2261 22-02-2019 20:20:00 9.1 C 7.54 g/m*3 9.1 C 3.2 km/h
2262 22-02-2019 20:25:00 9.1 C 7.54 g/m*3 9.1 C 0 km/h
2263 22-02-2019 20:30:00 9.1 C 7.54 g/m*3 9.1 C 3.2 km/h
2264 22-02-2019 20:35:00 9 C 7.49 g/m*3 9 C 1.6 km/h
2265 22-02-2019 20:40:00 8.9 C 7.53 g/m*3 8.9 C 0 km/h
2266 22-02-2019 20:45:00 8.9 C 7.53 g/m*3 8.9 C 0 km/h
2267 22-02-2019 20:50:00 8.9 C 7.53 g/m*3 8.9 C 0 km/h
2268 22-02-2019 20:55:00 8.9 C 7.53 g/m*3 8.9 C 3.2 km/h
2269 22-02-2019 21:00:00 8.8 C 7.49 g/m*3 8.8 C 1.6 km/h
2270 22-02-2019 21:05:00 8.8 C 7.49 g/m*3 8.8 C 0 km/h
2271 22-02-2019 21:10:00 8.8 C 7.49 g/m*3 8.8 C 3.2 km/h
2272 22-02-2019 21:15:00 8.8 C 7.49 g/m*3 8.8 C 1.6 km/h
2273 22-02-2019 21:20:00 8.7 C 7.52 g/m*3 8.7 C 1.6 km/h
2274 22-02-2019 21:25:00 8.7 C 7.44 g/m*3 8.7 C 0 km/h
2275 22-02-2019 21:30:00 8.6 C 7.39 g/m*3 8.6 C 3.2 km/h
Sensor: Nr:Datum:Temp:Abs-Feuchte:Windchill:Wind:
Aussen-T/F 2276 22-02-2019 21:35:00 8.4 C 7.3 g/m*3 8.4 C 1.6 km/h
2277 22-02-2019 21:40:00 8.3 C 7.25 g/m*3 8.3 C 4.8 km/h
2278 22-02-2019 21:45:00 8.1 C 7.16 g/m*3 8.1 C 4.8 km/h
2279 22-02-2019 21:50:00 7.9 C 7.06 g/m*3 7.9 C 3.2 km/h
2280 22-02-2019 21:55:00 7.8 C 7.1 g/m*3 7.8 C 4.8 km/h
2281 22-02-2019 22:00:00 7.6 C 7.01 g/m*3 7.6 C 3.2 km/h
2282 22-02-2019 22:05:00 7.4 C 7 g/m*3 7.4 C 4.8 km/h
2283 22-02-2019 22:10:00 7.3 C 6.95 g/m*3 7.3 C 4.8 km/h
2284 22-02-2019 22:15:00 7.2 C 6.91 g/m*3 7.2 C 3.2 km/h
2285 22-02-2019 22:20:00 7.1 C 6.94 g/m*3 7.1 C 3.2 km/h
2286 22-02-2019 22:25:00 7 C 6.9 g/m*3 7 C 3.2 km/h
2287 22-02-2019 22:30:00 6.9 C 6.85 g/m*3 6.9 C 3.2 km/h
2288 22-02-2019 22:35:00 6.8 C 6.81 g/m*3 6.8 C 1.6 km/h
2289 22-02-2019 22:40:00 6.7 C 6.84 g/m*3 6.7 C 3.2 km/h
2290 22-02-2019 22:45:00 6.6 C 6.79 g/m*3 6.6 C 3.2 km/h
2291 22-02-2019 22:50:00 6.4 C 6.71 g/m*3 6.4 C 0 km/h
2292 22-02-2019 22:55:00 6.3 C 6.66 g/m*3 6.3 C 3.2 km/h
2293 22-02-2019 23:00:00 6.2 C 6.62 g/m*3 6.2 C 3.2 km/h
2294 22-02-2019 23:05:00 6.1 C 6.65 g/m*3 6.1 C 1.6 km/h
2295 22-02-2019 23:10:00 6.1 C 6.65 g/m*3 6.1 C 4.8 km/h
2296 22-02-2019 23:15:00 6 C 6.6 g/m*3 6 C 3.2 km/h
2297 22-02-2019 23:20:00 6 C 6.68 g/m*3 6 C 3.2 km/h
2298 22-02-2019 23:25:00 5.9 C 6.63 g/m*3 5.9 C 3.2 km/h
2299 22-02-2019 23:30:00 5.9 C 6.63 g/m*3 5.9 C 4.8 km/h
2300 22-02-2019 23:35:00 5.9 C 6.63 g/m*3 5.9 C 3.2 km/h
Sensor: Nr:Datum:Temp:Abs-Feuchte:Windchill:Wind:
Aussen-T/F 2301 22-02-2019 23:40:00 5.9 C 6.63 g/m*3 5.9 C 1.6 km/h
2302 22-02-2019 23:45:00 5.9 C 6.63 g/m*3 5.9 C 1.6 km/h
2303 22-02-2019 23:50:00 5.8 C 6.59 g/m*3 5.8 C 1.6 km/h
2304 22-02-2019 23:55:00 5.7 C 6.55 g/m*3 5.7 C 0 km/h
2305 23-02-2019 00:00:00 5.7 C 6.55 g/m*3 5.7 C 3.2 km/h
2306 23-02-2019 00:05:00 5.7 C 6.55 g/m*3 5.7 C 1.6 km/h
2307 23-02-2019 00:10:00 5.6 C 6.5 g/m*3 5.6 C 0 km/h
2308 23-02-2019 00:15:00 5.4 C 6.42 g/m*3 5.4 C 3.2 km/h
2309 23-02-2019 00:20:00 5.3 C 6.38 g/m*3 5.3 C 1.6 km/h
2310 23-02-2019 00:25:00 5.3 C 6.38 g/m*3 5.3 C 0 km/h
2311 23-02-2019 00:30:00 5.2 C 6.33 g/m*3 5.2 C 0 km/h
2312 23-02-2019 00:35:00 5.2 C 6.33 g/m*3 5.2 C 0 km/h
2313 23-02-2019 00:40:00 5.2 C 6.4 g/m*3 5.2 C 0 km/h
2314 23-02-2019 00:45:00 5.1 C 6.36 g/m*3 5.1 C 0 km/h
2315 23-02-2019 00:50:00 5.1 C 6.36 g/m*3 5.1 C 0 km/h
2316 23-02-2019 00:55:00 5 C 6.32 g/m*3 5 C 0 km/h
2317 23-02-2019 01:00:00 4.9 C 6.28 g/m*3 4.9 C 0 km/h
2318 23-02-2019 01:05:00 4.8 C 6.24 g/m*3 4.8 C 0 km/h
2319 23-02-2019 01:10:00 4.8 C 6.24 g/m*3 4.8 C 0 km/h
2320 23-02-2019 01:15:00 4.7 C 6.19 g/m*3 4.7 C 0 km/h
2321 23-02-2019 01:20:00 4.7 C 6.19 g/m*3 4.7 C 0 km/h
2322 23-02-2019 01:25:00 4.6 C 6.15 g/m*3 4.6 C 0 km/h
2323 23-02-2019 01:30:00 4.4 C 6.07 g/m*3 4.4 C 0 km/h
2324 23-02-2019 01:35:00 4.4 C 6.07 g/m*3 4.4 C 0 km/h
2325 23-02-2019 01:40:00 4.4 C 6.07 g/m*3 4.4 C 0 km/h
Sensor: Nr:Datum:Temp:Abs-Feuchte:Windchill:Wind:
Aussen-T/F 2326 23-02-2019 01:45:00 4.3 C 6.1 g/m*3 4.3 C 0 km/h
2327 23-02-2019 01:50:00 4.3 C 6.1 g/m*3 4.3 C 0 km/h
2328 23-02-2019 01:55:00 4.3 C 6.1 g/m*3 4.3 C 0 km/h
2329 23-02-2019 02:00:00 4.3 C 6.1 g/m*3 4.3 C 0 km/h
2330 23-02-2019 02:05:00 4.3 C 6.1 g/m*3 4.3 C 0 km/h
2331 23-02-2019 02:10:00 4.4 C 6.14 g/m*3 4.4 C 0 km/h
2332 23-02-2019 02:15:00 4.4 C 6.14 g/m*3 4.4 C 0 km/h
2333 23-02-2019 02:20:00 4.3 C 6.1 g/m*3 4.3 C 0 km/h
2334 23-02-2019 02:25:00 4.3 C 6.1 g/m*3 4.3 C 0 km/h
2335 23-02-2019 02:30:00 4.2 C 6.06 g/m*3 4.2 C 0 km/h
2336 23-02-2019 02:35:00 4.1 C 6.02 g/m*3 4.1 C 0 km/h
2337 23-02-2019 02:40:00 4 C 5.98 g/m*3 4 C 0 km/h
2338 23-02-2019 02:45:00 4 C 5.98 g/m*3 4 C 0 km/h
2339 23-02-2019 02:50:00 4 C 5.98 g/m*3 4 C 0 km/h
2340 23-02-2019 02:55:00 3.9 C 5.94 g/m*3 3.9 C 0 km/h
2341 23-02-2019 03:00:00 3.8 C 5.9 g/m*3 3.8 C 0 km/h
2342 23-02-2019 03:05:00 3.8 C 5.96 g/m*3 3.8 C 0 km/h
2343 23-02-2019 03:10:00 3.8 C 5.96 g/m*3 3.8 C 0 km/h
2344 23-02-2019 03:15:00 3.8 C 5.96 g/m*3 3.8 C 0 km/h
2345 23-02-2019 03:20:00 3.9 C 6 g/m*3 3.9 C 0 km/h
2346 23-02-2019 03:25:00 3.8 C 5.96 g/m*3 3.8 C 1.6 km/h
2347 23-02-2019 03:30:00 3.7 C 5.92 g/m*3 3.7 C 0 km/h
2348 23-02-2019 03:35:00 3.7 C 5.92 g/m*3 3.7 C 3.2 km/h
2349 23-02-2019 03:40:00 3.8 C 5.96 g/m*3 3.8 C 0 km/h
2350 23-02-2019 03:45:00 3.8 C 5.96 g/m*3 3.8 C 3.2 km/h
Sensor: Nr:Datum:Temp:Abs-Feuchte:Windchill:Wind:
Aussen-T/F 2351 23-02-2019 03:50:00 3.9 C 6 g/m*3 3.9 C 1.6 km/h
2352 23-02-2019 03:55:00 4 C 6.04 g/m*3 4 C 1.6 km/h
2353 23-02-2019 04:00:00 4.1 C 6.08 g/m*3 4.1 C 3.2 km/h
2354 23-02-2019 04:05:00 4.2 C 6.12 g/m*3 4.2 C 0 km/h
2355 23-02-2019 04:10:00 4.2 C 6.12 g/m*3 4.2 C 0 km/h
2356 23-02-2019 04:15:00 4.3 C 6.16 g/m*3 4.3 C 4.8 km/h
2357 23-02-2019 04:20:00 4.3 C 6.16 g/m*3 4.3 C 4.8 km/h
2358 23-02-2019 04:25:00 4.3 C 6.16 g/m*3 4.3 C 0 km/h
2359 23-02-2019 04:30:00 4.4 C 6.2 g/m*3 4.4 C 3.2 km/h
2360 23-02-2019 04:35:00 4.3 C 6.16 g/m*3 4.3 C 0 km/h
2361 23-02-2019 04:40:00 4.3 C 6.16 g/m*3 4.3 C 0 km/h
2362 23-02-2019 04:45:00 4.3 C 6.16 g/m*3 4.3 C 0 km/h
2363 23-02-2019 04:50:00 4.3 C 6.16 g/m*3 4.3 C 0 km/h
2364 23-02-2019 04:55:00 4.2 C 6.12 g/m*3 4.2 C 0 km/h
2365 23-02-2019 05:00:00 4.2 C 6.12 g/m*3 4.2 C 0 km/h
2366 23-02-2019 05:05:00 4.2 C 6.12 g/m*3 4.2 C 0 km/h
2367 23-02-2019 05:10:00 4.3 C 6.16 g/m*3 4.3 C 0 km/h
2368 23-02-2019 05:15:00 4.3 C 6.16 g/m*3 1.89 C 9.7 km/h
2369 23-02-2019 05:20:00 4.5 C 6.18 g/m*3 2.13 C 9.7 km/h
2370 23-02-2019 05:25:00 4.6 C 6.22 g/m*3 4.6 C 3.2 km/h
2371 23-02-2019 05:30:00 4.6 C 6.15 g/m*3 4.6 C 3.2 km/h
2372 23-02-2019 05:35:00 4.7 C 6.19 g/m*3 4.7 C 0 km/h
2373 23-02-2019 05:40:00 4.7 C 6.19 g/m*3 4.7 C 3.2 km/h
2374 23-02-2019 05:45:00 4.7 C 6.13 g/m*3 3.25 C 6.4 km/h
2375 23-02-2019 05:50:00 4.7 C 6.13 g/m*3 4.7 C 4.8 km/h
Sensor: Nr:Datum:Temp:Abs-Feuchte:Windchill:Wind:
Aussen-T/F 2376 23-02-2019 05:55:00 4.8 C 6.1 g/m*3 2.87 C 8.1 km/h
2377 23-02-2019 06:00:00 4.8 C 6.1 g/m*3 4.8 C 3.2 km/h
2378 23-02-2019 06:05:00 4.8 C 6.1 g/m*3 4.8 C 3.2 km/h
2379 23-02-2019 06:10:00 4.9 C 6.08 g/m*3 4.9 C 1.6 km/h
2380 23-02-2019 06:15:00 4.8 C 6.1 g/m*3 4.8 C 0 km/h
2381 23-02-2019 06:20:00 4.8 C 6.1 g/m*3 4.8 C 0 km/h
2382 23-02-2019 06:25:00 4.8 C 5.97 g/m*3 4.8 C 1.6 km/h
2383 23-02-2019 06:30:00 4.8 C 5.97 g/m*3 4.8 C 0 km/h
2384 23-02-2019 06:35:00 4.8 C 5.97 g/m*3 4.8 C 1.6 km/h
2385 23-02-2019 06:40:00 4.9 C 6.01 g/m*3 4.9 C 0 km/h
2386 23-02-2019 06:45:00 4.9 C 6.08 g/m*3 4.9 C 0 km/h
2387 23-02-2019 06:50:00 4.9 C 6.01 g/m*3 4.9 C 0 km/h
2388 23-02-2019 06:55:00 4.8 C 5.97 g/m*3 4.8 C 0 km/h
2389 23-02-2019 07:00:00 4.8 C 5.9 g/m*3 4.8 C 0 km/h
2390 23-02-2019 07:05:00 4.8 C 5.9 g/m*3 4.8 C 0 km/h
2391 23-02-2019 07:10:00 4.8 C 5.9 g/m*3 4.8 C 1.6 km/h
2392 23-02-2019 07:15:00 4.7 C 5.8 g/m*3 3.25 C 6.4 km/h
2393 23-02-2019 07:20:00 4.8 C 5.83 g/m*3 4.8 C 4.8 km/h
2394 23-02-2019 07:25:00 4.8 C 5.83 g/m*3 4.8 C 0 km/h
2395 23-02-2019 07:30:00 4.8 C 5.83 g/m*3 4.8 C 0 km/h
2396 23-02-2019 07:35:00 4.8 C 5.77 g/m*3 4.8 C 3.2 km/h
2397 23-02-2019 07:40:00 4.8 C 5.77 g/m*3 4.8 C 3.2 km/h
2398 23-02-2019 07:45:00 4.8 C 5.83 g/m*3 4.8 C 0 km/h
2399 23-02-2019 07:50:00 4.8 C 5.77 g/m*3 4.8 C 0 km/h
2400 23-02-2019 07:55:00 4.8 C 5.77 g/m*3 4.8 C 0 km/h
Sensor: Nr:Datum:Temp:Abs-Feuchte:Windchill:Wind:
Aussen-T/F 2401 23-02-2019 08:00:00 4.8 C 5.77 g/m*3 4.8 C 1.6 km/h
2402 23-02-2019 08:05:00 4.8 C 5.83 g/m*3 4.8 C 0 km/h
2403 23-02-2019 08:10:00 4.8 C 5.77 g/m*3 4.8 C 3.2 km/h
2404 23-02-2019 08:15:00 4.8 C 5.7 g/m*3 4.8 C 4.8 km/h
2405 23-02-2019 08:20:00 4.8 C 5.7 g/m*3 4.8 C 3.2 km/h
2406 23-02-2019 08:25:00 4.8 C 5.7 g/m*3 4.8 C 3.2 km/h
2407 23-02-2019 08:30:00 4.9 C 5.74 g/m*3 4.9 C 1.6 km/h
2408 23-02-2019 08:35:00 4.9 C 5.74 g/m*3 4.9 C 3.2 km/h
2409 23-02-2019 08:40:00 4.9 C 5.67 g/m*3 3.48 C 6.4 km/h
2410 23-02-2019 08:45:00 4.9 C 5.67 g/m*3 2.99 C 8.1 km/h
2411 23-02-2019 08:50:00 4.9 C 5.67 g/m*3 3.48 C 6.4 km/h
2412 23-02-2019 08:55:00 4.9 C 5.67 g/m*3 4.9 C 3.2 km/h
2413 23-02-2019 09:00:00 4.9 C 5.67 g/m*3 2.61 C 9.7 km/h
2414 23-02-2019 09:05:00 4.9 C 5.6 g/m*3 3.48 C 6.4 km/h
2415 23-02-2019 09:10:00 4.8 C 5.57 g/m*3 2.49 C 9.7 km/h
2416 23-02-2019 09:15:00 4.8 C 5.57 g/m*3 2.15 C 11.3 km/h
2417 23-02-2019 09:20:00 4.8 C 5.63 g/m*3 2.87 C 8.1 km/h
2418 23-02-2019 09:25:00 4.8 C 5.63 g/m*3 2.87 C 8.1 km/h
2419 23-02-2019 09:30:00 4.8 C 5.63 g/m*3 2.15 C 11.3 km/h
2420 23-02-2019 09:35:00 4.7 C 5.6 g/m*3 2.76 C 8.1 km/h
2421 23-02-2019 09:40:00 4.7 C 5.53 g/m*3 2.76 C 8.1 km/h
2422 23-02-2019 09:45:00 4.7 C 5.53 g/m*3 2.76 C 8.1 km/h
2423 23-02-2019 09:50:00 4.7 C 5.53 g/m*3 2.37 C 9.7 km/h
2424 23-02-2019 09:55:00 4.7 C 5.53 g/m*3 4.7 C 3.2 km/h
2425 23-02-2019 10:00:00 4.7 C 5.53 g/m*3 4.7 C 1.6 km/h
Sensor: Nr:Datum:Temp:Abs-Feuchte:Windchill:Wind:
Aussen-T/F 2426 23-02-2019 10:05:00 4.7 C 5.53 g/m*3 4.7 C 1.6 km/h
2427 23-02-2019 10:10:00 4.7 C 5.53 g/m*3 3.25 C 6.4 km/h
2428 23-02-2019 10:15:00 4.8 C 5.57 g/m*3 4.8 C 4.8 km/h
2429 23-02-2019 10:20:00 4.8 C 5.5 g/m*3 3.36 C 6.4 km/h
2430 23-02-2019 10:25:00 4.8 C 5.5 g/m*3 2.49 C 9.7 km/h
2431 23-02-2019 10:30:00 4.9 C 5.54 g/m*3 3.48 C 6.4 km/h
2432 23-02-2019 10:35:00 5 C 5.5 g/m*3 5 C 4.8 km/h
2433 23-02-2019 10:40:00 5.1 C 5.54 g/m*3 3.71 C 6.4 km/h
2434 23-02-2019 10:45:00 5.2 C 5.58 g/m*3 3.82 C 6.4 km/h
2435 23-02-2019 10:50:00 5.3 C 5.61 g/m*3 5.3 C 3.2 km/h
2436 23-02-2019 10:55:00 5.4 C 5.58 g/m*3 4.06 C 6.4 km/h
2437 23-02-2019 11:00:00 5.4 C 5.65 g/m*3 5.4 C 4.8 km/h
2438 23-02-2019 11:05:00 5.6 C 5.73 g/m*3 5.6 C 3.2 km/h
2439 23-02-2019 11:10:00 5.7 C 5.69 g/m*3 3.93 C 8.1 km/h
2440 23-02-2019 11:15:00 5.8 C 5.73 g/m*3 4.52 C 6.4 km/h
2441 23-02-2019 11:20:00 5.9 C 5.77 g/m*3 5.9 C 3.2 km/h
2442 23-02-2019 11:25:00 6.1 C 5.84 g/m*3 6.1 C 4.8 km/h
2443 23-02-2019 11:30:00 6.2 C 5.81 g/m*3 4.98 C 6.4 km/h
2444 23-02-2019 11:35:00 6.3 C 5.85 g/m*3 5.1 C 6.4 km/h
2445 23-02-2019 11:40:00 6.4 C 5.81 g/m*3 5.21 C 6.4 km/h
2446 23-02-2019 11:45:00 6.6 C 5.81 g/m*3 6.6 C 4.8 km/h
2447 23-02-2019 11:50:00 6.7 C 5.85 g/m*3 5.11 C 8.1 km/h
2448 23-02-2019 11:55:00 6.8 C 5.81 g/m*3 5.22 C 8.1 km/h
2449 23-02-2019 12:00:00 6.9 C 5.85 g/m*3 5.34 C 8.1 km/h
2450 23-02-2019 12:05:00 7.1 C 5.85 g/m*3 6.02 C 6.4 km/h
Sensor: Nr:Datum:Temp:Abs-Feuchte:Windchill:Wind:
Aussen-T/F 2451 23-02-2019 12:10:00 7.2 C 5.81 g/m*3 5.69 C 8.1 km/h
2452 23-02-2019 12:15:00 7.3 C 5.85 g/m*3 4.9 C 12.9 km/h
2453 23-02-2019 12:20:00 7.5 C 5.84 g/m*3 6.05 C 8.1 km/h
2454 23-02-2019 12:25:00 7.7 C 5.84 g/m*3 7.7 C 4.8 km/h
2455 23-02-2019 12:30:00 7.8 C 5.79 g/m*3 6.06 C 9.7 km/h
2456 23-02-2019 12:35:00 7.8 C 5.79 g/m*3 5.77 C 11.3 km/h
2457 23-02-2019 12:40:00 7.9 C 5.75 g/m*3 6.52 C 8.1 km/h
2458 23-02-2019 12:45:00 8 C 5.87 g/m*3 8 C 4.8 km/h
2459 23-02-2019 12:50:00 8.1 C 5.82 g/m*3 6.75 C 8.1 km/h
2460 23-02-2019 12:55:00 8.2 C 5.95 g/m*3 6.87 C 8.1 km/h
2461 23-02-2019 13:00:00 8.3 C 5.82 g/m*3 6.66 C 9.7 km/h
2462 23-02-2019 13:05:00 8.4 C 5.77 g/m*3 6.01 C 14.5 km/h
2463 23-02-2019 13:10:00 8.4 C 5.85 g/m*3 6.49 C 11.3 km/h
2464 23-02-2019 13:15:00 8.7 C 5.88 g/m*3 7.13 C 9.7 km/h
2465 23-02-2019 13:20:00 8.9 C 5.96 g/m*3 7.37 C 9.7 km/h
2466 23-02-2019 13:25:00 9.1 C 5.94 g/m*3 7.61 C 9.7 km/h
2467 23-02-2019 13:30:00 9.3 C 5.93 g/m*3 7.33 C 12.9 km/h
2468 23-02-2019 13:35:00 9.3 C 5.93 g/m*3 7.58 C 11.3 km/h
2469 23-02-2019 13:40:00 9.4 C 6.06 g/m*3 9.4 C 3.2 km/h
2470 23-02-2019 13:45:00 9.6 C 5.95 g/m*3 8.52 C 8.1 km/h
2471 23-02-2019 13:50:00 9.6 C 5.95 g/m*3 8.52 C 8.1 km/h
2472 23-02-2019 13:55:00 9.7 C 5.9 g/m*3 9.7 C 4.8 km/h
2473 23-02-2019 14:00:00 9.7 C 5.9 g/m*3 9.02 C 6.4 km/h
2474 23-02-2019 14:05:00 9.7 C 5.81 g/m*3 9.7 C 3.2 km/h
2475 23-02-2019 14:10:00 9.7 C 5.9 g/m*3 9.7 C 4.8 km/h
Sensor: Nr:Datum:Temp:Abs-Feuchte:Windchill:Wind:
Aussen-T/F 2476 23-02-2019 14:15:00 9.8 C 5.85 g/m*3 9.8 C 4.8 km/h
2477 23-02-2019 14:20:00 9.8 C 5.75 g/m*3 9.14 C 6.4 km/h
2478 23-02-2019 14:25:00 9.9 C 5.79 g/m*3 9.25 C 6.4 km/h
2479 23-02-2019 14:30:00 10 C 5.73 g/m*3 8.99 C 8.1 km/h
2480 23-02-2019 14:35:00 10.1 C 5.67 g/m*3 9.1 C 8.1 km/h
2481 23-02-2019 14:40:00 10.2 C 5.61 g/m*3 9.22 C 8.1 km/h
2482 23-02-2019 14:45:00 10.3 C 5.17 g/m*3 9.72 C 6.4 km/h
2483 23-02-2019 14:50:00 10.4 C 5.01 g/m*3 10.4 C 4.8 km/h
2484 23-02-2019 14:55:00 10.6 C 4.78 g/m*3 9.4 C 9.7 km/h
2485 23-02-2019 15:00:00 10.6 C 4.59 g/m*3 10.06 C 6.4 km/h
2486 23-02-2019 15:05:00 10.7 C 4.52 g/m*3 10.7 C 4.8 km/h
2487 23-02-2019 15:10:00 10.8 C 4.74 g/m*3 10.8 C 0 km/h
2488 23-02-2019 15:15:00 10.8 C 4.55 g/m*3 10.29 C 6.4 km/h
2489 23-02-2019 15:20:00 10.8 C 4.55 g/m*3 10.8 C 4.8 km/h
2490 23-02-2019 15:25:00 10.8 C 4.55 g/m*3 10.8 C 1.6 km/h
2491 23-02-2019 15:30:00 10.8 C 4.45 g/m*3 10.8 C 4.8 km/h
2492 23-02-2019 15:35:00 10.8 C 4.15 g/m*3 9.38 C 11.3 km/h
2493 23-02-2019 15:40:00 10.8 C 4.15 g/m*3 10.8 C 4.8 km/h
2494 23-02-2019 15:45:00 10.8 C 4.25 g/m*3 10.8 C 4.8 km/h
2495 23-02-2019 15:50:00 10.8 C 4.15 g/m*3 9.64 C 9.7 km/h
2496 23-02-2019 15:55:00 10.9 C 4.38 g/m*3 10.9 C 3.2 km/h
2497 23-02-2019 16:00:00 10.9 C 4.28 g/m*3 10.41 C 6.4 km/h
2498 23-02-2019 16:05:00 10.9 C 4.28 g/m*3 10.9 C 3.2 km/h
2499 23-02-2019 16:10:00 11.1 C 4.63 g/m*3 11.1 C 4.8 km/h
2500 23-02-2019 16:15:00 11.1 C 5.24 g/m*3 11.1 C 4.8 km/h
Sensor: Nr:Datum:Temp:Abs-Feuchte:Windchill:Wind:
Aussen-T/F 2501 23-02-2019 16:20:00 11 C 4.3 g/m*3 11 C 4.8 km/h
2502 23-02-2019 16:25:00 10.9 C 4.18 g/m*3 10.41 C 6.4 km/h
2503 23-02-2019 16:30:00 10.8 C 4.35 g/m*3 10.8 C 3.2 km/h
2504 23-02-2019 16:35:00 10.8 C 4.65 g/m*3 10.8 C 1.6 km/h
2505 23-02-2019 16:40:00 10.6 C 4.49 g/m*3 10.6 C 1.6 km/h
2506 23-02-2019 16:45:00 10.4 C 5.01 g/m*3 10.4 C 1.6 km/h
2507 23-02-2019 16:50:00 10.2 C 5.04 g/m*3 10.2 C 0 km/h
2508 23-02-2019 16:55:00 9.9 C 5.04 g/m*3 9.9 C 0 km/h
2509 23-02-2019 17:00:00 9.6 C 5.13 g/m*3 9.6 C 0 km/h
2510 23-02-2019 17:05:00 9.3 C 5.3 g/m*3 9.3 C 1.6 km/h
2511 23-02-2019 17:10:00 8.9 C 5.34 g/m*3 8.9 C 1.6 km/h
2512 23-02-2019 17:15:00 8.7 C 5.36 g/m*3 8.7 C 3.2 km/h
2513 23-02-2019 17:20:00 8.3 C 5.23 g/m*3 8.3 C 3.2 km/h
2514 23-02-2019 17:25:00 8 C 5.29 g/m*3 8 C 3.2 km/h
2515 23-02-2019 17:30:00 7.8 C 5.22 g/m*3 7.8 C 3.2 km/h
2516 23-02-2019 17:35:00 7.5 C 5.2 g/m*3 7.5 C 3.2 km/h
2517 23-02-2019 17:40:00 7.3 C 5.14 g/m*3 7.3 C 3.2 km/h
2518 23-02-2019 17:45:00 7.1 C 5.15 g/m*3 7.1 C 3.2 km/h
2519 23-02-2019 17:50:00 6.8 C 5.12 g/m*3 6.8 C 0 km/h
2520 23-02-2019 17:55:00 6.6 C 5.06 g/m*3 6.6 C 0 km/h
2521 23-02-2019 18:00:00 6.4 C 5.14 g/m*3 6.4 C 0 km/h
2522 23-02-2019 18:05:00 6.2 C 5.15 g/m*3 6.2 C 0 km/h
2523 23-02-2019 18:10:00 5.9 C 5.05 g/m*3 5.9 C 0 km/h
2524 23-02-2019 18:15:00 5.7 C 4.98 g/m*3 5.7 C 0 km/h
2525 23-02-2019 18:20:00 5.6 C 5.02 g/m*3 5.6 C 0 km/h
Sensor: Nr:Datum:Temp:Abs-Feuchte:Windchill:Wind:
Aussen-T/F 2526 23-02-2019 18:25:00 5.4 C 4.95 g/m*3 5.4 C 0 km/h
2527 23-02-2019 18:30:00 5.3 C 4.92 g/m*3 5.3 C 0 km/h
2528 23-02-2019 18:35:00 5.2 C 4.89 g/m*3 5.2 C 0 km/h
2529 23-02-2019 18:40:00 5.1 C 4.92 g/m*3 5.1 C 0 km/h
2530 23-02-2019 18:45:00 5 C 4.89 g/m*3 5 C 0 km/h
2531 23-02-2019 18:50:00 4.9 C 4.86 g/m*3 4.9 C 0 km/h
2532 23-02-2019 18:55:00 4.8 C 4.83 g/m*3 4.8 C 0 km/h
2533 23-02-2019 19:00:00 4.7 C 4.86 g/m*3 4.7 C 0 km/h
2534 23-02-2019 19:05:00 4.7 C 4.86 g/m*3 4.7 C 0 km/h
2535 23-02-2019 19:10:00 4.6 C 4.83 g/m*3 4.6 C 0 km/h
2536 23-02-2019 19:15:00 4.6 C 4.9 g/m*3 4.6 C 0 km/h
2537 23-02-2019 19:20:00 4.5 C 4.86 g/m*3 4.5 C 0 km/h
2538 23-02-2019 19:25:00 4.4 C 4.77 g/m*3 4.4 C 0 km/h
2539 23-02-2019 19:30:00 4.3 C 4.8 g/m*3 4.3 C 0 km/h
2540 23-02-2019 19:35:00 4.3 C 4.86 g/m*3 4.3 C 0 km/h
2541 23-02-2019 19:40:00 4.2 C 4.83 g/m*3 4.2 C 0 km/h
2542 23-02-2019 19:45:00 4.1 C 4.74 g/m*3 4.1 C 0 km/h
2543 23-02-2019 19:50:00 4.1 C 4.8 g/m*3 4.1 C 0 km/h
2544 23-02-2019 19:55:00 3.9 C 4.74 g/m*3 3.9 C 0 km/h
2545 23-02-2019 20:00:00 3.9 C 4.74 g/m*3 3.9 C 0 km/h
2546 23-02-2019 20:05:00 3.8 C 4.71 g/m*3 3.8 C 0 km/h
2547 23-02-2019 20:10:00 3.7 C 4.67 g/m*3 3.7 C 0 km/h
2548 23-02-2019 20:15:00 3.7 C 4.67 g/m*3 3.7 C 0 km/h
2549 23-02-2019 20:20:00 3.6 C 4.64 g/m*3 3.6 C 0 km/h
2550 23-02-2019 20:25:00 3.5 C 4.67 g/m*3 3.5 C 0 km/h
Sensor: Nr:Datum:Temp:Abs-Feuchte:Windchill:Wind:
Aussen-T/F 2551 23-02-2019 20:30:00 3.4 C 4.64 g/m*3 3.4 C 0 km/h
2552 23-02-2019 20:35:00 3.3 C 4.67 g/m*3 3.3 C 0 km/h
2553 23-02-2019 20:40:00 3.2 C 4.64 g/m*3 3.2 C 0 km/h
2554 23-02-2019 20:45:00 3 C 4.58 g/m*3 3 C 0 km/h
2555 23-02-2019 20:50:00 2.8 C 4.52 g/m*3 2.8 C 0 km/h
2556 23-02-2019 20:55:00 2.7 C 4.54 g/m*3 2.7 C 0 km/h
2557 23-02-2019 21:00:00 2.6 C 4.51 g/m*3 2.6 C 0 km/h
2558 23-02-2019 21:05:00 2.4 C 4.51 g/m*3 2.4 C 0 km/h
2559 23-02-2019 21:10:00 2.3 C 4.42 g/m*3 2.3 C 0 km/h
2560 23-02-2019 21:15:00 2.2 C 4.39 g/m*3 2.2 C 0 km/h
2561 23-02-2019 21:20:00 2.2 C 4.45 g/m*3 2.2 C 0 km/h
2562 23-02-2019 21:25:00 2.1 C 4.42 g/m*3 2.1 C 0 km/h
2563 23-02-2019 21:30:00 2.1 C 4.48 g/m*3 2.1 C 0 km/h
2564 23-02-2019 21:35:00 2 C 4.39 g/m*3 2 C 0 km/h
2565 23-02-2019 21:40:00 1.8 C 4.39 g/m*3 1.8 C 0 km/h
2566 23-02-2019 21:45:00 1.7 C 4.36 g/m*3 1.7 C 0 km/h
2567 23-02-2019 21:50:00 1.6 C 4.38 g/m*3 1.6 C 0 km/h
2568 23-02-2019 21:55:00 1.4 C 4.32 g/m*3 1.4 C 0 km/h
2569 23-02-2019 22:00:00 1.3 C 4.29 g/m*3 1.3 C 0 km/h
2570 23-02-2019 22:05:00 1.2 C 4.31 g/m*3 1.2 C 0 km/h
2571 23-02-2019 22:10:00 1.2 C 4.31 g/m*3 1.2 C 0 km/h
2572 23-02-2019 22:15:00 1.1 C 4.34 g/m*3 1.1 C 0 km/h
2573 23-02-2019 22:20:00 1.1 C 4.39 g/m*3 1.1 C 0 km/h
2574 23-02-2019 22:25:00 1.1 C 4.39 g/m*3 1.1 C 0 km/h
2575 23-02-2019 22:30:00 1.1 C 4.34 g/m*3 1.1 C 0 km/h
Sensor: Nr:Datum:Temp:Abs-Feuchte:Windchill:Wind:
Aussen-T/F 2576 23-02-2019 22:35:00 0.9 C 4.28 g/m*3 0.9 C 0 km/h
2577 23-02-2019 22:40:00 0.8 C 4.25 g/m*3 0.8 C 0 km/h
2578 23-02-2019 22:45:00 0.7 C 4.22 g/m*3 0.7 C 0 km/h
2579 23-02-2019 22:50:00 0.7 C 4.22 g/m*3 0.7 C 0 km/h
2580 23-02-2019 22:55:00 0.6 C 4.19 g/m*3 0.6 C 0 km/h
2581 23-02-2019 23:00:00 0.6 C 4.24 g/m*3 0.6 C 0 km/h
2582 23-02-2019 23:05:00 0.6 C 4.24 g/m*3 0.6 C 0 km/h
2583 23-02-2019 23:10:00 0.5 C 4.16 g/m*3 0.5 C 0 km/h
2584 23-02-2019 23:15:00 0.4 C 4.13 g/m*3 0.4 C 0 km/h
2585 23-02-2019 23:20:00 0.4 C 4.18 g/m*3 0.4 C 0 km/h
2586 23-02-2019 23:25:00 0.5 C 4.16 g/m*3 0.5 C 0 km/h
2587 23-02-2019 23:30:00 0.4 C 4.13 g/m*3 0.4 C 0 km/h
2588 23-02-2019 23:35:00 0.5 C 4.16 g/m*3 0.5 C 0 km/h
2589 23-02-2019 23:40:00 0.4 C 4.13 g/m*3 0.4 C 0 km/h
2590 23-02-2019 23:45:00 0.4 C 4.18 g/m*3 0.4 C 0 km/h
2591 23-02-2019 23:50:00 0.4 C 4.18 g/m*3 0.4 C 0 km/h
2592 23-02-2019 23:55:00 0.4 C 4.18 g/m*3 0.4 C 0 km/h
2593 24-02-2019 00:00:00 0.2 C 4.13 g/m*3 0.2 C 0 km/h
2594 24-02-2019 00:05:00 0.1 C 4.1 g/m*3 0.1 C 0 km/h
2595 24-02-2019 00:10:00 -0.1 C 4.04 g/m*3 -0.1 C 0 km/h
2596 24-02-2019 00:15:00 -0.2 C 4.06 g/m*3 -0.2 C 0 km/h
2597 24-02-2019 00:20:00 -0.3 C 4.03 g/m*3 -0.3 C 0 km/h
2598 24-02-2019 00:25:00 -0.3 C 4.03 g/m*3 -0.3 C 0 km/h
2599 24-02-2019 00:30:00 -0.3 C 4.08 g/m*3 -0.3 C 0 km/h
2600 24-02-2019 00:35:00 -0.3 C 4.08 g/m*3 -0.3 C 0 km/h
Sensor: Nr:Datum:Temp:Abs-Feuchte:Windchill:Wind:
Aussen-T/F 2601 24-02-2019 00:40:00 -0.4 C 4.05 g/m*3 -0.4 C 0 km/h
2602 24-02-2019 00:45:00 -0.4 C 4.05 g/m*3 -0.4 C 0 km/h
2603 24-02-2019 00:50:00 -0.5 C 4.07 g/m*3 -0.5 C 0 km/h
2604 24-02-2019 00:55:00 -0.6 C 4.04 g/m*3 -0.6 C 0 km/h
2605 24-02-2019 01:00:00 -0.6 C 4.04 g/m*3 -0.6 C 0 km/h
2606 24-02-2019 01:05:00 -0.6 C 4.04 g/m*3 -0.6 C 0 km/h
2607 24-02-2019 01:10:00 -0.6 C 4.04 g/m*3 -0.6 C 0 km/h
2608 24-02-2019 01:15:00 -0.6 C 4.04 g/m*3 -0.6 C 0 km/h
2609 24-02-2019 01:20:00 -0.6 C 4.04 g/m*3 -0.6 C 0 km/h
2610 24-02-2019 01:25:00 -0.6 C 4.04 g/m*3 -0.6 C 0 km/h
2611 24-02-2019 01:30:00 -0.7 C 4.02 g/m*3 -0.7 C 0 km/h
2612 24-02-2019 01:35:00 -0.7 C 4.02 g/m*3 -0.7 C 0 km/h
2613 24-02-2019 01:40:00 -0.7 C 4.02 g/m*3 -0.7 C 0 km/h
2614 24-02-2019 01:45:00 -0.7 C 4.02 g/m*3 -0.7 C 0 km/h
2615 24-02-2019 01:50:00 -0.8 C 3.99 g/m*3 -0.8 C 0 km/h
2616 24-02-2019 01:55:00 -0.8 C 3.99 g/m*3 -0.8 C 0 km/h
2617 24-02-2019 02:00:00 -0.9 C 3.96 g/m*3 -0.9 C 0 km/h
2618 24-02-2019 02:05:00 -1 C 3.93 g/m*3 -1 C 0 km/h
2619 24-02-2019 02:10:00 -1.1 C 3.95 g/m*3 -1.1 C 0 km/h
2620 24-02-2019 02:15:00 -1.1 C 3.95 g/m*3 -1.1 C 0 km/h
2621 24-02-2019 02:20:00 -1.1 C 3.95 g/m*3 -1.1 C 0 km/h
2622 24-02-2019 02:25:00 -1.2 C 3.92 g/m*3 -1.2 C 0 km/h
2623 24-02-2019 02:30:00 -1.2 C 3.92 g/m*3 -1.2 C 0 km/h
2624 24-02-2019 02:35:00 -1.2 C 3.92 g/m*3 -1.2 C 0 km/h
2625 24-02-2019 02:40:00 -1.3 C 3.9 g/m*3 -1.3 C 0 km/h
Sensor: Nr:Datum:Temp:Abs-Feuchte:Windchill:Wind:
Aussen-T/F 2626 24-02-2019 02:45:00 -1.3 C 3.9 g/m*3 -1.3 C 0 km/h
2627 24-02-2019 02:50:00 -1.3 C 3.9 g/m*3 -1.3 C 0 km/h
2628 24-02-2019 02:55:00 -1.3 C 3.94 g/m*3 -1.3 C 0 km/h
2629 24-02-2019 03:00:00 -1.3 C 3.94 g/m*3 -1.3 C 0 km/h
2630 24-02-2019 03:05:00 -1.4 C 3.91 g/m*3 -1.4 C 0 km/h
2631 24-02-2019 03:10:00 -1.4 C 3.91 g/m*3 -1.4 C 0 km/h
2632 24-02-2019 03:15:00 -1.4 C 3.91 g/m*3 -1.4 C 0 km/h
2633 24-02-2019 03:20:00 -1.4 C 3.91 g/m*3 -1.4 C 0 km/h
2634 24-02-2019 03:25:00 -1.5 C 3.89 g/m*3 -1.5 C 0 km/h
2635 24-02-2019 03:30:00 -1.5 C 3.89 g/m*3 -1.5 C 0 km/h
2636 24-02-2019 03:35:00 -1.6 C 3.86 g/m*3 -1.6 C 0 km/h
2637 24-02-2019 03:40:00 -1.6 C 3.86 g/m*3 -1.6 C 0 km/h
2638 24-02-2019 03:45:00 -1.6 C 3.86 g/m*3 -1.6 C 0 km/h
2639 24-02-2019 03:50:00 -1.6 C 3.9 g/m*3 -1.6 C 0 km/h
2640 24-02-2019 03:55:00 -1.7 C 3.87 g/m*3 -1.7 C 0 km/h
2641 24-02-2019 04:00:00 -1.7 C 3.87 g/m*3 -1.7 C 0 km/h
2642 24-02-2019 04:05:00 -1.7 C 3.87 g/m*3 -1.7 C 0 km/h
2643 24-02-2019 04:10:00 -1.7 C 3.87 g/m*3 -1.7 C 0 km/h
2644 24-02-2019 04:15:00 -1.6 C 3.9 g/m*3 -1.6 C 0 km/h
2645 24-02-2019 04:20:00 -1.7 C 3.87 g/m*3 -1.7 C 0 km/h
2646 24-02-2019 04:25:00 -1.7 C 3.87 g/m*3 -1.7 C 0 km/h
2647 24-02-2019 04:30:00 -1.7 C 3.87 g/m*3 -1.7 C 0 km/h
2648 24-02-2019 04:35:00 -1.8 C 3.85 g/m*3 -1.8 C 0 km/h
2649 24-02-2019 04:40:00 -1.8 C 3.85 g/m*3 -1.8 C 0 km/h
2650 24-02-2019 04:45:00 -1.8 C 3.85 g/m*3 -1.8 C 0 km/h
Sensor: Nr:Datum:Temp:Abs-Feuchte:Windchill:Wind:
Aussen-T/F 2651 24-02-2019 04:50:00 -1.8 C 3.85 g/m*3 -1.8 C 0 km/h
2652 24-02-2019 04:55:00 -1.8 C 3.85 g/m*3 -1.8 C 0 km/h
2653 24-02-2019 05:00:00 -1.8 C 3.85 g/m*3 -1.8 C 0 km/h
2654 24-02-2019 05:05:00 -1.8 C 3.85 g/m*3 -1.8 C 0 km/h
2655 24-02-2019 05:10:00 -1.8 C 3.85 g/m*3 -1.8 C 0 km/h
2656 24-02-2019 05:15:00 -1.8 C 3.85 g/m*3 -1.8 C 0 km/h
2657 24-02-2019 05:20:00 -1.8 C 3.85 g/m*3 -1.8 C 0 km/h
2658 24-02-2019 05:25:00 -1.9 C 3.82 g/m*3 -1.9 C 0 km/h
2659 24-02-2019 05:30:00 -1.9 C 3.82 g/m*3 -1.9 C 0 km/h
2660 24-02-2019 05:35:00 -1.9 C 3.82 g/m*3 -1.9 C 0 km/h
2661 24-02-2019 05:40:00 -2 C 3.79 g/m*3 -2 C 0 km/h
2662 24-02-2019 05:45:00 -2 C 3.79 g/m*3 -2 C 0 km/h
2663 24-02-2019 05:50:00 -1.9 C 3.82 g/m*3 -1.9 C 0 km/h
2664 24-02-2019 05:55:00 -1.9 C 3.82 g/m*3 -1.9 C 0 km/h
2665 24-02-2019 06:00:00 -1.9 C 3.82 g/m*3 -1.9 C 0 km/h
2666 24-02-2019 06:05:00 -1.9 C 3.82 g/m*3 -1.9 C 0 km/h
2667 24-02-2019 06:10:00 -2 C 3.79 g/m*3 -2 C 0 km/h
2668 24-02-2019 06:15:00 -2 C 3.79 g/m*3 -2 C 0 km/h
2669 24-02-2019 06:20:00 -2.1 C 3.77 g/m*3 -2.1 C 0 km/h
2670 24-02-2019 06:25:00 -2.1 C 3.77 g/m*3 -2.1 C 0 km/h
2671 24-02-2019 06:30:00 -2.1 C 3.81 g/m*3 -2.1 C 0 km/h
2672 24-02-2019 06:35:00 -2.1 C 3.81 g/m*3 -2.1 C 0 km/h
2673 24-02-2019 06:40:00 -2.1 C 3.81 g/m*3 -2.1 C 0 km/h
2674 24-02-2019 06:45:00 -2.1 C 3.81 g/m*3 -2.1 C 0 km/h
2675 24-02-2019 06:50:00 -2.2 C 3.78 g/m*3 -2.2 C 0 km/h
Sensor: Nr:Datum:Temp:Abs-Feuchte:Windchill:Wind:
Aussen-T/F 2676 24-02-2019 06:55:00 -2.2 C 3.78 g/m*3 -2.2 C 0 km/h
2677 24-02-2019 07:00:00 -2.2 C 3.78 g/m*3 -2.2 C 0 km/h
2678 24-02-2019 07:05:00 -2.3 C 3.76 g/m*3 -2.3 C 0 km/h
2679 24-02-2019 07:10:00 -2.3 C 3.76 g/m*3 -2.3 C 0 km/h
2680 24-02-2019 07:15:00 -2.3 C 3.76 g/m*3 -2.3 C 0 km/h
2681 24-02-2019 07:20:00 -2.4 C 3.73 g/m*3 -2.4 C 0 km/h
2682 24-02-2019 07:25:00 -2.4 C 3.73 g/m*3 -2.4 C 0 km/h
2683 24-02-2019 07:30:00 -2.4 C 3.73 g/m*3 -2.4 C 0 km/h
2684 24-02-2019 07:35:00 -2.4 C 3.73 g/m*3 -2.4 C 0 km/h
2685 24-02-2019 07:40:00 -2.4 C 3.73 g/m*3 -2.4 C 0 km/h
2686 24-02-2019 07:45:00 -2.4 C 3.77 g/m*3 -2.4 C 0 km/h
2687 24-02-2019 07:50:00 -2.4 C 3.77 g/m*3 -2.4 C 0 km/h
2688 24-02-2019 07:55:00 -2.4 C 3.77 g/m*3 -2.4 C 0 km/h
2689 24-02-2019 08:00:00 -2.3 C 3.8 g/m*3 -2.3 C 0 km/h
2690 24-02-2019 08:05:00 -2.3 C 3.8 g/m*3 -2.3 C 0 km/h
2691 24-02-2019 08:10:00 -2.2 C 3.82 g/m*3 -2.2 C 0 km/h
2692 24-02-2019 08:15:00 -2.2 C 3.82 g/m*3 -2.2 C 0 km/h
2693 24-02-2019 08:20:00 -2.2 C 3.82 g/m*3 -2.2 C 0 km/h
2694 24-02-2019 08:25:00 -2.1 C 3.85 g/m*3 -2.1 C 0 km/h
2695 24-02-2019 08:30:00 -2.1 C 3.85 g/m*3 -2.1 C 0 km/h
2696 24-02-2019 08:35:00 -2 C 3.88 g/m*3 -2 C 0 km/h
2697 24-02-2019 08:40:00 -2 C 3.88 g/m*3 -2 C 0 km/h
2698 24-02-2019 08:45:00 -2 C 3.88 g/m*3 -2 C 0 km/h
2699 24-02-2019 08:50:00 -2 C 3.88 g/m*3 -2 C 0 km/h
2700 24-02-2019 08:55:00 -1.9 C 3.91 g/m*3 -1.9 C 0 km/h
Sensor: Nr:Datum:Temp:Abs-Feuchte:Windchill:Wind:
Aussen-T/F 2701 24-02-2019 09:00:00 -1.9 C 3.91 g/m*3 -1.9 C 0 km/h
2702 24-02-2019 09:05:00 -1.8 C 3.93 g/m*3 -1.8 C 0 km/h
2703 24-02-2019 09:10:00 -1.8 C 3.93 g/m*3 -1.8 C 0 km/h
2704 24-02-2019 09:15:00 -1.7 C 3.96 g/m*3 -1.7 C 0 km/h
2705 24-02-2019 09:20:00 -1.6 C 3.99 g/m*3 -1.6 C 0 km/h
2706 24-02-2019 09:25:00 -1.6 C 3.99 g/m*3 -1.6 C 0 km/h
2707 24-02-2019 09:30:00 -1.5 C 4.02 g/m*3 -1.5 C 0 km/h
2708 24-02-2019 09:35:00 -1.4 C 4.04 g/m*3 -1.4 C 0 km/h
2709 24-02-2019 09:40:00 -1.3 C 4.07 g/m*3 -1.3 C 0 km/h
2710 24-02-2019 09:45:00 -1.2 C 4.1 g/m*3 -1.2 C 0 km/h
2711 24-02-2019 09:50:00 -1.1 C 4.13 g/m*3 -1.1 C 0 km/h
2712 24-02-2019 09:55:00 -1 C 4.11 g/m*3 -1 C 0 km/h
2713 24-02-2019 10:00:00 -0.9 C 4.14 g/m*3 -0.9 C 0 km/h
2714 24-02-2019 10:05:00 -0.8 C 4.17 g/m*3 -0.8 C 0 km/h
2715 24-02-2019 10:10:00 -0.6 C 4.18 g/m*3 -0.6 C 0 km/h
2716 24-02-2019 10:15:00 -0.4 C 4.24 g/m*3 -0.4 C 0 km/h
2717 24-02-2019 10:20:00 -0.2 C 4.3 g/m*3 -0.2 C 0 km/h
2718 24-02-2019 10:25:00 0 C 4.31 g/m*3 0 C 0 km/h
2719 24-02-2019 10:30:00 0.3 C 4.4 g/m*3 0.3 C 0 km/h
2720 24-02-2019 10:35:00 0.7 C 4.47 g/m*3 0.7 C 0 km/h
2721 24-02-2019 10:40:00 1 C 4.57 g/m*3 1 C 0 km/h
2722 24-02-2019 10:45:00 1.4 C 4.64 g/m*3 1.4 C 0 km/h
2723 24-02-2019 10:50:00 1.7 C 4.68 g/m*3 1.7 C 0 km/h
2724 24-02-2019 10:55:00 2.2 C 4.79 g/m*3 2.2 C 0 km/h
2725 24-02-2019 11:00:00 2.6 C 4.8 g/m*3 2.6 C 0 km/h
Sensor: Nr:Datum:Temp:Abs-Feuchte:Windchill:Wind:
Aussen-T/F 2726 24-02-2019 11:05:00 2.9 C 4.84 g/m*3 2.9 C 0 km/h
2727 24-02-2019 11:10:00 3.2 C 4.94 g/m*3 3.2 C 0 km/h
2728 24-02-2019 11:15:00 3.4 C 4.95 g/m*3 3.4 C 0 km/h
2729 24-02-2019 11:20:00 3.7 C 4.99 g/m*3 3.7 C 0 km/h
2730 24-02-2019 11:25:00 3.9 C 4.99 g/m*3 3.9 C 0 km/h
2731 24-02-2019 11:30:00 4.2 C 4.9 g/m*3 4.2 C 0 km/h
2732 24-02-2019 11:35:00 4.6 C 4.96 g/m*3 4.6 C 0 km/h
2733 24-02-2019 11:40:00 4.8 C 5.1 g/m*3 4.8 C 0 km/h
2734 24-02-2019 11:45:00 5.1 C 5.06 g/m*3 5.1 C 0 km/h
2735 24-02-2019 11:50:00 5.3 C 5.13 g/m*3 5.3 C 0 km/h
2736 24-02-2019 11:55:00 5.4 C 5.09 g/m*3 5.4 C 0 km/h
2737 24-02-2019 12:00:00 5.6 C 5.16 g/m*3 5.6 C 0 km/h
2738 24-02-2019 12:05:00 5.7 C 5.12 g/m*3 5.7 C 0 km/h
2739 24-02-2019 12:10:00 5.9 C 5.19 g/m*3 5.9 C 0 km/h
2740 24-02-2019 12:15:00 6.3 C 5.18 g/m*3 6.3 C 0 km/h
2741 24-02-2019 12:20:00 6.6 C 5.21 g/m*3 6.6 C 0 km/h
2742 24-02-2019 12:25:00 6.9 C 5.23 g/m*3 6.9 C 0 km/h
2743 24-02-2019 12:30:00 7.4 C 5.33 g/m*3 7.4 C 0 km/h
2744 24-02-2019 12:35:00 8.1 C 5.49 g/m*3 8.1 C 0 km/h
2745 24-02-2019 12:40:00 8.6 C 5.41 g/m*3 8.6 C 0 km/h
2746 24-02-2019 12:45:00 8.8 C 5.05 g/m*3 8.8 C 0 km/h
2747 24-02-2019 12:50:00 9.1 C 5.15 g/m*3 9.1 C 0 km/h
2748 24-02-2019 12:55:00 9.2 C 5.09 g/m*3 9.2 C 0 km/h
2749 24-02-2019 13:00:00 9.2 C 4.91 g/m*3 9.2 C 0 km/h
2750 24-02-2019 13:05:00 9.3 C 4.4 g/m*3 8.56 C 6.4 km/h
Sensor: Nr:Datum:Temp:Abs-Feuchte:Windchill:Wind:
Aussen-T/F 2751 24-02-2019 13:10:00 9.4 C 4.34 g/m*3 9.4 C 4.8 km/h
2752 24-02-2019 13:15:00 9.7 C 4.24 g/m*3 8.06 C 11.3 km/h
2753 24-02-2019 13:20:00 9.9 C 3.92 g/m*3 9.9 C 3.2 km/h
2754 24-02-2019 13:25:00 10.3 C 4.31 g/m*3 10.3 C 4.8 km/h
2755 24-02-2019 13:30:00 10.6 C 4.29 g/m*3 10.06 C 6.4 km/h
2756 24-02-2019 13:35:00 10.9 C 4.38 g/m*3 10.9 C 3.2 km/h
2757 24-02-2019 13:40:00 11.2 C 4.05 g/m*3 11.2 C 1.6 km/h
2758 24-02-2019 13:45:00 11.4 C 4.11 g/m*3 11.4 C 3.2 km/h
2759 24-02-2019 13:50:00 11.7 C 4.18 g/m*3 11.7 C 3.2 km/h
2760 24-02-2019 13:55:00 11.9 C 3.92 g/m*3 11.9 C 4.8 km/h
2761 24-02-2019 14:00:00 11.9 C 3.71 g/m*3 11.9 C 9.7 km/h
2762 24-02-2019 14:05:00 11.9 C 3.81 g/m*3 11.9 C 8.1 km/h
2763 24-02-2019 14:10:00 11.9 C 3.81 g/m*3 11.9 C 8.1 km/h
2764 24-02-2019 14:15:00 11.9 C 3.81 g/m*3 11.9 C 6.4 km/h
2765 24-02-2019 14:20:00 11.9 C 4.02 g/m*3 11.9 C 6.4 km/h
2766 24-02-2019 14:25:00 11.8 C 3.89 g/m*3 11.8 C 8.1 km/h
2767 24-02-2019 14:30:00 11.8 C 3.89 g/m*3 11.8 C 4.8 km/h
2768 24-02-2019 14:35:00 11.8 C 4 g/m*3 11.8 C 4.8 km/h
2769 24-02-2019 14:40:00 11.8 C 4.21 g/m*3 11.8 C 6.4 km/h
2770 24-02-2019 14:45:00 11.9 C 3.81 g/m*3 11.9 C 6.4 km/h
2771 24-02-2019 14:50:00 12 C 3.73 g/m*3 12 C 6.4 km/h
2772 24-02-2019 14:55:00 12.1 C 3.65 g/m*3 12.1 C 4.8 km/h
2773 24-02-2019 15:00:00 12.2 C 3.88 g/m*3 12.2 C 3.2 km/h
2774 24-02-2019 15:05:00 12.3 C 3.8 g/m*3 12.3 C 6.4 km/h
2775 24-02-2019 15:10:00 12.4 C 3.82 g/m*3 12.4 C 4.8 km/h
Sensor: Nr:Datum:Temp:Abs-Feuchte:Windchill:Wind:
Aussen-T/F 2776 24-02-2019 15:15:00 12.4 C 3.82 g/m*3 12.4 C 4.8 km/h
2777 24-02-2019 15:20:00 12.5 C 3.74 g/m*3 12.5 C 4.8 km/h
2778 24-02-2019 15:25:00 12.6 C 3.98 g/m*3 12.6 C 3.2 km/h
2779 24-02-2019 15:30:00 12.6 C 4.31 g/m*3 12.6 C 1.6 km/h
2780 24-02-2019 15:35:00 12.6 C 4.87 g/m*3 12.6 C 1.6 km/h
2781 24-02-2019 15:40:00 12.4 C 4.59 g/m*3 12.4 C 1.6 km/h
2782 24-02-2019 15:45:00 12.4 C 4.81 g/m*3 12.4 C 1.6 km/h
2783 24-02-2019 15:50:00 12.3 C 4.78 g/m*3 12.3 C 0 km/h
2784 24-02-2019 15:55:00 12.3 C 4.78 g/m*3 12.3 C 0 km/h
2785 24-02-2019 16:00:00 12.3 C 4.89 g/m*3 12.3 C 1.6 km/h
2786 24-02-2019 16:05:00 12.2 C 4.96 g/m*3 12.2 C 3.2 km/h
2787 24-02-2019 16:10:00 12.3 C 4.45 g/m*3 12.3 C 4.8 km/h
2788 24-02-2019 16:15:00 12.4 C 4.81 g/m*3 12.4 C 4.8 km/h
2789 24-02-2019 16:20:00 12.3 C 4.89 g/m*3 12.3 C 1.6 km/h
2790 24-02-2019 16:25:00 12.2 C 4.75 g/m*3 12.2 C 0 km/h
2791 24-02-2019 16:30:00 11.9 C 4.87 g/m*3 11.9 C 3.2 km/h
2792 24-02-2019 16:35:00 11.6 C 4.89 g/m*3 11.6 C 3.2 km/h
2793 24-02-2019 16:40:00 11.3 C 4.9 g/m*3 11.3 C 3.2 km/h
2794 24-02-2019 16:45:00 11.2 C 5.07 g/m*3 11.2 C 3.2 km/h
2795 24-02-2019 16:50:00 11.1 C 5.14 g/m*3 11.1 C 4.8 km/h
2796 24-02-2019 16:55:00 10.9 C 5.07 g/m*3 10.9 C 4.8 km/h
2797 24-02-2019 17:00:00 10.8 C 5.14 g/m*3 10.8 C 4.8 km/h
2798 24-02-2019 17:05:00 10.7 C 5.11 g/m*3 10.7 C 0 km/h
2799 24-02-2019 17:10:00 10.7 C 5.11 g/m*3 10.7 C 0 km/h
2800 24-02-2019 17:15:00 10.5 C 5.04 g/m*3 10.5 C 0 km/h
Sensor: Nr:Datum:Temp:Abs-Feuchte:Windchill:Wind:
Aussen-T/F 2801 24-02-2019 17:20:00 10.4 C 5.01 g/m*3 10.4 C 0 km/h
2802 24-02-2019 17:25:00 10.3 C 4.98 g/m*3 10.3 C 0 km/h
2803 24-02-2019 17:30:00 10.3 C 4.98 g/m*3 10.3 C 0 km/h
2804 24-02-2019 17:35:00 10.3 C 4.98 g/m*3 10.3 C 0 km/h
2805 24-02-2019 17:40:00 10.2 C 5.04 g/m*3 10.2 C 0 km/h
2806 24-02-2019 17:45:00 10 C 4.98 g/m*3 10 C 0 km/h
2807 24-02-2019 17:50:00 9.8 C 4.92 g/m*3 9.8 C 0 km/h
2808 24-02-2019 17:55:00 9.6 C 4.95 g/m*3 9.6 C 0 km/h
2809 24-02-2019 18:00:00 9.3 C 4.94 g/m*3 8.56 C 6.4 km/h
2810 24-02-2019 18:05:00 9.1 C 4.97 g/m*3 8.33 C 6.4 km/h
2811 24-02-2019 18:10:00 8.8 C 4.87 g/m*3 8.8 C 4.8 km/h
2812 24-02-2019 18:15:00 8.7 C 4.84 g/m*3 7.87 C 6.4 km/h
2813 24-02-2019 18:20:00 8.6 C 4.81 g/m*3 7.75 C 6.4 km/h
2814 24-02-2019 18:25:00 8.4 C 4.75 g/m*3 8.4 C 0 km/h
2815 24-02-2019 18:30:00 8.4 C 4.84 g/m*3 8.4 C 0 km/h
2816 24-02-2019 18:35:00 8.3 C 4.72 g/m*3 8.3 C 0 km/h
2817 24-02-2019 18:40:00 8.2 C 4.77 g/m*3 7.29 C 6.4 km/h
2818 24-02-2019 18:45:00 8 C 4.8 g/m*3 8 C 4.8 km/h
2819 24-02-2019 18:50:00 7.8 C 4.82 g/m*3 7.8 C 4.8 km/h
2820 24-02-2019 18:55:00 7.7 C 4.7 g/m*3 7.7 C 1.6 km/h
2821 24-02-2019 19:00:00 7.6 C 4.75 g/m*3 7.6 C 0 km/h
2822 24-02-2019 19:05:00 7.4 C 4.69 g/m*3 7.4 C 4.8 km/h
2823 24-02-2019 19:10:00 7.2 C 4.71 g/m*3 6.13 C 6.4 km/h
2824 24-02-2019 19:15:00 7.2 C 4.71 g/m*3 6.13 C 6.4 km/h
2825 24-02-2019 19:20:00 7.1 C 4.6 g/m*3 6.02 C 6.4 km/h
Sensor: Nr:Datum:Temp:Abs-Feuchte:Windchill:Wind:
Aussen-T/F 2826 24-02-2019 19:25:00 7 C 4.8 g/m*3 7 C 3.2 km/h
2827 24-02-2019 19:30:00 6.8 C 4.67 g/m*3 6.8 C 4.8 km/h
2828 24-02-2019 19:35:00 6.7 C 4.64 g/m*3 6.7 C 4.8 km/h
2829 24-02-2019 19:40:00 6.6 C 4.68 g/m*3 6.6 C 4.8 km/h
2830 24-02-2019 19:45:00 6.4 C 4.62 g/m*3 6.4 C 3.2 km/h
2831 24-02-2019 19:50:00 6.3 C 4.74 g/m*3 6.3 C 0 km/h
2832 24-02-2019 19:55:00 6.1 C 4.68 g/m*3 6.1 C 0 km/h
2833 24-02-2019 20:00:00 5.9 C 4.47 g/m*3 5.9 C 0 km/h
2834 24-02-2019 20:05:00 5.8 C 4.66 g/m*3 5.8 C 0 km/h
2835 24-02-2019 20:10:00 5.7 C 4.55 g/m*3 5.7 C 3.2 km/h
2836 24-02-2019 20:15:00 5.5 C 4.49 g/m*3 5.5 C 0 km/h
2837 24-02-2019 20:20:00 5.2 C 4.48 g/m*3 5.2 C 0 km/h
2838 24-02-2019 20:25:00 4.9 C 4.52 g/m*3 4.9 C 0 km/h
2839 24-02-2019 20:30:00 4.6 C 4.57 g/m*3 4.6 C 0 km/h
2840 24-02-2019 20:35:00 4.4 C 4.44 g/m*3 4.4 C 0 km/h
2841 24-02-2019 20:40:00 4.3 C 4.35 g/m*3 4.3 C 0 km/h
2842 24-02-2019 20:45:00 4.4 C 4.44 g/m*3 4.4 C 0 km/h
2843 24-02-2019 20:50:00 4.3 C 4.41 g/m*3 4.3 C 0 km/h
2844 24-02-2019 20:55:00 4.2 C 4.51 g/m*3 4.2 C 0 km/h
2845 24-02-2019 21:00:00 4.1 C 4.54 g/m*3 4.1 C 0 km/h
2846 24-02-2019 21:05:00 3.9 C 4.42 g/m*3 3.9 C 0 km/h
2847 24-02-2019 21:10:00 3.8 C 4.45 g/m*3 3.8 C 0 km/h
2848 24-02-2019 21:15:00 3.7 C 4.42 g/m*3 3.7 C 0 km/h
2849 24-02-2019 21:20:00 3.7 C 4.42 g/m*3 3.7 C 0 km/h
2850 24-02-2019 21:25:00 3.5 C 4.43 g/m*3 3.5 C 0 km/h
Sensor: Nr:Datum:Temp:Abs-Feuchte:Windchill:Wind:
Aussen-T/F 2851 24-02-2019 21:30:00 3.3 C 4.31 g/m*3 3.3 C 0 km/h
2852 24-02-2019 21:35:00 3.1 C 4.31 g/m*3 3.1 C 0 km/h
2853 24-02-2019 21:40:00 2.9 C 4.31 g/m*3 2.9 C 0 km/h
2854 24-02-2019 21:45:00 2.8 C 4.28 g/m*3 2.8 C 0 km/h
2855 24-02-2019 21:50:00 2.8 C 4.22 g/m*3 2.8 C 0 km/h
2856 24-02-2019 21:55:00 2.8 C 4.16 g/m*3 2.8 C 0 km/h
2857 24-02-2019 22:00:00 2.8 C 4.16 g/m*3 2.8 C 0 km/h
2858 24-02-2019 22:05:00 2.8 C 4.34 g/m*3 2.8 C 0 km/h
2859 24-02-2019 22:10:00 2.6 C 4.4 g/m*3 2.6 C 0 km/h
2860 24-02-2019 22:15:00 2.5 C 4.43 g/m*3 2.5 C 0 km/h
2861 24-02-2019 22:20:00 2.4 C 4.34 g/m*3 2.4 C 0 km/h
2862 24-02-2019 22:25:00 2.4 C 4.34 g/m*3 2.4 C 0 km/h
2863 24-02-2019 22:30:00 2.4 C 4.23 g/m*3 2.4 C 0 km/h
2864 24-02-2019 22:35:00 2.5 C 4.25 g/m*3 2.5 C 0 km/h
2865 24-02-2019 22:40:00 2.6 C 4.28 g/m*3 2.6 C 0 km/h
2866 24-02-2019 22:45:00 2.6 C 4.28 g/m*3 2.6 C 0 km/h
2867 24-02-2019 22:50:00 2.5 C 4.25 g/m*3 2.5 C 0 km/h
2868 24-02-2019 22:55:00 2.4 C 4.23 g/m*3 2.4 C 0 km/h
2869 24-02-2019 23:00:00 2.2 C 4.22 g/m*3 2.2 C 0 km/h
2870 24-02-2019 23:05:00 2.1 C 4.25 g/m*3 2.1 C 0 km/h
2871 24-02-2019 23:10:00 1.9 C 4.25 g/m*3 1.9 C 0 km/h
2872 24-02-2019 23:15:00 1.7 C 4.25 g/m*3 1.7 C 0 km/h
2873 24-02-2019 23:20:00 1.6 C 4.27 g/m*3 1.6 C 0 km/h
2874 24-02-2019 23:25:00 1.5 C 4.24 g/m*3 1.5 C 0 km/h
2875 24-02-2019 23:30:00 1.6 C 4.22 g/m*3 1.6 C 0 km/h
Sensor: Nr:Datum:Temp:Abs-Feuchte:Windchill:Wind:
Aussen-T/F 2876 24-02-2019 23:35:00 1.7 C 4.19 g/m*3 1.7 C 0 km/h
2877 24-02-2019 23:40:00 1.8 C 4.22 g/m*3 1.8 C 0 km/h
2878 24-02-2019 23:45:00 1.8 C 4.22 g/m*3 1.8 C 0 km/h
2879 24-02-2019 23:50:00 1.9 C 4.25 g/m*3 1.9 C 0 km/h
2880 24-02-2019 23:55:00 2 C 4.22 g/m*3 2 C 0 km/h
2881 25-02-2019 00:00:00 1.8 C 4.17 g/m*3 1.8 C 0 km/h
2882 25-02-2019 00:05:00 1.8 C 4.22 g/m*3 1.8 C 0 km/h
2883 25-02-2019 00:10:00 1.7 C 4.19 g/m*3 1.7 C 0 km/h
2884 25-02-2019 00:15:00 1.4 C 4.11 g/m*3 1.4 C 0 km/h
2885 25-02-2019 00:20:00 1.3 C 4.13 g/m*3 1.3 C 0 km/h
2886 25-02-2019 00:25:00 1.2 C 4.16 g/m*3 1.2 C 0 km/h
2887 25-02-2019 00:30:00 1.1 C 4.18 g/m*3 1.1 C 0 km/h
2888 25-02-2019 00:35:00 0.9 C 4.12 g/m*3 0.9 C 0 km/h
2889 25-02-2019 00:40:00 0.8 C 4.1 g/m*3 0.8 C 0 km/h
2890 25-02-2019 00:45:00 0.7 C 4.12 g/m*3 0.7 C 0 km/h
2891 25-02-2019 00:50:00 0.7 C 4.12 g/m*3 0.7 C 0 km/h
2892 25-02-2019 00:55:00 0.7 C 4.12 g/m*3 0.7 C 0 km/h
2893 25-02-2019 01:00:00 1 C 4.2 g/m*3 1 C 0 km/h
2894 25-02-2019 01:05:00 1.2 C 4.21 g/m*3 1.2 C 0 km/h
2895 25-02-2019 01:10:00 1.3 C 4.24 g/m*3 1.3 C 0 km/h
2896 25-02-2019 01:15:00 1.1 C 4.18 g/m*3 1.1 C 0 km/h
2897 25-02-2019 01:20:00 0.9 C 4.18 g/m*3 0.9 C 0 km/h
2898 25-02-2019 01:25:00 0.9 C 4.18 g/m*3 0.9 C 0 km/h
2899 25-02-2019 01:30:00 0.9 C 4.18 g/m*3 0.9 C 0 km/h
2900 25-02-2019 01:35:00 1 C 4.2 g/m*3 1 C 0 km/h
Sensor: Nr:Datum:Temp:Abs-Feuchte:Windchill:Wind:
Aussen-T/F 2901 25-02-2019 01:40:00 0.9 C 4.18 g/m*3 0.9 C 0 km/h
2902 25-02-2019 01:45:00 0.7 C 4.12 g/m*3 0.7 C 0 km/h
2903 25-02-2019 01:50:00 0.6 C 4.14 g/m*3 0.6 C 0 km/h
2904 25-02-2019 01:55:00 0.6 C 4.19 g/m*3 0.6 C 0 km/h
2905 25-02-2019 02:00:00 0.7 C 4.22 g/m*3 0.7 C 0 km/h
2906 25-02-2019 02:05:00 0.6 C 4.14 g/m*3 0.6 C 0 km/h
2907 25-02-2019 02:10:00 0.4 C 4.08 g/m*3 0.4 C 0 km/h
2908 25-02-2019 02:15:00 0.3 C 4.11 g/m*3 0.3 C 0 km/h
2909 25-02-2019 02:20:00 0.2 C 4.08 g/m*3 0.2 C 0 km/h
2910 25-02-2019 02:25:00 0 C 4.02 g/m*3 0 C 0 km/h
2911 25-02-2019 02:30:00 -0.1 C 4.04 g/m*3 -0.1 C 0 km/h
2912 25-02-2019 02:35:00 -0.1 C 4.04 g/m*3 -0.1 C 0 km/h
2913 25-02-2019 02:40:00 -0.2 C 4.06 g/m*3 -0.2 C 0 km/h
2914 25-02-2019 02:45:00 -0.2 C 4.06 g/m*3 -0.2 C 0 km/h
2915 25-02-2019 02:50:00 -0.1 C 4.09 g/m*3 -0.1 C 0 km/h
2916 25-02-2019 02:55:00 0.1 C 4.15 g/m*3 0.1 C 0 km/h
2917 25-02-2019 03:00:00 0.2 C 4.13 g/m*3 0.2 C 0 km/h
2918 25-02-2019 03:05:00 0.3 C 4.16 g/m*3 0.3 C 0 km/h
2919 25-02-2019 03:10:00 0.3 C 4.16 g/m*3 0.3 C 0 km/h
2920 25-02-2019 03:15:00 0.3 C 4.11 g/m*3 0.3 C 0 km/h
2921 25-02-2019 03:20:00 0.2 C 4.08 g/m*3 0.2 C 0 km/h
2922 25-02-2019 03:25:00 0.1 C 4.05 g/m*3 0.1 C 0 km/h
2923 25-02-2019 03:30:00 -0.1 C 3.99 g/m*3 -0.1 C 0 km/h
2924 25-02-2019 03:35:00 -0.2 C 4.01 g/m*3 -0.2 C 0 km/h
2925 25-02-2019 03:40:00 -0.2 C 4.06 g/m*3 -0.2 C 0 km/h
Sensor: Nr:Datum:Temp:Abs-Feuchte:Windchill:Wind:
Aussen-T/F 2926 25-02-2019 03:45:00 -0.3 C 4.03 g/m*3 -0.3 C 0 km/h
2927 25-02-2019 03:50:00 -0.3 C 4.03 g/m*3 -0.3 C 0 km/h
2928 25-02-2019 03:55:00 -0.4 C 4.01 g/m*3 -0.4 C 0 km/h
2929 25-02-2019 04:00:00 -0.5 C 3.98 g/m*3 -0.5 C 0 km/h
2930 25-02-2019 04:05:00 -0.5 C 4.03 g/m*3 -0.5 C 0 km/h
2931 25-02-2019 04:10:00 -0.5 C 4.03 g/m*3 -0.5 C 0 km/h
2932 25-02-2019 04:15:00 -0.5 C 4.03 g/m*3 -0.5 C 0 km/h
2933 25-02-2019 04:20:00 -0.6 C 4 g/m*3 -0.6 C 0 km/h
2934 25-02-2019 04:25:00 -0.6 C 4 g/m*3 -0.6 C 0 km/h
2935 25-02-2019 04:30:00 -0.6 C 4 g/m*3 -0.6 C 0 km/h
2936 25-02-2019 04:35:00 -0.6 C 4 g/m*3 -0.6 C 0 km/h
2937 25-02-2019 04:40:00 -0.6 C 4 g/m*3 -0.6 C 0 km/h
2938 25-02-2019 04:45:00 -0.7 C 3.97 g/m*3 -0.7 C 0 km/h
2939 25-02-2019 04:50:00 -0.7 C 4.02 g/m*3 -0.7 C 0 km/h
2940 25-02-2019 04:55:00 -0.6 C 4.04 g/m*3 -0.6 C 0 km/h
2941 25-02-2019 05:00:00 -0.6 C 4.04 g/m*3 -0.6 C 0 km/h
2942 25-02-2019 05:05:00 -0.6 C 4.04 g/m*3 -0.6 C 0 km/h
2943 25-02-2019 05:10:00 -0.6 C 4.04 g/m*3 -0.6 C 0 km/h
2944 25-02-2019 05:15:00 -0.6 C 4.04 g/m*3 -0.6 C 0 km/h
2945 25-02-2019 05:20:00 -0.7 C 4.02 g/m*3 -0.7 C 0 km/h
2946 25-02-2019 05:25:00 -0.8 C 3.99 g/m*3 -0.8 C 0 km/h
2947 25-02-2019 05:30:00 -0.8 C 3.99 g/m*3 -0.8 C 0 km/h
2948 25-02-2019 05:35:00 -0.8 C 3.99 g/m*3 -0.8 C 0 km/h
2949 25-02-2019 05:40:00 -0.9 C 3.96 g/m*3 -0.9 C 0 km/h
2950 25-02-2019 05:45:00 -0.8 C 4.03 g/m*3 -0.8 C 3.2 km/h
Sensor: Nr:Datum:Temp:Abs-Feuchte:Windchill:Wind:
Aussen-T/F 2951 25-02-2019 05:50:00 -0.7 C 4.06 g/m*3 -0.7 C 3.2 km/h
2952 25-02-2019 05:55:00 -0.6 C 4.09 g/m*3 -0.6 C 1.6 km/h
2953 25-02-2019 06:00:00 -0.6 C 4.09 g/m*3 -0.6 C 0 km/h
2954 25-02-2019 06:05:00 -0.6 C 4.04 g/m*3 -0.6 C 0 km/h
2955 25-02-2019 06:10:00 -0.7 C 4.02 g/m*3 -0.7 C 0 km/h
2956 25-02-2019 06:15:00 -0.8 C 3.99 g/m*3 -0.8 C 0 km/h
2957 25-02-2019 06:20:00 -0.8 C 4.03 g/m*3 -0.8 C 0 km/h
2958 25-02-2019 06:25:00 -0.8 C 4.03 g/m*3 -0.8 C 0 km/h
2959 25-02-2019 06:30:00 -0.9 C 4.01 g/m*3 -0.9 C 0 km/h
2960 25-02-2019 06:35:00 -1 C 3.98 g/m*3 -1 C 0 km/h
2961 25-02-2019 06:40:00 -1.1 C 3.95 g/m*3 -1.1 C 0 km/h
2962 25-02-2019 06:45:00 -1.1 C 3.95 g/m*3 -1.1 C 0 km/h
2963 25-02-2019 06:50:00 -1.1 C 4 g/m*3 -1.1 C 1.6 km/h
2964 25-02-2019 06:55:00 -0.9 C 4.05 g/m*3 -0.9 C 0 km/h
2965 25-02-2019 07:00:00 -0.9 C 4.01 g/m*3 -0.9 C 0 km/h
2966 25-02-2019 07:05:00 -1 C 3.98 g/m*3 -1 C 0 km/h
2967 25-02-2019 07:10:00 -1.1 C 3.95 g/m*3 -1.1 C 0 km/h
2968 25-02-2019 07:15:00 -1.1 C 3.95 g/m*3 -1.1 C 0 km/h
2969 25-02-2019 07:20:00 -1.2 C 3.92 g/m*3 -1.2 C 0 km/h
2970 25-02-2019 07:25:00 -1.2 C 3.92 g/m*3 -1.2 C 0 km/h
2971 25-02-2019 07:30:00 -1.3 C 3.9 g/m*3 -1.3 C 0 km/h
2972 25-02-2019 07:35:00 -1.3 C 3.9 g/m*3 -1.3 C 0 km/h
2973 25-02-2019 07:40:00 -1.3 C 3.9 g/m*3 -1.3 C 0 km/h
2974 25-02-2019 07:45:00 -1.4 C 3.87 g/m*3 -1.4 C 0 km/h
2975 25-02-2019 07:50:00 -1.4 C 3.91 g/m*3 -1.4 C 0 km/h
Sensor: Nr:Datum:Temp:Abs-Feuchte:Windchill:Wind:
Aussen-T/F 2976 25-02-2019 07:55:00 -1.4 C 3.91 g/m*3 -1.4 C 0 km/h
2977 25-02-2019 08:00:00 -1.4 C 3.91 g/m*3 -1.4 C 0 km/h
2978 25-02-2019 08:05:00 -1.3 C 3.98 g/m*3 -1.3 C 0 km/h
2979 25-02-2019 08:10:00 -1.2 C 4.01 g/m*3 -1.2 C 0 km/h
2980 25-02-2019 08:15:00 -1.2 C 4.01 g/m*3 -1.2 C 0 km/h
2981 25-02-2019 08:20:00 -1.2 C 3.97 g/m*3 -1.2 C 0 km/h
2982 25-02-2019 08:25:00 -1.3 C 3.94 g/m*3 -1.3 C 0 km/h
2983 25-02-2019 08:30:00 -1.2 C 4.01 g/m*3 -1.2 C 0 km/h
2984 25-02-2019 08:35:00 -1.2 C 4.01 g/m*3 -1.2 C 0 km/h
2985 25-02-2019 08:40:00 -1.1 C 4.04 g/m*3 -1.1 C 0 km/h
2986 25-02-2019 08:45:00 -1.1 C 4.04 g/m*3 -1.1 C 0 km/h
2987 25-02-2019 08:50:00 -1.1 C 4.04 g/m*3 -1.1 C 0 km/h
2988 25-02-2019 08:55:00 -1.1 C 4.04 g/m*3 -1.1 C 0 km/h
2989 25-02-2019 09:00:00 -0.9 C 4.1 g/m*3 -0.9 C 0 km/h
2990 25-02-2019 09:05:00 -0.9 C 4.05 g/m*3 -0.9 C 0 km/h
2991 25-02-2019 09:10:00 -0.9 C 4.05 g/m*3 -0.9 C 0 km/h
2992 25-02-2019 09:15:00 -0.9 C 4.05 g/m*3 -0.9 C 0 km/h
2993 25-02-2019 09:20:00 -0.8 C 4.08 g/m*3 -0.8 C 0 km/h
2994 25-02-2019 09:25:00 -0.8 C 4.08 g/m*3 -0.8 C 0 km/h
2995 25-02-2019 09:30:00 -0.7 C 4.11 g/m*3 -0.7 C 0 km/h
2996 25-02-2019 09:35:00 -0.6 C 4.14 g/m*3 -0.6 C 0 km/h
2997 25-02-2019 09:40:00 -0.6 C 4.14 g/m*3 -0.6 C 0 km/h
2998 25-02-2019 09:45:00 -0.5 C 4.12 g/m*3 -0.5 C 0 km/h
2999 25-02-2019 09:50:00 -0.4 C 4.15 g/m*3 -0.4 C 0 km/h
3000 25-02-2019 09:55:00 -0.3 C 4.18 g/m*3 -0.3 C 0 km/h
Sensor: Nr:Datum:Temp:Abs-Feuchte:Windchill:Wind:
Aussen-T/F 3001 25-02-2019 10:00:00 -0.3 C 4.18 g/m*3 -0.3 C 0 km/h
3002 25-02-2019 10:05:00 -0.2 C 4.21 g/m*3 -0.2 C 0 km/h
3003 25-02-2019 10:10:00 0 C 4.26 g/m*3 0 C 0 km/h
3004 25-02-2019 10:15:00 0.1 C 4.24 g/m*3 0.1 C 0 km/h
3005 25-02-2019 10:20:00 0.3 C 4.3 g/m*3 0.3 C 0 km/h
3006 25-02-2019 10:25:00 0.5 C 4.36 g/m*3 0.5 C 0 km/h
3007 25-02-2019 10:30:00 0.7 C 4.47 g/m*3 0.7 C 0 km/h
3008 25-02-2019 10:35:00 1 C 4.52 g/m*3 1 C 0 km/h
3009 25-02-2019 10:40:00 1.3 C 4.61 g/m*3 1.3 C 0 km/h
3010 25-02-2019 10:45:00 1.7 C 4.74 g/m*3 1.7 C 0 km/h
3011 25-02-2019 10:50:00 2.1 C 4.81 g/m*3 2.1 C 0 km/h
3012 25-02-2019 10:55:00 2.6 C 4.92 g/m*3 2.6 C 0 km/h
3013 25-02-2019 11:00:00 2.9 C 4.84 g/m*3 2.9 C 0 km/h
3014 25-02-2019 11:05:00 3.3 C 4.91 g/m*3 3.3 C 1.6 km/h
3015 25-02-2019 11:10:00 3.7 C 5.11 g/m*3 3.7 C 0 km/h
3016 25-02-2019 11:15:00 3.9 C 4.99 g/m*3 3.9 C 0 km/h
3017 25-02-2019 11:20:00 4.3 C 5.06 g/m*3 4.3 C 0 km/h
3018 25-02-2019 11:25:00 4.6 C 5.1 g/m*3 4.6 C 1.6 km/h
3019 25-02-2019 11:30:00 4.9 C 5.27 g/m*3 4.9 C 0 km/h
3020 25-02-2019 11:35:00 5.1 C 5.27 g/m*3 5.1 C 3.2 km/h
3021 25-02-2019 11:40:00 5.4 C 5.37 g/m*3 5.4 C 1.6 km/h
3022 25-02-2019 11:45:00 5.8 C 5.44 g/m*3 5.8 C 3.2 km/h
3023 25-02-2019 11:50:00 6 C 5.37 g/m*3 6 C 1.6 km/h
3024 25-02-2019 11:55:00 6.2 C 5.29 g/m*3 6.2 C 0 km/h
3025 25-02-2019 12:00:00 6.5 C 5.4 g/m*3 6.5 C 0 km/h
Sensor: Nr:Datum:Temp:Abs-Feuchte:Windchill:Wind:
Aussen-T/F 3026 25-02-2019 12:05:00 6.8 C 5.51 g/m*3 6.8 C 1.6 km/h
3027 25-02-2019 12:10:00 7.3 C 5.61 g/m*3 7.3 C 3.2 km/h
3028 25-02-2019 12:15:00 7.7 C 5.68 g/m*3 7.7 C 3.2 km/h
3029 25-02-2019 12:20:00 8.1 C 5.74 g/m*3 8.1 C 3.2 km/h
3030 25-02-2019 12:25:00 8.4 C 5.85 g/m*3 8.4 C 1.6 km/h
3031 25-02-2019 12:30:00 8.9 C 5.96 g/m*3 8.9 C 0 km/h
3032 25-02-2019 12:35:00 9.5 C 6.01 g/m*3 9.5 C 0 km/h
3033 25-02-2019 12:40:00 9.9 C 5.98 g/m*3 9.9 C 0 km/h
3034 25-02-2019 12:45:00 10.3 C 5.94 g/m*3 10.3 C 0 km/h
3035 25-02-2019 12:50:00 10.5 C 6.01 g/m*3 10.5 C 0 km/h
3036 25-02-2019 12:55:00 10.6 C 5.95 g/m*3 10.6 C 0 km/h
3037 25-02-2019 13:00:00 10.7 C 5.99 g/m*3 10.7 C 0 km/h
3038 25-02-2019 13:05:00 11 C 6.21 g/m*3 11 C 0 km/h
3039 25-02-2019 13:10:00 11.3 C 6.12 g/m*3 11.3 C 0 km/h
3040 25-02-2019 13:15:00 11.6 C 5.51 g/m*3 11.6 C 0 km/h
3041 25-02-2019 13:20:00 11.9 C 5.72 g/m*3 11.9 C 0 km/h
3042 25-02-2019 13:25:00 12.3 C 5.1 g/m*3 12.3 C 0 km/h
3043 25-02-2019 13:30:00 12.7 C 5.68 g/m*3 12.7 C 0 km/h
3044 25-02-2019 13:35:00 13.1 C 5.71 g/m*3 13.1 C 0 km/h
3045 25-02-2019 13:40:00 13.4 C 6.16 g/m*3 13.4 C 0 km/h
3046 25-02-2019 13:45:00 13.8 C 6.08 g/m*3 13.8 C 0 km/h
3047 25-02-2019 13:50:00 14.2 C 6.11 g/m*3 14.2 C 3.2 km/h
3048 25-02-2019 13:55:00 14.6 C 6.01 g/m*3 14.6 C 0 km/h
3049 25-02-2019 14:00:00 14.8 C 6.21 g/m*3 14.8 C 1.6 km/h
3050 25-02-2019 14:05:00 14.9 C 6.12 g/m*3 14.9 C 1.6 km/h
Sensor: Nr:Datum:Temp:Abs-Feuchte:Windchill:Wind:
Aussen-T/F 3051 25-02-2019 14:10:00 15 C 6.28 g/m*3 15 C 0 km/h
3052 25-02-2019 14:15:00 15.1 C 6.19 g/m*3 15.1 C 1.6 km/h
3053 25-02-2019 14:20:00 15 C 5.77 g/m*3 15 C 1.6 km/h
3054 25-02-2019 14:25:00 14.9 C 5.74 g/m*3 14.9 C 3.2 km/h
3055 25-02-2019 14:30:00 14.7 C 5.79 g/m*3 14.7 C 1.6 km/h
3056 25-02-2019 14:35:00 14.6 C 5.76 g/m*3 14.6 C 0 km/h
3057 25-02-2019 14:40:00 14.4 C 5.44 g/m*3 14.4 C 6.4 km/h
3058 25-02-2019 14:45:00 14.4 C 5.69 g/m*3 14.4 C 0 km/h
3059 25-02-2019 14:50:00 14.5 C 5.72 g/m*3 14.5 C 3.2 km/h
3060 25-02-2019 14:55:00 14.6 C 6.01 g/m*3 14.6 C 1.6 km/h
3061 25-02-2019 15:00:00 14.5 C 5.97 g/m*3 14.5 C 3.2 km/h
3062 25-02-2019 15:05:00 14.5 C 5.72 g/m*3 14.5 C 4.8 km/h
3063 25-02-2019 15:10:00 14.5 C 5.85 g/m*3 14.5 C 3.2 km/h
3064 25-02-2019 15:15:00 14.4 C 6.18 g/m*3 14.4 C 1.6 km/h
3065 25-02-2019 15:20:00 14.4 C 5.81 g/m*3 14.4 C 3.2 km/h
3066 25-02-2019 15:25:00 14.3 C 6.02 g/m*3 14.3 C 1.6 km/h
3067 25-02-2019 15:30:00 14.2 C 6.11 g/m*3 14.2 C 3.2 km/h
3068 25-02-2019 15:35:00 14 C 6.15 g/m*3 14 C 0 km/h
3069 25-02-2019 15:40:00 13.9 C 6.23 g/m*3 13.9 C 0 km/h
3070 25-02-2019 15:45:00 13.8 C 6.2 g/m*3 13.8 C 0 km/h
3071 25-02-2019 15:50:00 13.8 C 6.2 g/m*3 13.8 C 0 km/h
3072 25-02-2019 15:55:00 13.8 C 6.08 g/m*3 13.8 C 0 km/h
3073 25-02-2019 16:00:00 13.9 C 6.11 g/m*3 13.9 C 0 km/h
3074 25-02-2019 16:05:00 13.9 C 6.11 g/m*3 13.9 C 0 km/h
3075 25-02-2019 16:10:00 14.1 C 6.19 g/m*3 14.1 C 1.6 km/h
Sensor: Nr:Datum:Temp:Abs-Feuchte:Windchill:Wind:
Aussen-T/F 3076 25-02-2019 16:15:00 14.1 C 5.58 g/m*3 14.1 C 4.8 km/h
3077 25-02-2019 16:20:00 14.3 C 6.27 g/m*3 14.3 C 6.4 km/h
3078 25-02-2019 16:25:00 14.5 C 5.97 g/m*3 14.5 C 4.8 km/h
3079 25-02-2019 16:30:00 14.7 C 6.3 g/m*3 14.7 C 0 km/h
3080 25-02-2019 16:35:00 14.7 C 6.3 g/m*3 14.7 C 0 km/h
3081 25-02-2019 16:40:00 14.6 C 6.01 g/m*3 14.6 C 0 km/h
3082 25-02-2019 16:45:00 14.6 C 6.13 g/m*3 14.6 C 3.2 km/h
3083 25-02-2019 16:50:00 14.6 C 6.26 g/m*3 14.6 C 0 km/h
3084 25-02-2019 16:55:00 14.5 C 6.22 g/m*3 14.5 C 4.8 km/h
3085 25-02-2019 17:00:00 14.4 C 6.3 g/m*3 14.4 C 4.8 km/h
3086 25-02-2019 17:05:00 14.2 C 6.23 g/m*3 14.2 C 3.2 km/h
3087 25-02-2019 17:10:00 14.1 C 6.31 g/m*3 14.1 C 3.2 km/h
3088 25-02-2019 17:15:00 13.9 C 6.23 g/m*3 13.9 C 4.8 km/h
3089 25-02-2019 17:20:00 13.7 C 6.28 g/m*3 13.7 C 6.4 km/h
3090 25-02-2019 17:25:00 13.6 C 6.24 g/m*3 13.6 C 6.4 km/h
3091 25-02-2019 17:30:00 13.6 C 6.36 g/m*3 13.6 C 6.4 km/h
3092 25-02-2019 17:35:00 13.6 C 6.24 g/m*3 13.6 C 6.4 km/h
3093 25-02-2019 17:40:00 13.4 C 6.16 g/m*3 13.4 C 6.4 km/h
3094 25-02-2019 17:45:00 13.3 C 6.24 g/m*3 13.3 C 6.4 km/h
3095 25-02-2019 17:50:00 13.1 C 6.16 g/m*3 13.1 C 6.4 km/h
3096 25-02-2019 17:55:00 12.8 C 6.16 g/m*3 12.8 C 6.4 km/h
3097 25-02-2019 18:00:00 12.6 C 6.2 g/m*3 12.6 C 4.8 km/h
3098 25-02-2019 18:05:00 12.2 C 6.04 g/m*3 12.2 C 6.4 km/h
3099 25-02-2019 18:10:00 11.8 C 6.1 g/m*3 11.8 C 6.4 km/h
3100 25-02-2019 18:15:00 11.4 C 5.95 g/m*3 11.4 C 6.4 km/h
Sensor: Nr:Datum:Temp:Abs-Feuchte:Windchill:Wind:
Aussen-T/F 3101 25-02-2019 18:20:00 11.2 C 5.98 g/m*3 11.2 C 6.4 km/h
3102 25-02-2019 18:25:00 11 C 6.01 g/m*3 10.52 C 6.4 km/h
3103 25-02-2019 18:30:00 10.8 C 5.93 g/m*3 10.29 C 6.4 km/h
3104 25-02-2019 18:35:00 10.7 C 5.99 g/m*3 10.18 C 6.4 km/h
3105 25-02-2019 18:40:00 10.6 C 6.05 g/m*3 10.06 C 6.4 km/h
3106 25-02-2019 18:45:00 10.4 C 5.98 g/m*3 10.4 C 4.8 km/h
3107 25-02-2019 18:50:00 10.3 C 6.03 g/m*3 10.3 C 3.2 km/h
3108 25-02-2019 18:55:00 10.2 C 6 g/m*3 10.2 C 3.2 km/h
3109 25-02-2019 19:00:00 10 C 5.92 g/m*3 10 C 3.2 km/h
3110 25-02-2019 19:05:00 9.8 C 5.94 g/m*3 9.8 C 1.6 km/h
3111 25-02-2019 19:10:00 9.6 C 5.95 g/m*3 9.6 C 0 km/h
3112 25-02-2019 19:15:00 9.4 C 5.97 g/m*3 9.4 C 0 km/h
3113 25-02-2019 19:20:00 9.2 C 5.98 g/m*3 9.2 C 0 km/h
3114 25-02-2019 19:25:00 8.9 C 5.96 g/m*3 8.9 C 0 km/h
3115 25-02-2019 19:30:00 8.8 C 5.92 g/m*3 8.8 C 0 km/h
3116 25-02-2019 19:35:00 8.8 C 5.92 g/m*3 8.8 C 0 km/h
3117 25-02-2019 19:40:00 8.8 C 5.92 g/m*3 8.8 C 0 km/h
3118 25-02-2019 19:45:00 8.7 C 5.88 g/m*3 8.7 C 0 km/h
3119 25-02-2019 19:50:00 8.6 C 5.84 g/m*3 8.6 C 0 km/h
3120 25-02-2019 19:55:00 8.3 C 5.82 g/m*3 8.3 C 0 km/h
3121 25-02-2019 20:00:00 8.1 C 5.82 g/m*3 8.1 C 0 km/h
3122 25-02-2019 20:05:00 8 C 5.87 g/m*3 8 C 0 km/h
3123 25-02-2019 20:10:00 7.8 C 5.79 g/m*3 7.8 C 0 km/h
3124 25-02-2019 20:15:00 7.4 C 5.73 g/m*3 7.4 C 0 km/h
3125 25-02-2019 20:20:00 7.1 C 5.62 g/m*3 7.1 C 0 km/h
Sensor: Nr:Datum:Temp:Abs-Feuchte:Windchill:Wind:
Aussen-T/F 3126 25-02-2019 20:25:00 6.9 C 5.62 g/m*3 6.9 C 0 km/h
3127 25-02-2019 20:30:00 6.8 C 5.66 g/m*3 6.8 C 0 km/h
3128 25-02-2019 20:35:00 6.8 C 5.74 g/m*3 6.8 C 0 km/h
3129 25-02-2019 20:40:00 6.6 C 5.59 g/m*3 6.6 C 0 km/h
3130 25-02-2019 20:45:00 6.4 C 5.51 g/m*3 6.4 C 0 km/h
3131 25-02-2019 20:50:00 6.3 C 5.48 g/m*3 6.3 C 0 km/h
3132 25-02-2019 20:55:00 6.3 C 5.55 g/m*3 6.3 C 0 km/h
3133 25-02-2019 21:00:00 6.3 C 5.55 g/m*3 6.3 C 0 km/h
3134 25-02-2019 21:05:00 6.1 C 5.48 g/m*3 6.1 C 0 km/h
3135 25-02-2019 21:10:00 5.9 C 5.41 g/m*3 5.9 C 0 km/h
3136 25-02-2019 21:15:00 5.9 C 5.41 g/m*3 5.9 C 0 km/h
3137 25-02-2019 21:20:00 5.8 C 5.37 g/m*3 5.8 C 0 km/h
3138 25-02-2019 21:25:00 5.6 C 5.37 g/m*3 5.6 C 0 km/h
3139 25-02-2019 21:30:00 5.4 C 5.37 g/m*3 5.4 C 0 km/h
3140 25-02-2019 21:35:00 5.3 C 5.34 g/m*3 5.3 C 0 km/h
3141 25-02-2019 21:40:00 5.2 C 5.37 g/m*3 5.2 C 0 km/h
3142 25-02-2019 21:45:00 5.2 C 5.37 g/m*3 5.2 C 0 km/h
3143 25-02-2019 21:50:00 5.1 C 5.4 g/m*3 5.1 C 0 km/h
3144 25-02-2019 21:55:00 5.1 C 5.4 g/m*3 5.1 C 0 km/h
3145 25-02-2019 22:00:00 5 C 5.37 g/m*3 5 C 0 km/h
3146 25-02-2019 22:05:00 5 C 5.3 g/m*3 5 C 0 km/h
3147 25-02-2019 22:10:00 4.9 C 5.27 g/m*3 4.9 C 0 km/h
3148 25-02-2019 22:15:00 4.8 C 5.3 g/m*3 4.8 C 0 km/h
3149 25-02-2019 22:20:00 4.8 C 5.3 g/m*3 4.8 C 0 km/h
3150 25-02-2019 22:25:00 4.7 C 5.26 g/m*3 4.7 C 0 km/h
Sensor: Nr:Datum:Temp:Abs-Feuchte:Windchill:Wind:
Aussen-T/F 3151 25-02-2019 22:30:00 4.5 C 5.19 g/m*3 4.5 C 0 km/h
3152 25-02-2019 22:35:00 4.4 C 5.22 g/m*3 4.4 C 0 km/h
3153 25-02-2019 22:40:00 4.2 C 5.15 g/m*3 4.2 C 0 km/h
3154 25-02-2019 22:45:00 4.2 C 5.15 g/m*3 4.2 C 0 km/h
3155 25-02-2019 22:50:00 4.1 C 5.12 g/m*3 4.1 C 0 km/h
3156 25-02-2019 22:55:00 4 C 5.21 g/m*3 4 C 0 km/h
3157 25-02-2019 23:00:00 3.9 C 5.18 g/m*3 3.9 C 0 km/h
3158 25-02-2019 23:05:00 3.8 C 5.21 g/m*3 3.8 C 0 km/h
3159 25-02-2019 23:10:00 3.8 C 5.21 g/m*3 3.8 C 0 km/h
3160 25-02-2019 23:15:00 3.7 C 5.11 g/m*3 3.7 C 0 km/h
3161 25-02-2019 23:20:00 3.4 C 5.01 g/m*3 3.4 C 0 km/h
3162 25-02-2019 23:25:00 3.2 C 5 g/m*3 3.2 C 0 km/h
3163 25-02-2019 23:30:00 3.1 C 5.03 g/m*3 3.1 C 0 km/h
3164 25-02-2019 23:35:00 3 C 4.99 g/m*3 3 C 0 km/h
3165 25-02-2019 23:40:00 2.8 C 4.93 g/m*3 2.8 C 0 km/h
3166 25-02-2019 23:45:00 2.7 C 4.95 g/m*3 2.7 C 0 km/h
3167 25-02-2019 23:50:00 2.8 C 5.04 g/m*3 2.8 C 0 km/h
3168 25-02-2019 23:55:00 2.8 C 4.99 g/m*3 2.8 C 0 km/h
3169 26-02-2019 00:00:00 2.7 C 4.95 g/m*3 2.7 C 0 km/h
3170 26-02-2019 00:05:00 2.8 C 5.04 g/m*3 2.8 C 0 km/h
3171 26-02-2019 00:10:00 2.7 C 4.95 g/m*3 2.7 C 0 km/h
3172 26-02-2019 00:15:00 2.6 C 4.98 g/m*3 2.6 C 0 km/h
3173 26-02-2019 00:20:00 2.6 C 4.98 g/m*3 2.6 C 0 km/h
3174 26-02-2019 00:25:00 2.6 C 4.98 g/m*3 2.6 C 0 km/h
3175 26-02-2019 00:30:00 2.6 C 5.03 g/m*3 2.6 C 0 km/h
Sensor: Nr:Datum:Temp:Abs-Feuchte:Windchill:Wind:
Aussen-T/F 3176 26-02-2019 00:35:00 2.5 C 4.94 g/m*3 2.5 C 0 km/h
3177 26-02-2019 00:40:00 2.3 C 4.82 g/m*3 2.3 C 0 km/h
3178 26-02-2019 00:45:00 2 C 4.78 g/m*3 2 C 0 km/h
3179 26-02-2019 00:50:00 1.9 C 4.8 g/m*3 1.9 C 0 km/h
3180 26-02-2019 00:55:00 1.8 C 4.82 g/m*3 1.8 C 0 km/h
3181 26-02-2019 01:00:00 1.8 C 4.88 g/m*3 1.8 C 0 km/h
3182 26-02-2019 01:05:00 1.9 C 4.91 g/m*3 1.9 C 0 km/h
3183 26-02-2019 01:10:00 1.9 C 4.91 g/m*3 1.9 C 0 km/h
3184 26-02-2019 01:15:00 1.9 C 4.86 g/m*3 1.9 C 0 km/h
3185 26-02-2019 01:20:00 1.8 C 4.88 g/m*3 1.8 C 0 km/h
3186 26-02-2019 01:25:00 1.9 C 4.91 g/m*3 1.9 C 0 km/h
3187 26-02-2019 01:30:00 1.9 C 4.91 g/m*3 1.9 C 0 km/h
3188 26-02-2019 01:35:00 2.1 C 5.04 g/m*3 2.1 C 0 km/h
3189 26-02-2019 01:40:00 2.2 C 5.01 g/m*3 2.2 C 0 km/h
3190 26-02-2019 01:45:00 2.1 C 4.92 g/m*3 2.1 C 0 km/h
3191 26-02-2019 01:50:00 1.9 C 4.86 g/m*3 1.9 C 0 km/h
3192 26-02-2019 01:55:00 1.8 C 4.82 g/m*3 1.8 C 0 km/h
3193 26-02-2019 02:00:00 1.6 C 4.81 g/m*3 1.6 C 0 km/h
3194 26-02-2019 02:05:00 1.6 C 4.81 g/m*3 1.6 C 0 km/h
3195 26-02-2019 02:10:00 1.7 C 4.9 g/m*3 1.7 C 0 km/h
3196 26-02-2019 02:15:00 1.7 C 4.9 g/m*3 1.7 C 0 km/h
3197 26-02-2019 02:20:00 1.6 C 4.81 g/m*3 1.6 C 0 km/h
3198 26-02-2019 02:25:00 1.4 C 4.75 g/m*3 1.4 C 0 km/h
3199 26-02-2019 02:30:00 1.3 C 4.72 g/m*3 1.3 C 0 km/h
3200 26-02-2019 02:35:00 1.3 C 4.77 g/m*3 1.3 C 0 km/h
Sensor: Nr:Datum:Temp:Abs-Feuchte:Windchill:Wind:
Aussen-T/F 3201 26-02-2019 02:40:00 1.2 C 4.74 g/m*3 1.2 C 0 km/h
3202 26-02-2019 02:45:00 1.3 C 4.82 g/m*3 1.3 C 0 km/h
3203 26-02-2019 02:50:00 1.1 C 4.7 g/m*3 1.1 C 0 km/h
3204 26-02-2019 02:55:00 0.9 C 4.59 g/m*3 0.9 C 0 km/h
3205 26-02-2019 03:00:00 0.7 C 4.58 g/m*3 0.7 C 0 km/h
3206 26-02-2019 03:05:00 0.6 C 4.54 g/m*3 0.6 C 0 km/h
3207 26-02-2019 03:10:00 0.5 C 4.51 g/m*3 0.5 C 0 km/h
3208 26-02-2019 03:15:00 0.4 C 4.53 g/m*3 0.4 C 0 km/h
3209 26-02-2019 03:20:00 0.5 C 4.56 g/m*3 0.5 C 0 km/h
3210 26-02-2019 03:25:00 0.5 C 4.56 g/m*3 0.5 C 0 km/h
3211 26-02-2019 03:30:00 0.6 C 4.65 g/m*3 0.6 C 0 km/h
3212 26-02-2019 03:35:00 0.8 C 4.71 g/m*3 0.8 C 0 km/h
3213 26-02-2019 03:40:00 0.8 C 4.71 g/m*3 0.8 C 0 km/h
3214 26-02-2019 03:45:00 0.7 C 4.63 g/m*3 0.7 C 0 km/h
3215 26-02-2019 03:50:00 0.7 C 4.68 g/m*3 0.7 C 0 km/h
3216 26-02-2019 03:55:00 0.8 C 4.71 g/m*3 0.8 C 0 km/h
3217 26-02-2019 04:00:00 0.7 C 4.68 g/m*3 0.7 C 0 km/h
3218 26-02-2019 04:05:00 0.4 C 4.53 g/m*3 0.4 C 0 km/h
3219 26-02-2019 04:10:00 0.3 C 4.55 g/m*3 0.3 C 0 km/h
3220 26-02-2019 04:15:00 0.3 C 4.55 g/m*3 0.3 C 0 km/h
3221 26-02-2019 04:20:00 0.4 C 4.58 g/m*3 0.4 C 0 km/h
3222 26-02-2019 04:25:00 0.4 C 4.58 g/m*3 0.4 C 0 km/h
3223 26-02-2019 04:30:00 0.4 C 4.58 g/m*3 0.4 C 0 km/h
3224 26-02-2019 04:35:00 0.3 C 4.55 g/m*3 0.3 C 0 km/h
3225 26-02-2019 04:40:00 0.2 C 4.52 g/m*3 0.2 C 0 km/h
Sensor: Nr:Datum:Temp:Abs-Feuchte:Windchill:Wind:
Aussen-T/F 3226 26-02-2019 04:45:00 0.1 C 4.49 g/m*3 0.1 C 0 km/h
3227 26-02-2019 04:50:00 0.2 C 4.57 g/m*3 0.2 C 0 km/h
3228 26-02-2019 04:55:00 0.2 C 4.57 g/m*3 0.2 C 0 km/h
3229 26-02-2019 05:00:00 0.2 C 4.57 g/m*3 0.2 C 0 km/h
3230 26-02-2019 05:05:00 0.1 C 4.54 g/m*3 0.1 C 0 km/h
3231 26-02-2019 05:10:00 0.1 C 4.54 g/m*3 0.1 C 0 km/h
3232 26-02-2019 05:15:00 0.1 C 4.54 g/m*3 0.1 C 0 km/h
3233 26-02-2019 05:20:00 0 C 4.51 g/m*3 0 C 0 km/h
3234 26-02-2019 05:25:00 0.1 C 4.54 g/m*3